W61005 / HA-LPM 7700 Squawk Report (14th of January, 2022)

Aircraft A320 Reg No. HA-LPM Age 14 years old
Model A320 Jet engines 2 First flight 18-06-07
Registered 06-07-07 Rollout 06-07 Delivered 06-07-07
Construction No. 3177 Line No. N/A Series 232
ADSHEX 47340D Airline name Wizz Air Owner N/A
Airfield based Budapest-Ferihegy~Pest~HA First tracked N/A

Flight history for HA-LPM

Time Lat Lon Altitude Heading Speed Vertical Rate
2022-01-14 20:00:22 GMT 51.879604 -0.372570 0 163 2 0
2022-01-14 20:00:21 GMT 51.879616 -0.372570 0 163 1 0
2022-01-14 20:00:11 GMT 51.879730 -0.372626 0 163 4 0
2022-01-14 20:00:01 GMT 51.879936 -0.372719 0 157 6 0
2022-01-14 19:59:56 GMT 51.880028 -0.372793 0 168 6 0
2022-01-14 19:59:50 GMT 51.880119 -0.372830 0 250 8 0
2022-01-14 19:59:43 GMT 51.880016 -0.372273 0 250 8 0
2022-01-14 19:59:40 GMT 51.880062 -0.372069 0 253 8 0
2022-01-14 19:59:36 GMT 51.880409 -0.372314 0 253 10 0
2022-01-14 19:59:35 GMT 51.880421 -0.372238 0 253 10 0
2022-01-14 19:59:33 GMT 51.880463 -0.372106 0 261 10 0
2022-01-14 19:59:30 GMT 51.880486 -0.371939 0 275 10 0
2022-01-14 19:59:29 GMT 51.880501 -0.371838 0 289 10 0
2022-01-14 19:59:28 GMT 51.880508 -0.371754 0 298 10 0
2022-01-14 19:59:26 GMT 51.880440 -0.371494 0 326 10 0
2022-01-14 19:59:23 GMT 51.880405 -0.371457 0 329 10 0
2022-01-14 19:59:22 GMT 51.880257 -0.371308 0 340 11 0
2022-01-14 19:59:20 GMT 51.880257 -0.371308 0 340 11 0
2022-01-14 19:59:15 GMT 51.880058 -0.371208 0 340 13 0
2022-01-14 19:59:14 GMT 51.879971 -0.371160 0 343 14 0
2022-01-14 19:59:11 GMT 51.879791 -0.371056 0 343 14 0
2022-01-14 19:59:08 GMT 51.879654 -0.370979 0 343 16 0
2022-01-14 19:59:07 GMT 51.879559 -0.370937 0 343 16 0
2022-01-14 19:59:06 GMT 51.879444 -0.370884 0 343 17 0
2022-01-14 19:59:04 GMT 51.879387 -0.370846 0 343 17 0
2022-01-14 19:59:03 GMT 51.879307 -0.370807 0 343 18 0
2022-01-14 19:59:01 GMT 51.879150 -0.370712 0 343 18 0
2022-01-14 19:59:00 GMT 51.878860 -0.370579 0 340 20 0
2022-01-14 19:58:58 GMT 51.878860 -0.370579 0 340 20 0
2022-01-14 19:58:53 GMT 51.878452 -0.370350 0 343 19 0
2022-01-14 19:58:52 GMT 51.878338 -0.370293 0 343 18 0
2022-01-14 19:58:51 GMT 51.878254 -0.370250 0 343 18 0
2022-01-14 19:58:50 GMT 51.878174 -0.370197 0 343 18 0
2022-01-14 19:58:49 GMT 51.878014 -0.370121 0 343 17 0
2022-01-14 19:58:47 GMT 51.877945 -0.370083 0 343 17 0
2022-01-14 19:58:45 GMT 51.877853 -0.370046 0 343 16 0
2022-01-14 19:58:44 GMT 51.877720 -0.369968 0 343 16 0
2022-01-14 19:58:42 GMT 51.877579 -0.369898 0 343 15 0
2022-01-14 19:58:41 GMT 51.877510 -0.369861 0 343 15 0
2022-01-14 19:58:39 GMT 51.877384 -0.369786 0 343 14 0
2022-01-14 19:58:37 GMT 51.877304 -0.369749 0 343 14 0
2022-01-14 19:58:36 GMT 51.877232 -0.369701 0 343 14 0
2022-01-14 19:58:34 GMT 51.877056 -0.369625 0 343 12 0
2022-01-14 19:58:32 GMT 51.876999 -0.369587 0 343 12 0
2022-01-14 19:58:31 GMT 51.876938 -0.369564 0 343 11 0
2022-01-14 19:58:29 GMT 51.876835 -0.369508 0 340 10 0
2022-01-14 19:58:27 GMT 51.876755 -0.369492 0 334 9 0
2022-01-14 19:58:26 GMT 51.876720 -0.369471 0 329 9 0
2022-01-14 19:58:22 GMT 51.876591 -0.369396 0 306 7 0
2022-01-14 19:58:21 GMT 51.876560 -0.369360 0 300 6 0
2022-01-14 19:58:19 GMT 51.876514 -0.369304 0 292 6 0
2022-01-14 19:58:15 GMT 51.876469 -0.369193 0 275 5 0
2022-01-14 19:58:13 GMT 51.876453 -0.369129 0 270 5 0
2022-01-14 19:58:12 GMT 51.876442 -0.369091 0 264 5 0
2022-01-14 19:58:10 GMT 51.876457 -0.368877 0 255 6 0
2022-01-14 19:58:06 GMT 51.876457 -0.368877 0 255 6 0
2022-01-14 19:58:05 GMT 51.876457 -0.368840 0 253 6 0
2022-01-14 19:58:04 GMT 51.876465 -0.368786 0 253 6 0
2022-01-14 19:58:03 GMT 51.876476 -0.368748 0 253 6 0
2022-01-14 19:58:00 GMT 51.876503 -0.368599 0 253 6 0
2022-01-14 19:57:57 GMT 51.876514 -0.368506 0 253 5 0
2022-01-14 19:57:56 GMT 51.876526 -0.368469 0 253 5 0
2022-01-14 19:57:55 GMT 51.876526 -0.368432 0 253 4 0
2022-01-14 19:57:54 GMT 51.876556 -0.368290 0 255 0 0
2022-01-14 19:57:48 GMT 51.876556 -0.368290 0 255 0 0
2022-01-14 19:57:38 GMT 51.876560 -0.368265 0 255 0 0
2022-01-14 19:57:29 GMT 51.876556 -0.368271 0 255 0 0
2022-01-14 19:57:18 GMT 51.876556 -0.368271 0 255 0 0
2022-01-14 19:57:13 GMT 51.876560 -0.368283 0 255 0 0
2022-01-14 19:57:08 GMT 51.876556 -0.368271 0 255 0 0
2022-01-14 19:56:32 GMT 51.876560 -0.368283 0 255 0 0
2022-01-14 19:56:27 GMT 51.876556 -0.368271 0 255 0 0
2022-01-14 19:56:12 GMT 51.876560 -0.368283 0 255 0 0
2022-01-14 19:55:58 GMT 51.876560 -0.368283 0 255 0 0
2022-01-14 19:55:53 GMT 51.876560 -0.368283 0 255 0 0
2022-01-14 19:55:43 GMT 51.876556 -0.368271 0 255 0 0
2022-01-14 19:55:38 GMT 51.876560 -0.368283 0 255 0 0
2022-01-14 19:55:23 GMT 51.876556 -0.368271 0 255 0 0
2022-01-14 19:55:13 GMT 51.876560 -0.368283 0 255 0 0
2022-01-14 19:54:53 GMT 51.876556 -0.368271 0 255 0 0
2022-01-14 19:54:43 GMT 51.876560 -0.368283 0 255 0 0
2022-01-14 19:54:38 GMT 51.876537 -0.368283 0 255 0 0
2022-01-14 19:54:23 GMT 51.876545 -0.368290 0 255 0 0
2022-01-14 19:54:18 GMT 51.876545 -0.368290 0 255 0 0
2022-01-14 19:54:13 GMT 51.876537 -0.368283 0 255 0 0
2022-01-14 19:53:48 GMT 51.876545 -0.368290 0 255 0 0
2022-01-14 19:53:43 GMT 51.876537 -0.368283 0 255 0 0
2022-01-14 19:53:38 GMT 51.876545 -0.368290 0 255 0 0
2022-01-14 19:53:28 GMT 51.876549 -0.368283 0 255 0 0
2022-01-14 19:53:08 GMT 51.876549 -0.368265 0 255 0 0
2022-01-14 19:52:58 GMT 51.876549 -0.368265 0 255 0 0
2022-01-14 19:52:48 GMT 51.876549 -0.368265 0 255 0 0
2022-01-14 19:52:43 GMT 51.876545 -0.368271 0 255 0 0
2022-01-14 19:52:38 GMT 51.876545 -0.368271 0 255 0 0
2022-01-14 19:52:33 GMT 51.876545 -0.368271 0 255 0 0
2022-01-14 19:52:22 GMT 51.876545 -0.368271 0 255 0 0
2022-01-14 19:52:13 GMT 51.876549 -0.368265 0 255 0 0
2022-01-14 19:51:53 GMT 51.876545 -0.368271 0 255 0 0
2022-01-14 19:51:48 GMT 51.876545 -0.368271 0 255 0 0
2022-01-14 19:51:33 GMT 51.876545 -0.368271 0 255 0 0
2022-01-14 19:51:29 GMT 51.876560 -0.368265 0 255 0 0
2022-01-14 19:51:23 GMT 51.876549 -0.368265 0 255 0 0
2022-01-14 19:51:13 GMT 51.876545 -0.368271 0 255 0 0
2022-01-14 19:51:07 GMT 51.876549 -0.368283 0 255 0 0
2022-01-14 19:51:04 GMT 51.876549 -0.368283 0 255 0 0
2022-01-14 19:51:03 GMT 51.876549 -0.368283 0 255 0 0
2022-01-14 19:51:00 GMT 51.876549 -0.368283 0 255 0 0
2022-01-14 19:50:57 GMT 51.876545 -0.368271 0 255 0 0
2022-01-14 19:50:56 GMT 51.876549 -0.368283 0 255 0 0
2022-01-14 19:50:55 GMT 51.876549 -0.368283 0 255 0 0
2022-01-14 19:50:51 GMT 51.876545 -0.368271 0 255 0 0
2022-01-14 19:50:50 GMT 51.876545 -0.368290 0 255 2 0
2022-01-14 19:50:49 GMT 51.876556 -0.368271 0 255 3 0
2022-01-14 19:50:48 GMT 51.876549 -0.368246 0 255 4 0
2022-01-14 19:50:46 GMT 51.876560 -0.368190 0 255 5 0
2022-01-14 19:50:45 GMT 51.876568 -0.368176 0 255 6 0
2022-01-14 19:50:43 GMT 51.876583 -0.368098 0 255 6 0
2022-01-14 19:50:42 GMT 51.876583 -0.368042 0 253 6 0
2022-01-14 19:50:41 GMT 51.876595 -0.368005 0 253 6 0
2022-01-14 19:50:38 GMT 51.876617 -0.367894 0 253 5 0
2022-01-14 19:50:37 GMT 51.876617 -0.367838 0 253 5 0
2022-01-14 19:50:36 GMT 51.876629 -0.367813 0 253 5 0
2022-01-14 19:50:34 GMT 51.876637 -0.367756 0 253 5 0
2022-01-14 19:50:31 GMT 51.876652 -0.367680 0 253 5 0
2022-01-14 19:50:30 GMT 51.876663 -0.367641 0 253 6 0
2022-01-14 19:50:29 GMT 51.876663 -0.367603 0 253 6 0
2022-01-14 19:50:28 GMT 51.876686 -0.367451 0 253 6 0
2022-01-14 19:50:26 GMT 51.876686 -0.367451 0 253 6 0
2022-01-14 19:50:24 GMT 51.876698 -0.367393 0 253 6 0
2022-01-14 19:50:22 GMT 51.876732 -0.367241 0 253 7 0
2022-01-14 19:50:20 GMT 51.876732 -0.367207 0 253 6 0
2022-01-14 19:50:19 GMT 51.876743 -0.367151 0 253 6 0
2022-01-14 19:50:18 GMT 51.876755 -0.367069 0 253 6 0
2022-01-14 19:50:16 GMT 51.876766 -0.367031 0 253 5 0
2022-01-14 19:50:15 GMT 51.876766 -0.366993 0 253 5 0
2022-01-14 19:50:13 GMT 51.876789 -0.366929 0 253 5 0
2022-01-14 19:50:11 GMT 51.876812 -0.366780 0 253 4 0
2022-01-14 19:50:07 GMT 51.876812 -0.366780 0 253 5 0
2022-01-14 19:50:04 GMT 51.876835 -0.366669 0 253 5 0
2022-01-14 19:50:01 GMT 51.876862 -0.366554 0 253 6 0
2022-01-14 19:49:57 GMT 51.876881 -0.366409 0 253 6 0
2022-01-14 19:49:54 GMT 51.876904 -0.366279 0 253 7 0
2022-01-14 19:49:48 GMT 51.876961 -0.365963 0 255 8 0
2022-01-14 19:49:47 GMT 51.876961 -0.365908 0 255 9 0
2022-01-14 19:49:46 GMT 51.876972 -0.365834 0 255 9 0
2022-01-14 19:49:45 GMT 51.877010 -0.365620 0 253 10 0
2022-01-14 19:49:42 GMT 51.877010 -0.365620 0 253 10 0
2022-01-14 19:49:41 GMT 51.877029 -0.365518 0 253 10 0
2022-01-14 19:49:40 GMT 51.877041 -0.365462 0 253 10 0
2022-01-14 19:49:37 GMT 51.877083 -0.365238 0 253 11 0
2022-01-14 19:49:34 GMT 51.877121 -0.364998 0 253 11 0
2022-01-14 19:49:32 GMT 51.877140 -0.364914 0 253 11 0
2022-01-14 19:49:31 GMT 51.877155 -0.364794 0 253 11 0
2022-01-14 19:49:30 GMT 51.877167 -0.364720 0 253 11 0
2022-01-14 19:49:28 GMT 51.877197 -0.364571 0 253 11 0
2022-01-14 19:49:27 GMT 51.877213 -0.364479 0 253 11 0
2022-01-14 19:49:25 GMT 51.877247 -0.364256 0 253 10 0
2022-01-14 19:49:24 GMT 51.877247 -0.364256 0 253 10 0
2022-01-14 19:49:23 GMT 51.877266 -0.364189 0 253 10 0
2022-01-14 19:49:20 GMT 51.877300 -0.363979 0 253 10 0
2022-01-14 19:49:19 GMT 51.877312 -0.363903 0 253 10 0
2022-01-14 19:49:17 GMT 51.877338 -0.363750 0 253 10 0
2022-01-14 19:49:14 GMT 51.877373 -0.363560 0 253 9 0
2022-01-14 19:49:12 GMT 51.877396 -0.363445 0 253 9 0
2022-01-14 19:49:11 GMT 51.877407 -0.363384 0 253 9 0
2022-01-14 19:49:10 GMT 51.877407 -0.363310 0 253 9 0
2022-01-14 19:49:07 GMT 51.877441 -0.363140 0 253 8 0
2022-01-14 19:49:06 GMT 51.877453 -0.363068 0 253 8 0
2022-01-14 19:49:03 GMT 51.877476 -0.362920 0 253 9 0
2022-01-14 19:49:02 GMT 51.877487 -0.362883 0 253 9 0
2022-01-14 19:49:01 GMT 51.877499 -0.362809 0 253 9 0
2022-01-14 19:48:58 GMT 51.877560 -0.362492 0 253 10 0
2022-01-14 19:48:56 GMT 51.877560 -0.362492 0 253 10 0
2022-01-14 19:48:55 GMT 51.877567 -0.362400 0 253 9 0
2022-01-14 19:48:54 GMT 51.877583 -0.362339 0 253 9 0
2022-01-14 19:48:53 GMT 51.877617 -0.362148 0 253 9 0
2022-01-14 19:48:51 GMT 51.877617 -0.362148 0 253 9 0
2022-01-14 19:48:50 GMT 51.877617 -0.362129 0 253 9 0
2022-01-14 19:48:49 GMT 51.877640 -0.361996 0 253 8 0
2022-01-14 19:48:47 GMT 51.877651 -0.361919 0 253 8 0
2022-01-14 19:48:46 GMT 51.877663 -0.361881 0 253 8 0
2022-01-14 19:48:44 GMT 51.877686 -0.361729 0 253 7 0
2022-01-14 19:48:43 GMT 51.877686 -0.361729 0 253 7 0
2022-01-14 19:48:42 GMT 51.877705 -0.361677 0 253 7 0
2022-01-14 19:48:40 GMT 51.877720 -0.361576 0 253 7 0
2022-01-14 19:48:38 GMT 51.877720 -0.361538 0 253 8 0
2022-01-14 19:48:37 GMT 51.877739 -0.361454 0 253 9 0
2022-01-14 19:48:36 GMT 51.877754 -0.361385 0 253 9 0
2022-01-14 19:48:34 GMT 51.877777 -0.361252 0 253 9 0
2022-01-14 19:48:33 GMT 51.877785 -0.361194 0 255 9 0
2022-01-14 19:48:30 GMT 51.877819 -0.361027 0 255 8 0
2022-01-14 19:48:29 GMT 51.877827 -0.360966 0 258 9 0
2022-01-14 19:48:27 GMT 51.877853 -0.360823 0 261 9 0
2022-01-14 19:48:26 GMT 51.877865 -0.360767 0 264 9 0
2022-01-14 19:48:25 GMT 51.877865 -0.360712 0 270 9 0
2022-01-14 19:48:24 GMT 51.877876 -0.360637 0 270 8 0
2022-01-14 19:48:22 GMT 51.877884 -0.360527 0 278 8 0
2022-01-14 19:48:21 GMT 51.877884 -0.360470 0 281 8 0
2022-01-14 19:48:20 GMT 51.877876 -0.360359 0 286 8 0
2022-01-14 19:48:17 GMT 51.877872 -0.360298 0 289 8 0
2022-01-14 19:48:16 GMT 51.877865 -0.360248 0 292 8 0
2022-01-14 19:48:14 GMT 51.877853 -0.360136 0 298 7 0
2022-01-14 19:48:12 GMT 51.877827 -0.360050 0 303 8 0
2022-01-14 19:48:11 GMT 51.877796 -0.359951 0 312 9 0
2022-01-14 19:48:09 GMT 51.877766 -0.359879 0 315 9 0
2022-01-14 19:48:08 GMT 51.877743 -0.359840 0 317 9 0
2022-01-14 19:48:06 GMT 51.877697 -0.359745 0 326 10 0
2022-01-14 19:48:04 GMT 51.877617 -0.359650 0 331 10 0
2022-01-14 19:48:03 GMT 51.877583 -0.359592 0 337 10 0
2022-01-14 19:48:02 GMT 51.877522 -0.359554 0 340 9 0
2022-01-14 19:47:59 GMT 51.877441 -0.359497 0 343 9 0
2022-01-14 19:47:58 GMT 51.877373 -0.359459 0 343 8 0
2022-01-14 19:47:56 GMT 51.877323 -0.359440 0 343 9 0
2022-01-14 19:47:55 GMT 51.877289 -0.359421 0 343 9 0
2022-01-14 19:47:53 GMT 51.877197 -0.359383 0 343 11 0
2022-01-14 19:47:52 GMT 51.877178 -0.359375 0 343 12 0
2022-01-14 19:47:51 GMT 51.877110 -0.359338 0 343 12 0
2022-01-14 19:47:49 GMT 51.877010 -0.359306 0 343 11 0
2022-01-14 19:47:48 GMT 51.876965 -0.359268 0 343 11 0
2022-01-14 19:47:46 GMT 51.876869 -0.359230 0 343 10 0
2022-01-14 19:47:44 GMT 51.876778 -0.359190 0 343 10 0
2022-01-14 19:47:42 GMT 51.876614 -0.359097 0 0 9 0
2022-01-14 19:47:40 GMT 51.876614 -0.359097 0 0 9 0
2022-01-14 19:47:39 GMT 51.876583 -0.359078 0 2 9 0
2022-01-14 19:47:37 GMT 51.876499 -0.359058 0 16 9 0
2022-01-14 19:47:36 GMT 51.876465 -0.359058 0 25 9 0
2022-01-14 19:47:35 GMT 51.876431 -0.359058 0 30 8 0
2022-01-14 19:47:33 GMT 51.876354 -0.359097 0 45 9 0
2022-01-14 19:47:32 GMT 51.876324 -0.359135 0 53 9 0
2022-01-14 19:47:31 GMT 51.876255 -0.359230 0 64 9 0
2022-01-14 19:47:29 GMT 51.876232 -0.359287 0 70 9 0
2022-01-14 19:47:27 GMT 51.876198 -0.359383 0 73 9 0
2022-01-14 19:47:26 GMT 51.876194 -0.359431 0 73 10 0
2022-01-14 19:47:24 GMT 51.876160 -0.359598 0 75 12 0
2022-01-14 19:47:22 GMT 51.876137 -0.359764 0 75 14 0
2022-01-14 19:47:21 GMT 51.876114 -0.359859 0 75 15 0
2022-01-14 19:47:20 GMT 51.876102 -0.359969 0 75 16 0
2022-01-14 19:47:18 GMT 51.876057 -0.360203 0 75 17 0
2022-01-14 19:47:16 GMT 51.876022 -0.360432 0 75 19 0
2022-01-14 19:47:15 GMT 51.875999 -0.360565 0 75 20 0
2022-01-14 19:47:14 GMT 51.875977 -0.360693 0 75 22 0
2022-01-14 19:47:12 GMT 51.875908 -0.361083 0 75 26 0
2022-01-14 19:47:10 GMT 51.875858 -0.361347 0 75 28 0
2022-01-14 19:47:08 GMT 51.875793 -0.361769 0 75 32 0
2022-01-14 19:47:06 GMT 51.875717 -0.362186 0 75 35 0
2022-01-14 19:47:05 GMT 51.875668 -0.362437 0 75 36 0
2022-01-14 19:47:04 GMT 51.875637 -0.362663 0 75 36 0
2022-01-14 19:47:02 GMT 51.875546 -0.363197 0 75 37 0
2022-01-14 19:46:59 GMT 51.875404 -0.363998 0 75 39 0
2022-01-14 19:46:57 GMT 51.875336 -0.364418 0 75 45 0
2022-01-14 19:46:55 GMT 51.875206 -0.365105 0 73 50 0
2022-01-14 19:46:54 GMT 51.875149 -0.365467 0 75 54 0
2022-01-14 19:46:53 GMT 51.874973 -0.366478 0 75 60 0
2022-01-14 19:46:52 GMT 51.874973 -0.366478 0 75 60 0
2022-01-14 19:46:49 GMT 51.874775 -0.367603 0 75 65 0
2022-01-14 19:46:48 GMT 51.874649 -0.368347 0 75 67 0
2022-01-14 19:46:46 GMT 51.874557 -0.368877 0 75 68 0
2022-01-14 19:46:45 GMT 51.874008 -0.372125 0 74 106 0
2022-01-14 19:46:40 GMT 51.874008 -0.372125 0 74 106 -64
2022-01-14 19:46:38 GMT 51.873764 -0.373535 0 74 118 -64
2022-01-14 19:46:35 GMT 51.873322 -0.376133 -25 74 122 -64
2022-01-14 19:46:33 GMT 51.872864 -0.378806 -25 74 128 -192
2022-01-14 19:46:31 GMT 51.872555 -0.380630 0 74 129 -384
2022-01-14 19:46:28 GMT 51.872086 -0.383334 25 74 129 -640
2022-01-14 19:46:27 GMT 51.871948 -0.384150 50 74 129 -704
2022-01-14 19:46:25 GMT 51.871437 -0.387039 100 74 130 -768
2022-01-14 19:46:23 GMT 51.871262 -0.387936 100 74 130 -768
2022-01-14 19:46:21 GMT 51.870804 -0.390683 150 74 129 -704
2022-01-14 19:46:19 GMT 51.870644 -0.391617 150 74 129 -704
2022-01-14 19:46:18 GMT 51.870506 -0.392532 150 73 130 -640
2022-01-14 19:46:14 GMT 51.869843 -0.396176 200 74 130 -640
2022-01-14 19:46:13 GMT 51.869614 -0.397512 225 74 130 -704
2022-01-14 19:46:12 GMT 51.869480 -0.398483 225 74 130 -704
2022-01-14 19:46:11 GMT 51.869293 -0.399399 250 74 130 -704
2022-01-14 19:46:09 GMT 51.869061 -0.400925 250 74 130 -768
2022-01-14 19:46:07 GMT 51.868698 -0.402931 300 74 131 -768
2022-01-14 19:46:06 GMT 51.868515 -0.403896 300 74 130 -768
2022-01-14 19:46:04 GMT 51.868179 -0.405884 325 74 131 -768
2022-01-14 19:46:03 GMT 51.868011 -0.406865 350 74 131 -768
2022-01-14 19:46:01 GMT 51.867710 -0.408630 375 74 131 -704
2022-01-14 19:45:59 GMT 51.867477 -0.409927 375 74 131 -704
2022-01-14 19:45:57 GMT 51.867050 -0.412433 425 75 131 -768
2022-01-14 19:45:56 GMT 51.866867 -0.413472 425 75 131 -768
2022-01-14 19:45:54 GMT 51.866642 -0.414963 450 74 131 -768
2022-01-14 19:45:53 GMT 51.866409 -0.416367 475 74 131 -768
2022-01-14 19:45:51 GMT 51.866135 -0.417926 475 74 132 -704
2022-01-14 19:45:50 GMT 51.865585 -0.421044 525 74 131 -768
2022-01-14 19:45:48 GMT 51.865585 -0.421044 525 74 130 -768
2022-01-14 19:45:45 GMT 51.865219 -0.423122 550 74 130 -640
2022-01-14 19:45:43 GMT 51.864872 -0.425262 575 74 130 -640
2022-01-14 19:45:42 GMT 51.864639 -0.426559 600 74 129 -640
2022-01-14 19:45:40 GMT 51.864304 -0.428689 625 74 128 -704
2022-01-14 19:45:39 GMT 51.864174 -0.429535 625 74 128 -704
2022-01-14 19:45:38 GMT 51.863846 -0.431362 650 74 127 -704
2022-01-14 19:45:36 GMT 51.863663 -0.432358 675 74 127 -640
2022-01-14 19:45:34 GMT 51.863480 -0.433292 675 74 127 -640
2022-01-14 19:45:33 GMT 51.863335 -0.434265 700 74 127 -640
2022-01-14 19:45:32 GMT 51.863152 -0.435257 700 74 127 -640
2022-01-14 19:45:30 GMT 51.862823 -0.437164 725 74 127 -704
2022-01-14 19:45:29 GMT 51.862656 -0.438043 750 74 127 -704
2022-01-14 19:45:28 GMT 51.862335 -0.439824 750 74 127 -704
2022-01-14 19:45:26 GMT 51.862198 -0.440789 775 74 127 -768
2022-01-14 19:45:25 GMT 51.862034 -0.441666 775 74 127 -704
2022-01-14 19:45:23 GMT 51.861694 -0.443684 825 74 127 -704
2022-01-14 19:45:22 GMT 51.861511 -0.444649 825 74 127 -768
2022-01-14 19:45:21 GMT 51.861374 -0.445540 850 74 127 -768
2022-01-14 19:45:19 GMT 51.861008 -0.447544 850 74 128 -704
2022-01-14 19:45:17 GMT 51.860729 -0.449066 875 74 128 -704
2022-01-14 19:45:16 GMT 51.860218 -0.452194 900 74 129 -640
2022-01-14 19:45:14 GMT 51.860218 -0.452194 925 74 129 -704
2022-01-14 19:45:13 GMT 51.860031 -0.453110 925 74 130 -704
2022-01-14 19:45:12 GMT 51.859589 -0.455710 950 74 130 -704
2022-01-14 19:45:10 GMT 51.859589 -0.455710 950 75 131 -768
2022-01-14 19:45:09 GMT 51.859425 -0.456696 1,000 74 131 -768
2022-01-14 19:45:08 GMT 51.858902 -0.459793 1,000 74 132 -832
2022-01-14 19:45:06 GMT 51.858902 -0.459793 1,025 74 132 -832
2022-01-14 19:45:05 GMT 51.858719 -0.460832 1,025 74 132 -832
2022-01-14 19:45:02 GMT 51.858356 -0.463028 1,075 74 132 -832
2022-01-14 19:45:01 GMT 51.858124 -0.464401 1,100 74 132 -768
2022-01-14 19:45:00 GMT 51.857937 -0.465393 1,100 74 132 -704
2022-01-14 19:44:57 GMT 51.857483 -0.468032 1,125 74 134 -640
2022-01-14 19:44:56 GMT 51.857285 -0.469131 1,150 74 134 -576
2022-01-14 19:44:55 GMT 51.857117 -0.470185 1,150 73 137 -512
2022-01-14 19:44:54 GMT 51.856773 -0.472107 1,175 73 137 -576
2022-01-14 19:44:52 GMT 51.856586 -0.473022 1,175 73 137 -640
2022-01-14 19:44:50 GMT 51.856247 -0.474936 1,200 73 137 -704
2022-01-14 19:44:49 GMT 51.856075 -0.475998 1,200 73 138 -640
2022-01-14 19:44:48 GMT 51.855888 -0.477066 1,225 73 138 -576
2022-01-14 19:44:46 GMT 51.855606 -0.478573 1,250 73 138 -576
2022-01-14 19:44:45 GMT 51.855331 -0.480132 1,250 73 139 -704
2022-01-14 19:44:44 GMT 51.855145 -0.481110 1,275 73 139 -704
2022-01-14 19:44:42 GMT 51.854816 -0.483017 1,300 73 140 -640
2022-01-14 19:44:41 GMT 51.854630 -0.484161 1,300 73 140 -704
2022-01-14 19:44:39 GMT 51.854259 -0.486145 1,325 73 140 -704
2022-01-14 19:44:37 GMT 51.853912 -0.488001 1,350 73 141 -768
2022-01-14 19:44:36 GMT 51.853745 -0.489044 1,375 73 141 -768
2022-01-14 19:44:34 GMT 51.853374 -0.491104 1,375 73 141 -768
2022-01-14 19:44:32 GMT 51.852905 -0.493494 1,425 73 143 -704
2022-01-14 19:44:31 GMT 51.852585 -0.495300 1,450 73 144 -704
2022-01-14 19:44:29 GMT 51.852444 -0.496216 1,450 73 144 -704
2022-01-14 19:44:27 GMT 51.852036 -0.498319 1,475 74 145 -768
2022-01-14 19:44:25 GMT 51.851650 -0.500641 1,500 74 146 -768
2022-01-14 19:44:24 GMT 51.851463 -0.501709 1,525 74 147 -768
2022-01-14 19:44:23 GMT 51.851120 -0.503738 1,550 74 149 -768
2022-01-14 19:44:21 GMT 51.850937 -0.504851 1,550 74 150 -768
2022-01-14 19:44:20 GMT 51.850765 -0.505905 1,575 74 150 -768
2022-01-14 19:44:19 GMT 51.850582 -0.506973 1,575 74 152 -768
2022-01-14 19:44:17 GMT 51.850208 -0.509109 1,600 74 153 -768
2022-01-14 19:44:15 GMT 51.849789 -0.511398 1,625 74 155 -832
2022-01-14 19:44:13 GMT 51.849419 -0.513611 1,650 74 157 -896
2022-01-14 19:44:12 GMT 51.849197 -0.514799 1,675 74 157 -896
2022-01-14 19:44:10 GMT 51.848904 -0.516586 1,700 74 157 -960
2022-01-14 19:44:09 GMT 51.848557 -0.518436 1,725 74 159 -960
2022-01-14 19:44:08 GMT 51.848392 -0.519562 1,725 74 159 -960
2022-01-14 19:44:07 GMT 51.848206 -0.520554 1,750 74 159 -960
2022-01-14 19:44:05 GMT 51.847836 -0.522690 1,775 74 160 -960
2022-01-14 19:44:04 GMT 51.847549 -0.524374 1,800 74 160 -960
2022-01-14 19:44:03 GMT 51.847458 -0.525043 1,800 74 160 -960
2022-01-14 19:44:01 GMT 51.847042 -0.527344 1,850 74 160 -960
2022-01-14 19:43:59 GMT 51.846680 -0.529571 1,875 74 161 -960
2022-01-14 19:43:58 GMT 51.846222 -0.532020 1,900 74 161 -960
2022-01-14 19:43:56 GMT 51.846039 -0.533357 1,925 74 161 -960
2022-01-14 19:43:55 GMT 51.845833 -0.534363 1,950 74 162 -960
2022-01-14 19:43:54 GMT 51.845398 -0.537068 1,975 74 162 -1024
2022-01-14 19:43:52 GMT 51.845169 -0.538256 2,000 74 162 -1024
2022-01-14 19:43:51 GMT 51.844986 -0.539369 2,025 74 163 -960
2022-01-14 19:43:49 GMT 51.844437 -0.542636 2,050 74 164 -896
2022-01-14 19:43:48 GMT 51.844437 -0.542636 2,050 74 164 -896
2022-01-14 19:43:45 GMT 51.843796 -0.546124 2,100 74 165 -896
2022-01-14 19:43:44 GMT 51.843597 -0.547409 2,125 74 165 -896
2022-01-14 19:43:42 GMT 51.843178 -0.549698 2,150 74 166 -832
2022-01-14 19:43:41 GMT 51.842945 -0.551071 2,150 74 166 -832
2022-01-14 19:43:40 GMT 51.842514 -0.553622 2,200 74 167 -832
2022-01-14 19:43:38 GMT 51.842342 -0.554733 2,200 74 168 -832
2022-01-14 19:43:37 GMT 51.842056 -0.556146 2,225 74 168 -832
2022-01-14 19:43:36 GMT 51.841736 -0.558090 2,250 74 169 -768
2022-01-14 19:43:33 GMT 51.841370 -0.560229 2,250 74 170 -768
2022-01-14 19:43:32 GMT 51.841095 -0.561713 2,275 74 170 -768
2022-01-14 19:43:31 GMT 51.840866 -0.563049 2,300 75 171 -896
2022-01-14 19:43:29 GMT 51.840454 -0.565722 2,325 75 171 -896
2022-01-14 19:43:27 GMT 51.840061 -0.568085 2,375 75 172 -896
2022-01-14 19:43:25 GMT 51.839767 -0.570027 2,375 75 172 -896
2022-01-14 19:43:24 GMT 51.839539 -0.571289 2,400 75 172 -896
2022-01-14 19:43:23 GMT 51.839355 -0.572403 2,450 75 172 -832
2022-01-14 19:43:21 GMT 51.838898 -0.575333 2,450 75 172 -768
2022-01-14 19:43:19 GMT 51.838524 -0.577927 2,475 75 171 -576
2022-01-14 19:43:17 GMT 51.838028 -0.580791 2,500 75 171 -448
2022-01-14 19:43:15 GMT 51.837708 -0.582795 2,500 75 171 -256
2022-01-14 19:43:14 GMT 51.837112 -0.586581 2,500 76 171 128
2022-01-14 19:43:12 GMT 51.837112 -0.586581 2,500 76 171 128
2022-01-14 19:43:10 GMT 51.836700 -0.589105 2,500 76 171 128
2022-01-14 19:43:08 GMT 51.836334 -0.591554 2,500 76 176 256
2022-01-14 19:43:07 GMT 51.836151 -0.592891 2,475 76 176 256
2022-01-14 19:43:05 GMT 51.835327 -0.598161 2,475 75 180 -64
2022-01-14 19:43:03 GMT 51.835327 -0.598161 2,475 75 180 -64
2022-01-14 19:43:02 GMT 51.835098 -0.599571 2,475 75 180 -256
2022-01-14 19:43:00 GMT 51.834732 -0.602021 2,500 75 181 -320
2022-01-14 19:42:58 GMT 51.834335 -0.604630 2,500 76 182 -384
2022-01-14 19:42:56 GMT 51.834103 -0.606079 2,525 76 182 -448
2022-01-14 19:42:55 GMT 51.833637 -0.609207 2,525 76 181 -576
2022-01-14 19:42:53 GMT 51.833450 -0.610409 2,550 77 182 -576
2022-01-14 19:42:52 GMT 51.833313 -0.611597 2,550 77 182 -640
2022-01-14 19:42:51 GMT 51.832901 -0.614344 2,575 77 182 -704
2022-01-14 19:42:49 GMT 51.832718 -0.615680 2,600 78 181 -704
2022-01-14 19:42:48 GMT 51.832424 -0.618286 2,600 78 181 -704
2022-01-14 19:42:46 GMT 51.832237 -0.619659 2,625 79 181 -704
2022-01-14 19:42:45 GMT 51.831665 -0.624662 2,650 79 181 -640
2022-01-14 19:42:43 GMT 51.831665 -0.624662 2,675 80 181 -640
2022-01-14 19:42:41 GMT 51.831345 -0.627408 2,700 80 181 -704
2022-01-14 19:42:40 GMT 51.831028 -0.630875 2,725 81 182 -704
2022-01-14 19:42:38 GMT 51.831028 -0.630875 2,725 81 182 -704
2022-01-14 19:42:37 GMT 51.830887 -0.632382 2,750 82 181 -704
2022-01-14 19:42:35 GMT 51.830475 -0.636910 2,775 83 182 -704
2022-01-14 19:42:34 GMT 51.830475 -0.636910 2,775 83 182 -704
2022-01-14 19:42:32 GMT 51.830292 -0.639286 2,800 84 182 -704
2022-01-14 19:42:31 GMT 51.830200 -0.640770 2,800 84 182 -704
2022-01-14 19:42:29 GMT 51.830097 -0.643463 2,825 86 183 -704
2022-01-14 19:42:28 GMT 51.830017 -0.644630 2,850 87 183 -640
2022-01-14 19:42:26 GMT 51.829960 -0.647659 2,875 89 184 -640
2022-01-14 19:42:24 GMT 51.829910 -0.649719 2,875 90 184 -640
2022-01-14 19:42:23 GMT 51.829910 -0.651169 2,900 90 184 -640
2022-01-14 19:42:22 GMT 51.829960 -0.653763 2,925 92 184 -640
2022-01-14 19:42:20 GMT 51.830006 -0.655212 2,925 93 185 -640
2022-01-14 19:42:19 GMT 51.830006 -0.656509 2,950 94 185 -640
2022-01-14 19:42:17 GMT 51.830154 -0.659254 2,950 96 185 -640
2022-01-14 19:42:16 GMT 51.830246 -0.660590 2,975 97 185 -640
2022-01-14 19:42:15 GMT 51.830471 -0.663300 3,000 99 186 -640
2022-01-14 19:42:13 GMT 51.830612 -0.664673 3,000 100 185 -640
2022-01-14 19:42:12 GMT 51.830750 -0.666157 3,025 101 186 -640
2022-01-14 19:42:10 GMT 51.831116 -0.669127 3,025 102 186 -640
2022-01-14 19:42:08 GMT 51.831528 -0.672022 3,050 105 186 -640
2022-01-14 19:42:07 GMT 51.831776 -0.673370 3,075 106 187 -640
2022-01-14 19:42:04 GMT 51.832474 -0.677338 3,100 110 187 -576
2022-01-14 19:42:03 GMT 51.832855 -0.679148 3,100 112 188 -576
2022-01-14 19:42:01 GMT 51.833355 -0.681000 3,125 114 188 -640
2022-01-14 19:42:00 GMT 51.834366 -0.684344 3,150 118 188 -640
2022-01-14 19:41:58 GMT 51.834366 -0.684344 3,150 120 188 -704
2022-01-14 19:41:57 GMT 51.835556 -0.687314 3,175 130 190 -704
2022-01-14 19:41:54 GMT 51.836655 -0.689689 3,200 136 191 -704
2022-01-14 19:41:53 GMT 51.837204 -0.690654 3,225 136 191 -704
2022-01-14 19:41:51 GMT 51.838120 -0.692064 3,250 138 192 -704
2022-01-14 19:41:50 GMT 51.839314 -0.693817 3,250 146 193 -704
2022-01-14 19:41:48 GMT 51.840199 -0.694885 3,275 146 193 -704
2022-01-14 19:41:47 GMT 51.841644 -0.696370 3,275 149 193 -768
2022-01-14 19:41:45 GMT 51.843567 -0.698077 3,325 155 194 -832
2022-01-14 19:41:43 GMT 51.844437 -0.698700 3,350 157 195 -832
2022-01-14 19:41:42 GMT 51.845135 -0.699234 3,350 159 195 -896
2022-01-14 19:41:41 GMT 51.845970 -0.699692 3,375 161 196 -896
2022-01-14 19:41:40 GMT 51.847641 -0.700675 3,400 162 196 -960
2022-01-14 19:41:38 GMT 51.848625 -0.701141 3,400 162 196 -1088
2022-01-14 19:41:37 GMT 51.849464 -0.701599 3,425 162 196 -1408
2022-01-14 19:41:34 GMT 51.852219 -0.702977 3,550 163 195 -1536
2022-01-14 19:41:32 GMT 51.853867 -0.703793 3,550 163 195 -1536
2022-01-14 19:41:30 GMT 51.855652 -0.704610 3,650 163 195 -1536
2022-01-14 19:41:28 GMT 51.857330 -0.705414 3,650 163 195 -1536
2022-01-14 19:41:27 GMT 51.859100 -0.706253 3,700 164 195 -1536
2022-01-14 19:41:25 GMT 51.859940 -0.706635 3,725 164 195 -1536
2022-01-14 19:41:24 GMT 51.860683 -0.707016 3,850 165 195 -1536
2022-01-14 19:41:22 GMT 51.862564 -0.707802 3,850 165 195 -1536
2022-01-14 19:41:20 GMT 51.864441 -0.708618 3,875 166 195 -1536
2022-01-14 19:41:19 GMT 51.865311 -0.708915 3,900 166 195 -1536
2022-01-14 19:41:17 GMT 51.866875 -0.709534 3,925 169 194 -1472
2022-01-14 19:41:15 GMT 51.869156 -0.710251 4,000 171 195 -1472
2022-01-14 19:41:13 GMT 51.870461 -0.710602 4,050 173 194 -1472
2022-01-14 19:41:12 GMT 51.871399 -0.710771 4,050 176 194 -1472
2022-01-14 19:41:11 GMT 51.872368 -0.710907 4,100 178 195 -1472
2022-01-14 19:41:09 GMT 51.874088 -0.711060 4,125 182 195 -1536
2022-01-14 19:41:08 GMT 51.874969 -0.711068 4,175 182 195 -1536
2022-01-14 19:41:07 GMT 51.875977 -0.710994 4,200 183 194 -1472
2022-01-14 19:41:06 GMT 51.877899 -0.710845 4,200 185 194 -1472
2022-01-14 19:41:04 GMT 51.878746 -0.710678 4,250 185 194 -1408
2022-01-14 19:41:03 GMT 51.879593 -0.710622 4,275 185 194 -1408
2022-01-14 19:41:02 GMT 51.881447 -0.710373 4,300 184 193 -1344
2022-01-14 19:41:00 GMT 51.882282 -0.710297 4,350 184 193 -1280
2022-01-14 19:40:59 GMT 51.883213 -0.710220 4,375 184 193 -1216
2022-01-14 19:40:57 GMT 51.885086 -0.710029 4,425 184 193 -960
2022-01-14 19:40:56 GMT 51.885960 -0.709915 4,425 184 193 -832
2022-01-14 19:40:54 GMT 51.887451 -0.709763 4,450 184 193 -768
2022-01-14 19:40:53 GMT 51.888336 -0.709686 4,450 185 193 -512
2022-01-14 19:40:52 GMT 51.889217 -0.709610 4,475 185 193 -320
2022-01-14 19:40:51 GMT 51.890148 -0.709457 4,475 186 193 -192
2022-01-14 19:40:50 GMT 51.891033 -0.709381 4,475 187 194 -64
2022-01-14 19:40:48 GMT 51.892944 -0.709000 4,475 188 195 0
2022-01-14 19:40:47 GMT 51.893829 -0.708854 4,475 189 196 0
2022-01-14 19:40:44 GMT 51.896896 -0.708008 4,475 195 198 64
2022-01-14 19:40:43 GMT 51.897400 -0.707779 4,450 197 199 128
2022-01-14 19:40:40 GMT 51.900066 -0.706499 4,450 203 202 64
2022-01-14 19:40:38 GMT 51.902252 -0.705109 4,450 207 204 0
2022-01-14 19:40:37 GMT 51.902756 -0.704803 4,450 209 205 -64
2022-01-14 19:40:35 GMT 51.904449 -0.703278 4,450 211 205 -64
2022-01-14 19:40:34 GMT 51.905560 -0.702183 4,450 215 206 -64
2022-01-14 19:40:32 GMT 51.907150 -0.700378 4,450 224 209 64
2022-01-14 19:40:30 GMT 51.909073 -0.697479 4,450 224 209 64
2022-01-14 19:40:29 GMT 51.909073 -0.697479 4,450 230 209 64
2022-01-14 19:40:28 GMT 51.909805 -0.696182 4,450 233 210 128
2022-01-14 19:40:27 GMT 51.911316 -0.692825 4,450 238 211 64
2022-01-14 19:40:25 GMT 51.911316 -0.692825 4,450 240 213 0
2022-01-14 19:40:24 GMT 51.911842 -0.691354 4,450 243 214 0
2022-01-14 19:40:23 GMT 51.912823 -0.688607 4,450 247 215 -64
2022-01-14 19:40:21 GMT 51.913193 -0.687256 4,450 249 216 -64
2022-01-14 19:40:20 GMT 51.913651 -0.685577 4,450 251 217 -128
2022-01-14 19:40:18 GMT 51.914658 -0.681076 4,475 254 217 -64
2022-01-14 19:40:16 GMT 51.914963 -0.679504 4,475 255 218 0
2022-01-14 19:40:14 GMT 51.915520 -0.676052 4,475 256 217 0
2022-01-14 19:40:13 GMT 51.915798 -0.674561 4,450 256 217 0
2022-01-14 19:40:11 GMT 51.916580 -0.669403 4,475 256 218 0
2022-01-14 19:40:08 GMT 51.917313 -0.664749 4,475 256 218 0
2022-01-14 19:40:06 GMT 51.917618 -0.663025 4,475 256 218 0
2022-01-14 19:40:04 GMT 51.917908 -0.661240 4,475 256 218 0
2022-01-14 19:40:03 GMT 51.918175 -0.659651 4,475 256 218 0
2022-01-14 19:40:02 GMT 51.918453 -0.658003 4,475 256 217 0
2022-01-14 19:40:00 GMT 51.919014 -0.654628 4,475 256 217 0
2022-01-14 19:39:59 GMT 51.919247 -0.653059 4,475 256 217 0
2022-01-14 19:39:58 GMT 51.919510 -0.651474 4,475 255 217 0
2022-01-14 19:39:56 GMT 51.920013 -0.648499 4,475 255 217 0
2022-01-14 19:39:55 GMT 51.920288 -0.646973 4,475 255 217 0
2022-01-14 19:39:54 GMT 51.920547 -0.645447 4,475 255 217 0
2022-01-14 19:39:52 GMT 51.921108 -0.641994 4,475 255 217 0
2022-01-14 19:39:51 GMT 51.921341 -0.640564 4,475 255 217 0
2022-01-14 19:39:50 GMT 51.921616 -0.638962 4,475 255 217 0
2022-01-14 19:39:49 GMT 51.922165 -0.635757 4,475 255 217 0
2022-01-14 19:39:47 GMT 51.922440 -0.634003 4,475 255 217 0
2022-01-14 19:39:46 GMT 51.922623 -0.633087 4,475 255 217 0
2022-01-14 19:39:44 GMT 51.923157 -0.629830 4,475 255 217 0
2022-01-14 19:39:43 GMT 51.923435 -0.628261 4,475 255 218 0
2022-01-14 19:39:42 GMT 51.923676 -0.626831 4,475 255 218 0
2022-01-14 19:39:41 GMT 51.924225 -0.623553 4,475 255 218 0
2022-01-14 19:39:39 GMT 51.924500 -0.622025 4,475 255 219 0
2022-01-14 19:39:38 GMT 51.924774 -0.620499 4,475 255 219 0
2022-01-14 19:39:36 GMT 51.925369 -0.616913 4,475 255 219 0
2022-01-14 19:39:34 GMT 51.925903 -0.613822 4,475 255 220 0
2022-01-14 19:39:33 GMT 51.926193 -0.612030 4,475 256 221 0
2022-01-14 19:39:32 GMT 51.926460 -0.610526 4,475 256 221 0
2022-01-14 19:39:31 GMT 51.926697 -0.608902 4,475 256 222 0
2022-01-14 19:39:29 GMT 51.927254 -0.605504 4,475 256 223 0
2022-01-14 19:39:28 GMT 51.927532 -0.603856 4,475 256 224 0
2022-01-14 19:39:27 GMT 51.928070 -0.600586 4,475 256 225 0
2022-01-14 19:39:25 GMT 51.928299 -0.599060 4,475 256 226 0
2022-01-14 19:39:24 GMT 51.928555 -0.597578 4,475 256 227 0
2022-01-14 19:39:23 GMT 51.929077 -0.594177 4,475 256 227 0
2022-01-14 19:39:21 GMT 51.929352 -0.592270 4,475 256 228 0
2022-01-14 19:39:20 GMT 51.929626 -0.590668 4,475 256 229 0
2022-01-14 19:39:18 GMT 51.930046 -0.587769 4,450 257 232 0
2022-01-14 19:39:17 GMT 51.930313 -0.586090 4,450 257 233 0
2022-01-14 19:39:16 GMT 51.930557 -0.584473 4,450 257 233 0
2022-01-14 19:39:15 GMT 51.931091 -0.580978 4,450 257 235 0
2022-01-14 19:39:13 GMT 51.931396 -0.579136 4,450 257 236 0
2022-01-14 19:39:12 GMT 51.931629 -0.577488 4,450 257 237 0
2022-01-14 19:39:09 GMT 51.932327 -0.572739 4,450 257 241 0
2022-01-14 19:39:08 GMT 51.932606 -0.570818 4,450 257 242 0
2022-01-14 19:39:06 GMT 51.933163 -0.567287 4,450 257 244 -64
2022-01-14 19:39:04 GMT 51.933865 -0.562657 4,450 256 245 -64
2022-01-14 19:39:02 GMT 51.934387 -0.559387 4,475 256 245 -64
2022-01-14 19:39:01 GMT 51.934654 -0.557478 4,475 256 245 0
2022-01-14 19:38:59 GMT 51.935120 -0.554581 4,475 256 245 0
2022-01-14 19:38:58 GMT 51.935440 -0.552673 4,475 256 245 0
2022-01-14 19:38:56 GMT 51.936283 -0.547276 4,475 256 246 0
2022-01-14 19:38:54 GMT 51.936516 -0.545707 4,475 256 246 0
2022-01-14 19:38:52 GMT 51.937180 -0.541611 4,475 256 246 0
2022-01-14 19:38:51 GMT 51.937447 -0.539821 4,475 256 246 0
2022-01-14 19:38:50 GMT 51.937775 -0.537872 4,475 256 246 0
2022-01-14 19:38:49 GMT 51.938049 -0.536194 4,475 256 246 0
2022-01-14 19:38:47 GMT 51.939194 -0.529022 4,475 256 246 0
2022-01-14 19:38:45 GMT 51.939194 -0.529022 4,475 256 246 0
2022-01-14 19:38:44 GMT 51.939743 -0.525360 4,475 256 246 0
2022-01-14 19:38:41 GMT 51.940338 -0.521698 4,450 256 246 0
2022-01-14 19:38:39 GMT 51.940887 -0.518265 4,450 256 246 0
2022-01-14 19:38:37 GMT 51.941299 -0.515671 4,450 256 246 0
2022-01-14 19:38:36 GMT 51.941666 -0.513229 4,450 256 246 0
2022-01-14 19:38:35 GMT 51.941940 -0.511475 4,450 256 246 0
2022-01-14 19:38:34 GMT 51.942242 -0.509687 4,450 256 246 0
2022-01-14 19:38:32 GMT 51.942856 -0.505829 4,450 256 246 0
2022-01-14 19:38:31 GMT 51.943130 -0.503998 4,450 256 246 0
2022-01-14 19:38:30 GMT 51.943405 -0.502311 4,450 256 246 0
2022-01-14 19:38:28 GMT 51.943966 -0.498701 4,450 256 246 0
2022-01-14 19:38:27 GMT 51.944244 -0.496974 4,475 256 246 0
2022-01-14 19:38:26 GMT 51.944550 -0.495224 4,475 256 246 0
2022-01-14 19:38:25 GMT 51.944801 -0.493522 4,475 256 246 -64
2022-01-14 19:38:23 GMT 51.945499 -0.489362 4,475 256 246 -64
2022-01-14 19:38:22 GMT 51.945732 -0.487636 4,475 255 246 -64
2022-01-14 19:38:20 GMT 51.946381 -0.484009 4,475 255 245 -64
2022-01-14 19:38:19 GMT 51.946655 -0.482254 4,475 255 245 -64
2022-01-14 19:38:17 GMT 51.947269 -0.478612 4,475 255 244 -64
2022-01-14 19:38:16 GMT 51.947411 -0.477591 4,475 255 244 -64
2022-01-14 19:38:15 GMT 51.948154 -0.473354 4,475 255 243 -128
2022-01-14 19:38:13 GMT 51.948433 -0.471627 4,475 255 244 -128
2022-01-14 19:38:12 GMT 51.948761 -0.469666 4,475 255 244 -128
2022-01-14 19:38:10 GMT 51.949318 -0.466448 4,500 255 243 -128
2022-01-14 19:38:09 GMT 51.949677 -0.464554 4,500 255 242 -128
2022-01-14 19:38:07 GMT 51.950203 -0.461426 4,500 255 242 -128
2022-01-14 19:38:06 GMT 51.950947 -0.457188 4,500 255 241 -192
2022-01-14 19:38:03 GMT 51.951462 -0.454254 4,500 255 242 -192
2022-01-14 19:38:02 GMT 51.952332 -0.449066 4,525 256 242 -320
2022-01-14 19:38:00 GMT 51.952332 -0.449066 4,525 256 243 -448
2022-01-14 19:37:59 GMT 51.952927 -0.445480 4,525 256 242 -512
2022-01-14 19:37:57 GMT 51.953136 -0.444005 4,550 256 242 -576
2022-01-14 19:37:56 GMT 51.953430 -0.442200 4,550 256 243 -704
2022-01-14 19:37:55 GMT 51.953693 -0.440630 4,575 256 244 -768
2022-01-14 19:37:52 GMT 51.954300 -0.436554 4,600 257 244 -896
2022-01-14 19:37:51 GMT 51.955353 -0.429840 4,625 257 244 -960
2022-01-14 19:37:49 GMT 51.955353 -0.429840 4,650 257 245 -960
2022-01-14 19:37:47 GMT 51.955833 -0.426662 4,650 257 245 -960
2022-01-14 19:37:46 GMT 51.956066 -0.424857 4,700 257 246 -960
2022-01-14 19:37:44 GMT 51.956635 -0.421219 4,725 257 247 -960
2022-01-14 19:37:43 GMT 51.957047 -0.418422 4,750 257 248 -1024
2022-01-14 19:37:41 GMT 51.957413 -0.415802 4,800 257 248 -1024
2022-01-14 19:37:40 GMT 51.957699 -0.414106 4,800 257 248 -1024
2022-01-14 19:37:38 GMT 51.958191 -0.410461 4,800 257 249 -1152
2022-01-14 19:37:37 GMT 51.958466 -0.408630 4,875 257 250 -1152
2022-01-14 19:37:36 GMT 51.958740 -0.406876 4,875 257 250 -1152
2022-01-14 19:37:35 GMT 51.959000 -0.405003 4,900 257 250 -1152
2022-01-14 19:37:34 GMT 51.959976 -0.398483 4,950 257 251 -1152
2022-01-14 19:37:32 GMT 51.959976 -0.398483 4,975 257 251 -1152
2022-01-14 19:37:30 GMT 51.960251 -0.396500 4,975 257 252 -1152
2022-01-14 19:37:29 GMT 51.960770 -0.392840 4,975 257 252 -1152
2022-01-14 19:37:27 GMT 51.961098 -0.390799 5,050 257 252 -1152
2022-01-14 19:37:25 GMT 51.961670 -0.386810 5,050 257 253 -1152
2022-01-14 19:37:24 GMT 51.961979 -0.384835 5,100 257 253 -1152
2022-01-14 19:37:23 GMT 51.962540 -0.381165 5,150 257 253 -1152
2022-01-14 19:37:21 GMT 51.962814 -0.379257 5,150 257 253 -1152
2022-01-14 19:37:20 GMT 51.963097 -0.377459 5,175 256 254 -1152
2022-01-14 19:37:19 GMT 51.963318 -0.375900 5,200 256 254 -1152
2022-01-14 19:37:17 GMT 51.963936 -0.372044 5,225 256 254 -1088
2022-01-14 19:37:15 GMT 51.964493 -0.368434 5,250 256 254 -1024
2022-01-14 19:37:13 GMT 51.965099 -0.364668 5,300 256 254 -1024
2022-01-14 19:37:11 GMT 51.965652 -0.361099 5,325 256 253 -1024
2022-01-14 19:37:10 GMT 51.965939 -0.359488 5,350 256 254 -1024
2022-01-14 19:37:09 GMT 51.966354 -0.356820 5,375 256 254 -960
2022-01-14 19:37:07 GMT 51.966888 -0.353470 5,400 255 253 -896
2022-01-14 19:37:06 GMT 51.967194 -0.351406 5,425 255 253 -896
2022-01-14 19:37:04 GMT 51.967846 -0.347874 5,450 255 251 -704
2022-01-14 19:37:03 GMT 51.968170 -0.345912 5,450 254 250 -576
2022-01-14 19:37:02 GMT 51.968491 -0.344086 5,475 254 249 -448
2022-01-14 19:37:01 GMT 51.969040 -0.341187 5,475 254 249 -256
2022-01-14 19:36:59 GMT 51.969498 -0.338593 5,500 254 248 -128
2022-01-14 19:36:57 GMT 51.970173 -0.335083 5,500 254 246 0
2022-01-14 19:36:56 GMT 51.970497 -0.333200 5,500 255 246 0
2022-01-14 19:36:55 GMT 51.970779 -0.331552 5,500 255 246 0
2022-01-14 19:36:54 GMT 51.971649 -0.326462 5,500 255 245 0
2022-01-14 19:36:52 GMT 51.971649 -0.326462 5,500 256 246 -192
2022-01-14 19:36:51 GMT 51.972176 -0.323155 5,475 256 246 -192
2022-01-14 19:36:49 GMT 51.972454 -0.321507 5,500 256 247 -256
2022-01-14 19:36:47 GMT 51.973068 -0.317764 5,500 256 248 -384
2022-01-14 19:36:45 GMT 51.973755 -0.313492 5,525 256 251 -512
2022-01-14 19:36:43 GMT 51.974224 -0.310442 5,525 256 252 -640
2022-01-14 19:36:41 GMT 51.974854 -0.306473 5,550 256 252 -832
2022-01-14 19:36:40 GMT 51.975155 -0.304557 5,575 256 254 -960
2022-01-14 19:36:39 GMT 51.975449 -0.302734 5,600 256 254 -960
2022-01-14 19:36:38 GMT 51.975712 -0.301025 5,600 256 254 -1024
2022-01-14 19:36:36 GMT 51.976364 -0.297012 5,650 256 255 -1152
2022-01-14 19:36:35 GMT 51.976643 -0.295218 5,675 256 255 -1280
2022-01-14 19:36:33 GMT 51.977112 -0.292315 5,700 256 255 -1344
2022-01-14 19:36:32 GMT 51.977760 -0.288470 5,725 256 255 -1472
2022-01-14 19:36:31 GMT 51.977760 -0.288470 5,750 256 255 -1536
2022-01-14 19:36:30 GMT 51.978043 -0.286586 5,775 256 255 -1536
2022-01-14 19:36:28 GMT 51.978786 -0.282035 5,850 256 255 -1536
2022-01-14 19:36:26 GMT 51.979385 -0.278397 5,900 256 255 -1536
2022-01-14 19:36:25 GMT 51.979950 -0.274972 5,925 256 255 -1536
2022-01-14 19:36:23 GMT 51.980255 -0.273132 5,950 256 255 -1536
2022-01-14 19:36:22 GMT 51.980785 -0.269793 6,000 256 255 -1536
2022-01-14 19:36:20 GMT 51.981125 -0.267792 6,025 256 255 -1536
2022-01-14 19:36:19 GMT 51.981438 -0.265712 6,075 256 255 -1536
2022-01-14 19:36:18 GMT 51.982040 -0.262146 6,125 256 255 -1536
2022-01-14 19:36:16 GMT 51.982323 -0.260454 6,150 256 255 -1536
2022-01-14 19:36:15 GMT 51.982635 -0.258408 6,175 256 255 -1536
2022-01-14 19:36:14 GMT 51.983253 -0.254726 6,225 255 255 -1536
2022-01-14 19:36:11 GMT 51.983917 -0.250702 6,275 255 255 -1472
2022-01-14 19:36:08 GMT 51.984699 -0.246015 6,325 255 255 -1472
2022-01-14 19:36:07 GMT 51.985210 -0.243112 6,375 255 255 -1472
2022-01-14 19:36:06 GMT 51.985840 -0.239334 6,425 255 255 -1472
2022-01-14 19:36:04 GMT 51.986000 -0.238325 6,450 255 255 -1472
2022-01-14 19:36:03 GMT 51.986465 -0.235578 6,475 255 256 -1472
2022-01-14 19:36:01 GMT 51.986980 -0.232596 6,500 255 256 -1408
2022-01-14 19:36:00 GMT 51.987305 -0.230713 6,525 255 256 -1408
2022-01-14 19:35:59 GMT 51.987625 -0.228729 6,575 255 256 -1408
2022-01-14 19:35:58 GMT 51.988220 -0.225296 6,575 255 256 -1408
2022-01-14 19:35:56 GMT 51.988564 -0.223336 6,625 255 256 -1408
2022-01-14 19:35:55 GMT 51.988861 -0.221558 6,675 255 256 -1408
2022-01-14 19:35:53 GMT 51.989445 -0.218000 6,675 255 257 -1408
2022-01-14 19:35:52 GMT 51.989777 -0.216064 6,725 255 257 -1472
2022-01-14 19:35:51 GMT 51.990097 -0.214233 6,750 255 257 -1472
2022-01-14 19:35:50 GMT 51.990704 -0.210545 6,800 255 257 -1472
2022-01-14 19:35:47 GMT 51.991356 -0.206778 6,850 255 257 -1536
2022-01-14 19:35:46 GMT 51.991699 -0.204849 6,875 255 256 -1536
2022-01-14 19:35:45 GMT 51.992340 -0.201035 6,925 255 256 -1536
2022-01-14 19:35:42 GMT 51.992985 -0.197205 7,000 255 256 -1600
2022-01-14 19:35:41 GMT 51.993347 -0.195160 7,025 255 256 -1600
2022-01-14 19:35:38 GMT 51.994034 -0.191269 7,075 255 256 -1600
2022-01-14 19:35:37 GMT 51.994583 -0.187836 7,125 255 256 -1536
2022-01-14 19:35:35 GMT 51.995266 -0.184178 7,175 255 256 -1536
2022-01-14 19:35:33 GMT 51.995869 -0.180411 7,225 255 256 -1536
2022-01-14 19:35:31 GMT 51.996521 -0.176644 7,275 255 255 -1536
2022-01-14 19:35:30 GMT 51.996780 -0.175095 7,300 255 256 -1536
2022-01-14 19:35:28 GMT 51.997375 -0.171509 7,350 256 256 -1536
2022-01-14 19:35:27 GMT 51.997696 -0.169678 7,375 256 256 -1536
2022-01-14 19:35:25 GMT 51.998245 -0.166286 7,425 256 256 -1536
2022-01-14 19:35:22 GMT 52.000214 -0.154037 7,500 256 257 -1472
2022-01-14 19:35:19 GMT 52.000214 -0.154037 7,625 256 257 -1408
2022-01-14 19:35:16 GMT 52.000900 -0.149994 7,625 256 257 -1408
2022-01-14 19:35:14 GMT 52.001312 -0.147247 7,675 256 258 -1408
2022-01-14 19:35:12 GMT 52.002228 -0.141678 7,775 256 258 -1472
2022-01-14 19:35:09 GMT 52.003227 -0.135524 7,825 256 259 -1472
2022-01-14 19:35:07 GMT 52.003693 -0.132675 7,900 256 259 -1472
2022-01-14 19:35:04 GMT 52.004425 -0.128021 7,925 256 259 -1472
2022-01-14 19:35:02 GMT 52.005478 -0.121536 8,025 256 259 -1472
2022-01-14 19:34:59 GMT 52.006165 -0.117340 8,050 256 259 -1472
2022-01-14 19:34:56 GMT 52.006943 -0.112686 8,125 256 260 -1472
2022-01-14 19:34:54 GMT 52.007904 -0.106812 8,200 256 260 -1472
2022-01-14 19:34:51 GMT 52.008591 -0.102539 8,275 256 260 -1472
2022-01-14 19:34:48 GMT 52.009323 -0.097733 8,300 256 261 -1472
2022-01-14 19:34:46 GMT 52.010010 -0.093613 8,350 256 261 -1472
2022-01-14 19:34:44 GMT 52.010605 -0.089951 8,650 256 261 -1472
2022-01-14 19:34:41 GMT 52.011604 -0.083496 8,525 256 261 -1472
2022-01-14 19:34:38 GMT 52.012585 -0.077297 8,575 256 261 -1472
2022-01-14 19:34:36 GMT 52.013031 -0.074615 8,575 256 261 -1472
2022-01-14 19:34:34 GMT 52.013626 -0.070877 8,700 256 261 -1472
2022-01-14 19:34:31 GMT 52.014725 -0.063878 8,850 256 261 -1408
2022-01-14 19:34:28 GMT 52.015327 -0.060111 8,825 256 261 -1344
2022-01-14 19:34:26 GMT 52.016098 -0.055313 8,850 256 261 -1280
2022-01-14 19:34:24 GMT 52.016865 -0.050380 8,900 256 260 -1024
2022-01-14 19:34:21 GMT 52.017792 -0.044861 8,950 255 260 -768
2022-01-14 19:34:18 GMT 52.018341 -0.041428 8,975 255 259 -512
2022-01-14 19:34:16 GMT 52.019241 -0.036412 9,000 255 259 -320
2022-01-14 19:34:14 GMT 52.020031 -0.031782 9,000 255 259 0
2022-01-14 19:34:11 GMT 52.020813 -0.027084 9,000 255 258 0
2022-01-14 19:34:08 GMT 52.021660 -0.022287 9,000 255 258 0
2022-01-14 19:34:06 GMT 52.022461 -0.017700 9,000 255 258 0
2022-01-14 19:34:04 GMT 52.023243 -0.013262 9,000 255 258 0
2022-01-14 19:34:01 GMT 52.024174 -0.007926 9,000 255 258 0
2022-01-14 19:33:58 GMT 52.025150 -0.002511 9,000 255 261 -64
2022-01-14 19:33:56 GMT 52.026131 0.002982 9,000 254 259 0
2022-01-14 19:33:53 GMT 52.026596 0.005807 9,000 254 259 0
2022-01-14 19:33:51 GMT 52.027405 0.010300 9,000 254 259 0
2022-01-14 19:33:48 GMT 52.028320 0.015488 9,000 254 259 0
2022-01-14 19:33:46 GMT 52.029099 0.019836 9,000 254 259 0
2022-01-14 19:33:44 GMT 52.029556 0.022354 9,000 254 259 0
2022-01-14 19:33:42 GMT 52.030319 0.026681 9,000 254 259 0
2022-01-14 19:33:40 GMT 52.032227 0.037354 9,000 254 260 0
2022-01-14 19:33:37 GMT 52.032227 0.037354 9,000 254 261 0
2022-01-14 19:33:34 GMT 52.033127 0.042572 9,000 255 261 0
2022-01-14 19:33:31 GMT 52.034229 0.048732 9,000 255 262 -64
2022-01-14 19:33:28 GMT 52.034882 0.052656 9,000 255 262 -64
2022-01-14 19:33:25 GMT 52.036057 0.059509 9,000 255 264 0
2022-01-14 19:33:21 GMT 52.037567 0.068283 9,000 255 266 0
2022-01-14 19:33:18 GMT 52.038559 0.074158 9,000 256 267 64
2022-01-14 19:33:15 GMT 52.039352 0.079193 9,000 257 268 64
2022-01-14 19:33:12 GMT 52.040451 0.086823 9,000 260 272 128
2022-01-14 19:33:08 GMT 52.041351 0.094796 8,975 269 281 -256
2022-01-14 19:33:06 GMT 52.041351 0.094796 8,975 266 279 -128
2022-01-14 19:33:04 GMT 52.041771 0.101388 9,000 269 281 -256
2022-01-14 19:33:01 GMT 52.041908 0.109235 9,000 270 282 -192
2022-01-14 19:32:58 GMT 52.041962 0.113144 9,025 270 283 -256
2022-01-14 19:32:55 GMT 52.042004 0.118260 9,025 270 283 -320
2022-01-14 19:32:53 GMT 52.042007 0.123978 9,050 270 283 -448
2022-01-14 19:32:51 GMT 52.042004 0.130973 9,075 270 283 -576
2022-01-14 19:32:49 GMT 52.042004 0.130973 9,075 270 283 -640
2022-01-14 19:32:47 GMT 52.042049 0.137643 9,100 270 283 -768
2022-01-14 19:32:44 GMT 52.042049 0.142901 9,150 270 283 -768
2022-01-14 19:32:41 GMT 52.042053 0.149002 9,175 270 283 -768
2022-01-14 19:32:38 GMT 52.042049 0.156320 9,225 270 282 -768
2022-01-14 19:32:36 GMT 52.042049 0.159459 9,225 270 282 -704
2022-01-14 19:32:34 GMT 52.042053 0.163651 9,275 270 282 -704
2022-01-14 19:32:32 GMT 52.042095 0.172721 9,300 270 282 -704
2022-01-14 19:32:30 GMT 52.042095 0.172721 9,300 270 282 -704
2022-01-14 19:32:27 GMT 52.042095 0.178685 9,350 270 282 -704
2022-01-14 19:32:25 GMT 52.042095 0.182138 9,375 270 282 -704
2022-01-14 19:32:23 GMT 52.042095 0.187474 9,400 270 282 -704
2022-01-14 19:32:21 GMT 52.042095 0.191947 9,450 270 282 -640
2022-01-14 19:32:17 GMT 52.042145 0.201050 9,450 270 282 -640
2022-01-14 19:32:14 GMT 52.042145 0.207672 9,500 270 282 -640
2022-01-14 19:32:11 GMT 52.042145 0.210800 9,525 270 282 -640
2022-01-14 19:32:09 GMT 52.042145 0.215960 9,625 270 282 -640
2022-01-14 19:32:07 GMT 52.042191 0.227495 9,575 270 282 -640
2022-01-14 19:32:04 GMT 52.042191 0.227495 9,600 270 282 -640
2022-01-14 19:32:01 GMT 52.042191 0.233459 9,625 270 283 -640
2022-01-14 19:31:59 GMT 52.042191 0.237045 9,650 270 283 -640
2022-01-14 19:31:57 GMT 52.042191 0.242327 9,675 270 283 -640
2022-01-14 19:31:54 GMT 52.042191 0.248919 9,700 270 283 -704
2022-01-14 19:31:52 GMT 52.042191 0.253296 9,750 270 284 -704
2022-01-14 19:31:49 GMT 52.042191 0.258336 9,775 270 285 -704
2022-01-14 19:31:47 GMT 52.042191 0.269479 9,775 270 285 -704
2022-01-14 19:31:44 GMT 52.042191 0.269479 9,825 270 284 -704
2022-01-14 19:31:41 GMT 52.042236 0.276228 9,875 270 285 -704
2022-01-14 19:31:39 GMT 52.042236 0.279837 9,900 270 285 -704
2022-01-14 19:31:37 GMT 52.042236 0.285331 9,925 270 285 -704
2022-01-14 19:31:34 GMT 52.042236 0.291216 9,950 270 285 -704
2022-01-14 19:31:31 GMT 52.042282 0.296945 10,150 271 287 -640
2022-01-14 19:31:29 GMT 52.042328 0.305734 10,025 270 286 -640
2022-01-14 19:31:27 GMT 52.042328 0.305734 10,025 270 286 -640
2022-01-14 19:31:24 GMT 52.042328 0.313339 10,050 270 286 -640
2022-01-14 19:31:22 GMT 52.042328 0.316849 10,075 270 286 -640
2022-01-14 19:31:20 GMT 52.042377 0.321193 10,150 270 286 -576
2022-01-14 19:31:17 GMT 52.042377 0.327628 10,125 271 286 -576
2022-01-14 19:31:15 GMT 52.042328 0.331802 10,150 271 286 -640
2022-01-14 19:31:13 GMT 52.042328 0.335475 10,150 271 286 -640
2022-01-14 19:31:11 GMT 52.042282 0.339966 10,175 272 287 -640
2022-01-14 19:31:09 GMT 52.042236 0.344343 10,225 276 289 -768
2022-01-14 19:31:07 GMT 52.042145 0.348816 10,225 273 288 -704
2022-01-14 19:31:05 GMT 52.042049 0.353603 10,275 275 288 -768
2022-01-14 19:31:02 GMT 52.041771 0.360509 10,300 276 289 -768
2022-01-14 19:31:00 GMT 52.041538 0.363804 10,300 276 289 -768
2022-01-14 19:30:57 GMT 52.040794 0.372672 10,350 279 290 -704
2022-01-14 19:30:54 GMT 52.040176 0.379181 10,400 279 290 -704
2022-01-14 19:30:51 GMT 52.039764 0.383377 10,425 279 290 -704
2022-01-14 19:30:49 GMT 52.039352 0.387802 10,450 279 290 -704
2022-01-14 19:30:47 GMT 52.038940 0.391998 10,550 280 291 -640
2022-01-14 19:30:44 GMT 52.038208 0.399551 10,550 280 291 -640
2022-01-14 19:30:41 GMT 52.037659 0.405121 10,525 280 290 -640
2022-01-14 19:30:39 GMT 52.037338 0.408401 10,550 280 291 -640
2022-01-14 19:30:37 GMT 52.036789 0.414106 10,600 280 291 -640
2022-01-14 19:30:34 GMT 52.036091 0.420619 10,625 280 291 -704
2022-01-14 19:30:31 GMT 52.035553 0.425949 10,650 280 291 -704
2022-01-14 19:30:29 GMT 52.035069 0.431056 10,650 280 291 -704
2022-01-14 19:30:27 GMT 52.034592 0.435562 10,675 280 292 -704
2022-01-14 19:30:24 GMT 52.033127 0.449982 10,750 280 292 -704
2022-01-14 19:30:21 GMT 52.033127 0.449982 10,775 280 292 -704
2022-01-14 19:30:18 GMT 52.032742 0.453657 10,775 280 292 -704
2022-01-14 19:30:16 GMT 52.032211 0.459061 10,825 280 293 -704
2022-01-14 19:30:13 GMT 52.031525 0.465775 10,875 280 293 -704
2022-01-14 19:30:10 GMT 52.030041 0.480495 10,900 280 292 -640
2022-01-14 19:30:07 GMT 52.030041 0.480495 10,925 280 292 -640
2022-01-14 19:30:04 GMT 52.029556 0.485535 10,975 280 292 -640
2022-01-14 19:30:01 GMT 52.028961 0.491257 11,000 280 292 -640
2022-01-14 19:29:59 GMT 52.027851 0.502468 11,025 280 292 -640
2022-01-14 19:29:56 GMT 52.027851 0.502468 11,050 280 292 -640
2022-01-14 19:29:53 GMT 52.027340 0.507804 11,075 280 292 -704
2022-01-14 19:29:51 GMT 52.026672 0.514145 11,100 280 292 -704
2022-01-14 19:29:49 GMT 52.026260 0.518341 11,150 280 292 -704
2022-01-14 19:29:46 GMT 52.025574 0.524902 11,150 280 292 -704
2022-01-14 19:29:43 GMT 52.025150 0.529227 11,225 280 292 -704
2022-01-14 19:29:41 GMT 52.024475 0.535736 11,225 280 292 -704
2022-01-14 19:29:39 GMT 52.024155 0.538712 11,250 280 292 -704
2022-01-14 19:29:37 GMT 52.023697 0.542908 11,250 280 292 -704
2022-01-14 19:29:35 GMT 52.023151 0.548296 11,275 280 292 -704
2022-01-14 19:29:33 GMT 52.022823 0.551514 11,325 280 293 -704
2022-01-14 19:29:30 GMT 52.021957 0.559616 11,325 280 293 -704
2022-01-14 19:29:27 GMT 52.021454 0.564499 11,375 280 292 -640
2022-01-14 19:29:24 GMT 52.020870 0.570269 11,400 280 292 -640
2022-01-14 19:29:22 GMT 52.020172 0.576935 11,425 280 292 -640
2022-01-14 19:29:19 GMT 52.019577 0.582809 11,450 280 293 -576
2022-01-14 19:29:17 GMT 52.018635 0.592006 11,500 280 293 -576
2022-01-14 19:29:14 GMT 52.018635 0.592006 11,500 280 293 -512
2022-01-14 19:29:12 GMT 52.018078 0.597499 11,525 280 294 -448
2022-01-14 19:29:09 GMT 52.017426 0.604170 11,550 280 294 -448
2022-01-14 19:29:07 GMT 52.017006 0.608172 11,550 280 295 -448
2022-01-14 19:29:05 GMT 52.016541 0.612802 11,600 280 295 -448
2022-01-14 19:29:02 GMT 52.015888 0.619237 11,600 280 296 -448
2022-01-14 19:28:59 GMT 52.015182 0.626297 11,625 280 297 -512
2022-01-14 19:28:56 GMT 52.014542 0.632858 11,650 280 298 -512
2022-01-14 19:28:54 GMT 52.014221 0.635986 11,675 280 299 -512
2022-01-14 19:28:52 GMT 52.013489 0.643005 11,700 280 301 -448
2022-01-14 19:28:49 GMT 52.012939 0.648804 11,725 280 302 -448
2022-01-14 19:28:46 GMT 52.012344 0.654831 11,750 280 304 -448
2022-01-14 19:28:43 GMT 52.011658 0.661545 11,750 280 306 -448
2022-01-14 19:28:40 GMT 52.011063 0.667267 11,775 280 306 -448
2022-01-14 19:28:38 GMT 52.010021 0.677856 11,800 280 310 -512
2022-01-14 19:28:36 GMT 52.009415 0.683975 11,825 280 312 -512
2022-01-14 19:28:33 GMT 52.009415 0.683975 11,850 280 315 -512
2022-01-14 19:28:30 GMT 52.008812 0.689941 11,875 280 318 -512
2022-01-14 19:28:28 GMT 52.008224 0.695496 11,875 280 318 -512
2022-01-14 19:28:26 GMT 52.007648 0.701242 11,900 280 320 -512
2022-01-14 19:28:23 GMT 52.007080 0.707169 11,925 280 322 -512
2022-01-14 19:28:21 GMT 52.006718 0.710737 11,950 280 323 -512
2022-01-14 19:28:19 GMT 52.006020 0.717878 11,975 279 328 -512
2022-01-14 19:28:16 GMT 52.005341 0.724945 11,975 279 330 -512
2022-01-14 19:28:13 GMT 52.004623 0.732239 12,150 279 333 -512
2022-01-14 19:28:11 GMT 52.004158 0.737104 12,025 279 335 -512
2022-01-14 19:28:08 GMT 52.003555 0.743179 12,050 279 337 -512
2022-01-14 19:28:06 GMT 52.002960 0.749588 12,075 279 340 -512
2022-01-14 19:28:03 GMT 52.002247 0.757115 12,075 279 341 -512
2022-01-14 19:28:01 GMT 52.001877 0.761039 12,125 279 348 -448
2022-01-14 19:27:58 GMT 52.001225 0.767866 12,150 279 354 -448
2022-01-14 19:27:56 GMT 52.000431 0.776184 12,150 279 353 -448
2022-01-14 19:27:53 GMT 51.999783 0.782933 12,175 279 356 -448
2022-01-14 19:27:50 GMT 51.999130 0.789995 12,200 279 360 -512
2022-01-14 19:27:48 GMT 51.998703 0.794220 12,200 279 360 -512
2022-01-14 19:27:46 GMT 51.997967 0.802159 12,225 279 365 -512
2022-01-14 19:27:44 GMT 51.997513 0.807037 12,250 279 367 -512
2022-01-14 19:27:42 GMT 51.996338 0.819188 12,250 279 370 -576
2022-01-14 19:27:39 GMT 51.996338 0.819188 12,275 279 372 -576
2022-01-14 19:27:36 GMT 51.995266 0.830645 12,325 279 377 -640
2022-01-14 19:27:33 GMT 51.994614 0.837394 12,350 279 381 -768
2022-01-14 19:27:31 GMT 51.994102 0.842965 12,400 279 386 -896
2022-01-14 19:27:28 GMT 51.993256 0.852127 12,400 279 386 -896
2022-01-14 19:27:26 GMT 51.992706 0.858002 12,450 278 390 -768
2022-01-14 19:27:23 GMT 51.991928 0.866928 12,500 278 390 -768
2022-01-14 19:27:20 GMT 51.990967 0.877914 12,525 279 392 -832
2022-01-14 19:27:18 GMT 51.990189 0.886841 12,550 279 394 -832
2022-01-14 19:27:16 GMT 51.990189 0.886841 12,600 279 395 -832
2022-01-14 19:27:13 GMT 51.989319 0.895996 12,625 279 395 -768
2022-01-14 19:27:11 GMT 51.988907 0.900726 12,650 279 396 -768
2022-01-14 19:27:08 GMT 51.988003 0.910688 12,700 279 396 -832
2022-01-14 19:27:06 GMT 51.987118 0.920183 12,775 279 396 -832
2022-01-14 19:27:04 GMT 51.987118 0.920183 12,750 279 396 -832
2022-01-14 19:27:01 GMT 51.986069 0.931625 13,075 279 397 -1088
2022-01-14 19:26:58 GMT 51.985199 0.940933 12,850 279 397 -832
2022-01-14 19:26:55 GMT 51.984650 0.947021 12,875 279 397 -832
2022-01-14 19:26:52 GMT 51.983997 0.954084 12,900 279 398 -832
2022-01-14 19:26:50 GMT 51.983231 0.962067 12,925 279 398 -768
2022-01-14 19:26:48 GMT 51.982681 0.968094 12,975 279 398 -768
2022-01-14 19:26:46 GMT 51.982132 0.973740 13,000 279 398 -768
2022-01-14 19:26:43 GMT 51.980759 0.988693 13,025 279 398 -768
2022-01-14 19:26:41 GMT 51.980759 0.988693 13,075 279 398 -768
2022-01-14 19:26:38 GMT 51.979950 0.997323 13,125 279 398 -832
2022-01-14 19:26:35 GMT 51.979156 1.005859 13,125 279 397 -896
2022-01-14 19:26:32 GMT 51.978367 1.014352 13,175 279 397 -896
2022-01-14 19:26:30 GMT 51.977783 1.020508 13,200 279 397 -1088
2022-01-14 19:26:27 GMT 51.977062 1.028006 13,250 279 397 -1088
2022-01-14 19:26:25 GMT 51.975677 1.042786 13,300 279 397 -1152
2022-01-14 19:26:22 GMT 51.974945 1.050491 13,400 279 396 -1216
2022-01-14 19:26:20 GMT 51.974945 1.050491 13,400 279 396 -1216
2022-01-14 19:26:18 GMT 51.974213 1.057816 13,450 279 395 -1280
2022-01-14 19:26:15 GMT 51.973480 1.065598 13,500 279 393 -1280
2022-01-14 19:26:12 GMT 51.972778 1.073050 13,550 279 391 -1344
2022-01-14 19:26:10 GMT 51.971970 1.081390 13,625 279 390 -1344
2022-01-14 19:26:07 GMT 51.971237 1.088562 13,675 279 384 -1088
2022-01-14 19:26:05 GMT 51.969940 1.102007 13,775 279 366 -832
2022-01-14 19:26:02 GMT 51.969940 1.102007 13,775 279 372 -960
2022-01-14 19:26:00 GMT 51.968685 1.114877 13,825 280 356 -704
2022-01-14 19:25:58 GMT 51.968685 1.114877 13,875 279 366 -832
2022-01-14 19:25:55 GMT 51.968079 1.120911 13,900 280 362 -832
2022-01-14 19:25:52 GMT 51.967300 1.128922 13,925 279 358 -768
2022-01-14 19:25:50 GMT 51.966637 1.135751 13,975 280 351 -640
2022-01-14 19:25:48 GMT 51.966202 1.140289 13,975 279 349 -640
2022-01-14 19:25:46 GMT 51.964958 1.153015 14,050 279 343 -576
2022-01-14 19:25:43 GMT 51.964958 1.153015 14,050 279 338 -640
2022-01-14 19:25:41 GMT 51.964542 1.157567 14,075 279 332 -768
2022-01-14 19:25:38 GMT 51.963821 1.164703 14,100 279 331 -960
2022-01-14 19:25:36 GMT 51.963238 1.170907 14,125 279 330 -896
2022-01-14 19:25:32 GMT 51.962402 1.179581 14,175 279 330 -960
2022-01-14 19:25:30 GMT 51.961655 1.187387 14,200 279 330 -960
2022-01-14 19:25:27 GMT 51.961330 1.191153 14,250 279 330 -960
2022-01-14 19:25:25 GMT 51.960724 1.197274 14,275 279 330 -960
2022-01-14 19:25:22 GMT 51.959606 1.209202 14,325 279 331 -960
2022-01-14 19:25:20 GMT 51.959606 1.209202 14,350 279 331 -960
2022-01-14 19:25:18 GMT 51.959015 1.215210 14,400 279 331 -1024
2022-01-14 19:25:16 GMT 51.958649 1.219101 14,450 279 331 -1024
2022-01-14 19:25:13 GMT 51.957932 1.226624 14,475 279 331 -1024
2022-01-14 19:25:11 GMT 51.957325 1.232901 14,500 279 332 -960
2022-01-14 19:25:08 GMT 51.956818 1.238174 14,600 279 332 -960
2022-01-14 19:25:05 GMT 51.956085 1.245880 14,600 279 332 -960
2022-01-14 19:25:02 GMT 51.955353 1.253510 14,650 279 333 -896
2022-01-14 19:25:00 GMT 51.954857 1.258327 14,675 279 333 -896
2022-01-14 19:24:57 GMT 51.954159 1.265782 14,700 279 334 -832
2022-01-14 19:24:54 GMT 51.953228 1.275356 14,775 279 334 -768
2022-01-14 19:24:52 GMT 51.952904 1.278652 14,800 279 334 -704
2022-01-14 19:24:49 GMT 51.951878 1.289403 14,825 279 334 -704
2022-01-14 19:24:47 GMT 51.951878 1.289403 14,850 279 335 -704
2022-01-14 19:24:45 GMT 51.951233 1.295929 14,875 279 335 -704
2022-01-14 19:24:42 GMT 51.950481 1.303528 14,900 279 335 -704
2022-01-14 19:24:40 GMT 51.949493 1.313553 14,950 279 335 -704
2022-01-14 19:24:38 GMT 51.949493 1.313553 14,950 279 335 -704
2022-01-14 19:24:36 GMT 51.949085 1.317889 15,025 279 336 -640
2022-01-14 19:24:33 GMT 51.948349 1.325378 15,025 279 336 -640
2022-01-14 19:24:30 GMT 51.947662 1.332779 15,050 279 336 -640
2022-01-14 19:24:27 GMT 51.947037 1.339390 15,100 279 336 -640
2022-01-14 19:24:25 GMT 51.946472 1.345062 15,125 279 335 -640
2022-01-14 19:24:22 GMT 51.945595 1.354065 15,150 279 335 -640
2022-01-14 19:24:19 GMT 51.945129 1.358930 15,150 279 335 -640
2022-01-14 19:24:17 GMT 51.944336 1.367405 15,200 279 335 -640
2022-01-14 19:24:14 GMT 51.943779 1.373526 15,225 279 336 -640
2022-01-14 19:24:11 GMT 51.943314 1.378326 15,225 279 336 -640
2022-01-14 19:24:09 GMT 51.942802 1.383493 15,275 279 336 -640
2022-01-14 19:24:07 GMT 51.942215 1.389694 15,350 279 336 -640
2022-01-14 19:24:05 GMT 51.941730 1.394714 15,325 279 337 -640
2022-01-14 19:24:02 GMT 51.941124 1.401149 15,350 279 337 -640
2022-01-14 19:24:00 GMT 51.940521 1.407506 15,375 279 337 -640
2022-01-14 19:23:57 GMT 51.939819 1.414804 15,425 279 338 -704
2022-01-14 19:23:55 GMT 51.939514 1.417847 15,425 279 338 -640
2022-01-14 19:23:52 GMT 51.938644 1.426773 15,500 279 338 -640
2022-01-14 19:23:49 GMT 51.937866 1.434893 15,500 280 338 -704
2022-01-14 19:23:47 GMT 51.937401 1.439680 15,525 279 338 -640
2022-01-14 19:23:44 GMT 51.936676 1.447296 15,550 280 338 -704
2022-01-14 19:23:41 GMT 51.935623 1.457901 15,575 279 339 -704
2022-01-14 19:23:39 GMT 51.935623 1.457901 15,600 279 339 -704
2022-01-14 19:23:37 GMT 51.934982 1.464767 15,625 279 339 -704
2022-01-14 19:23:34 GMT 51.934143 1.473345 15,700 279 339 -704
2022-01-14 19:23:31 GMT 51.933609 1.478729 15,700 279 339 -704
2022-01-14 19:23:29 GMT 51.932327 1.491547 15,725 279 339 -704
2022-01-14 19:23:27 GMT 51.932327 1.491547 15,775 280 340 -640
2022-01-14 19:23:24 GMT 51.931686 1.497955 15,775 279 339 -704
2022-01-14 19:23:21 GMT 51.931183 1.503220 15,825 279 339 -704
2022-01-14 19:23:19 GMT 51.930542 1.509933 15,850 279 339 -704
2022-01-14 19:23:17 GMT 51.929901 1.516190 15,875 280 339 -704
2022-01-14 19:23:14 GMT 51.929260 1.522827 15,925 280 339 -704
2022-01-14 19:23:11 GMT 51.928600 1.529454 15,950 280 339 -704
2022-01-14 19:23:09 GMT 51.928207 1.533279 15,950 280 339 -704
2022-01-14 19:23:07 GMT 51.927567 1.539841 16,000 280 340 -640
2022-01-14 19:23:04 GMT 51.926056 1.554565 16,025 280 340 -640
2022-01-14 19:23:01 GMT 51.926056 1.554565 16,050 280 340 -640
2022-01-14 19:22:59 GMT 51.925671 1.558646 16,075 280 340 -640
2022-01-14 19:22:57 GMT 51.924225 1.572771 16,100 280 340 -640
2022-01-14 19:22:54 GMT 51.924225 1.572771 16,175 280 340 -640
2022-01-14 19:22:51 GMT 51.923576 1.579049 16,150 280 340 -704
2022-01-14 19:22:49 GMT 51.923016 1.584464 16,175 280 340 -704
2022-01-14 19:22:47 GMT 51.921661 1.597137 16,225 280 340 -704
2022-01-14 19:22:44 GMT 51.921661 1.597137 16,225 281 343 -768
2022-01-14 19:22:41 GMT 51.920746 1.606216 16,325 280 342 -832
2022-01-14 19:22:38 GMT 51.919991 1.613342 16,350 280 342 -832
2022-01-14 19:22:35 GMT 51.919292 1.619777 16,375 280 342 -832
2022-01-14 19:22:32 GMT 51.918453 1.627311 16,400 280 342 -832
2022-01-14 19:22:30 GMT 51.917725 1.633835 16,450 281 342 -832
2022-01-14 19:22:27 GMT 51.916122 1.648788 16,500 281 342 -832
2022-01-14 19:22:24 GMT 51.916122 1.648788 16,500 281 342 -832
2022-01-14 19:22:21 GMT 51.915436 1.654968 16,550 281 343 -768
2022-01-14 19:22:19 GMT 51.913879 1.668625 16,600 281 343 -768
2022-01-14 19:22:16 GMT 51.913879 1.668625 16,600 281 343 -768
2022-01-14 19:22:14 GMT 51.913471 1.672512 16,650 281 343 -768
2022-01-14 19:22:11 GMT 51.912586 1.680359 16,650 281 343 -768
2022-01-14 19:22:09 GMT 51.911842 1.687265 16,700 281 344 -768
2022-01-14 19:22:06 GMT 51.911362 1.691589 16,750 280 344 -704
2022-01-14 19:22:04 GMT 51.909760 1.706390 16,775 280 344 -704
2022-01-14 19:22:01 GMT 51.909760 1.706390 16,800 280 344 -768
2022-01-14 19:21:59 GMT 51.909191 1.711591 16,825 280 344 -768
2022-01-14 19:21:56 GMT 51.908569 1.717758 16,850 280 344 -768
2022-01-14 19:21:54 GMT 51.907791 1.725235 16,900 280 344 -768
2022-01-14 19:21:51 GMT 51.907234 1.731131 16,925 279 345 -832
2022-01-14 19:21:48 GMT 51.906631 1.737252 16,950 279 344 -832
2022-01-14 19:21:46 GMT 51.906025 1.743687 17,025 278 345 -896
2022-01-14 19:21:44 GMT 51.905514 1.749651 17,025 278 345 -896
2022-01-14 19:21:41 GMT 51.904861 1.757813 17,075 277 345 -960
2022-01-14 19:21:39 GMT 51.904541 1.762009 17,200 277 345 -960
2022-01-14 19:21:36 GMT 51.903992 1.769333 17,150 276 345 -1024
2022-01-14 19:21:34 GMT 51.903603 1.774998 17,225 276 345 -1024
2022-01-14 19:21:31 GMT 51.903168 1.782379 17,225 276 345 -1024
2022-01-14 19:21:29 GMT 51.902710 1.790009 17,375 276 345 -960
2022-01-14 19:21:26 GMT 51.902439 1.795009 17,325 276 345 -960
2022-01-14 19:21:24 GMT 51.902206 1.798933 17,375 276 345 -960
2022-01-14 19:21:21 GMT 51.901611 1.809311 17,400 276 345 -896
2022-01-14 19:21:18 GMT 51.901199 1.816406 17,450 276 345 -896
2022-01-14 19:21:15 GMT 51.900764 1.824123 17,525 276 344 -960
2022-01-14 19:21:12 GMT 51.900375 1.830902 17,550 276 344 -960
2022-01-14 19:21:10 GMT 51.900158 1.834560 17,575 276 344 -960
2022-01-14 19:21:08 GMT 51.899788 1.840838 17,600 276 344 -960
2022-01-14 19:21:05 GMT 51.899368 1.848528 17,725 276 345 -1344
2022-01-14 19:21:02 GMT 51.898853 1.857474 17,725 276 345 -1344
2022-01-14 19:20:59 GMT 51.898438 1.865086 17,775 276 346 -1472
2022-01-14 19:20:56 GMT 51.898018 1.872698 17,850 276 346 -1664
2022-01-14 19:20:54 GMT 51.897785 1.876700 18,025 275 346 -1728
2022-01-14 19:20:51 GMT 51.897274 1.885960 18,025 275 346 -1728
2022-01-14 19:20:49 GMT 51.896988 1.891022 18,075 275 346 -1728
2022-01-14 19:20:46 GMT 51.896622 1.898499 18,150 275 346 -1536
2022-01-14 19:20:44 GMT 51.896301 1.904373 18,225 275 346 -1536
2022-01-14 19:20:41 GMT 51.895889 1.912155 18,300 275 346 -1472
2022-01-14 19:20:38 GMT 51.895412 1.921038 18,375 275 346 -1344
2022-01-14 19:20:35 GMT 51.895157 1.926041 18,475 275 346 -1344
2022-01-14 19:20:32 GMT 51.894791 1.933899 18,500 275 346 -1344
2022-01-14 19:20:30 GMT 51.894527 1.939008 18,525 275 347 -1344
2022-01-14 19:20:28 GMT 51.894295 1.942854 18,600 275 347 -1344
2022-01-14 19:20:26 GMT 51.893967 1.949615 18,650 275 347 -1344
2022-01-14 19:20:23 GMT 51.893555 1.957397 18,725 275 347 -1344
2022-01-14 19:20:20 GMT 51.893143 1.965291 18,725 275 348 -1344
2022-01-14 19:20:17 GMT 51.892757 1.972351 18,800 275 348 -1344
2022-01-14 19:20:14 GMT 51.892319 1.980434 18,875 275 349 -1408
2022-01-14 19:20:11 GMT 51.891918 1.987686 18,975 276 350 -1472
2022-01-14 19:20:07 GMT 51.891266 1.999883 19,075 276 350 -1472
2022-01-14 19:20:05 GMT 51.890568 2.012253 19,200 276 351 -1472
2022-01-14 19:20:02 GMT 51.890568 2.012253 19,175 276 351 -1472
2022-01-14 19:20:00 GMT 51.890335 2.016907 19,225 276 351 -1472
2022-01-14 19:19:58 GMT 51.890076 2.021336 19,350 276 352 -1536
2022-01-14 19:19:56 GMT 51.889709 2.027720 19,325 276 352 -1536
2022-01-14 19:19:52 GMT 51.889160 2.037815 19,425 276 352 -1472
2022-01-14 19:19:50 GMT 51.888939 2.041779 19,500 276 353 -1408
2022-01-14 19:19:48 GMT 51.888660 2.047195 19,550 276 353 -1408
2022-01-14 19:19:46 GMT 51.888290 2.053775 19,675 276 353 -1344
2022-01-14 19:19:43 GMT 51.887730 2.063141 19,700 276 353 -1280
2022-01-14 19:19:40 GMT 51.887466 2.068399 19,700 276 353 -1280
2022-01-14 19:19:38 GMT 51.887123 2.074051 19,750 276 353 -1216
2022-01-14 19:19:36 GMT 51.886780 2.080499 19,825 276 353 -1152
2022-01-14 19:19:33 GMT 51.886322 2.088887 19,900 276 353 -1088
2022-01-14 19:19:30 GMT 51.885960 2.094650 19,900 276 353 -1088
2022-01-14 19:19:28 GMT 51.885681 2.099725 19,950 276 353 -1088
2022-01-14 19:19:26 GMT 51.885132 2.109152 20,050 276 353 -960
2022-01-14 19:19:23 GMT 51.884445 2.121326 20,050 276 353 -960
2022-01-14 19:19:20 GMT 51.884445 2.121326 20,075 276 353 -960
2022-01-14 19:19:18 GMT 51.884007 2.129059 20,125 276 353 -1088
2022-01-14 19:19:14 GMT 51.883492 2.137909 20,250 276 355 -1280
2022-01-14 19:19:11 GMT 51.883121 2.145004 20,250 276 354 -1280
2022-01-14 19:19:09 GMT 51.882797 2.149980 20,250 276 355 -1280
2022-01-14 19:19:07 GMT 51.882004 2.164230 20,350 276 356 -1536
2022-01-14 19:19:04 GMT 51.882004 2.164230 20,475 276 356 -1600
2022-01-14 19:19:01 GMT 51.881516 2.172175 20,500 276 358 -1600
2022-01-14 19:18:59 GMT 51.880829 2.184201 20,750 276 359 -1600
2022-01-14 19:18:57 GMT 51.880829 2.184201 20,625 276 358 -1600
2022-01-14 19:18:54 GMT 51.880417 2.191995 20,700 276 359 -1600
2022-01-14 19:18:51 GMT 51.880001 2.198868 20,750 276 359 -1600
2022-01-14 19:18:49 GMT 51.879822 2.202685 20,775 276 359 -1600
2022-01-14 19:18:47 GMT 51.879490 2.207947 21,000 276 359 -1600
2022-01-14 19:18:45 GMT 51.879070 2.215805 20,925 276 359 -1600
2022-01-14 19:18:43 GMT 51.878746 2.221451 20,975 276 359 -1600
2022-01-14 19:18:40 GMT 51.878094 2.232742 21,050 276 359 -1600
2022-01-14 19:18:38 GMT 51.878094 2.232742 21,150 276 359 -1600
2022-01-14 19:18:36 GMT 51.877766 2.238159 21,275 276 359 -1600
2022-01-14 19:18:33 GMT 51.877300 2.246170 21,475 276 358 -1536
2022-01-14 19:18:30 GMT 51.876846 2.254202 21,300 276 358 -1536
2022-01-14 19:18:28 GMT 51.876480 2.260808 21,400 276 358 -1536
2022-01-14 19:18:26 GMT 51.876068 2.267415 21,450 276 358 -1536
2022-01-14 19:18:23 GMT 51.875671 2.274017 21,600 276 358 -1472
2022-01-14 19:18:20 GMT 51.875206 2.281876 21,575 276 358 -1472
2022-01-14 19:18:18 GMT 51.874924 2.287086 21,625 276 358 -1472
2022-01-14 19:18:16 GMT 51.874649 2.291392 21,750 276 358 -1472
2022-01-14 19:18:13 GMT 51.874191 2.299483 21,950 276 359 -1536
2022-01-14 19:18:10 GMT 51.873688 2.308094 21,825 276 359 -1536
2022-01-14 19:18:08 GMT 51.873322 2.314107 22,075 276 360 -1536
2022-01-14 19:18:05 GMT 51.872414 2.330093 21,975 276 359 -1536
2022-01-14 19:18:02 GMT 51.872414 2.330093 22,025 276 360 -1536
2022-01-14 19:17:59 GMT 51.871948 2.337712 22,100 276 360 -1536
2022-01-14 19:17:57 GMT 51.871574 2.343979 22,150 276 361 -1536
2022-01-14 19:17:55 GMT 51.871353 2.347882 22,275 276 362 -1536
2022-01-14 19:17:52 GMT 51.870712 2.358497 22,300 276 362 -1600
2022-01-14 19:17:49 GMT 51.870411 2.364044 22,350 276 362 -1600
2022-01-14 19:17:47 GMT 51.870071 2.369929 22,400 276 363 -1600
2022-01-14 19:17:45 GMT 51.869808 2.374344 22,600 276 364 -1600
2022-01-14 19:17:42 GMT 51.869343 2.381592 22,550 276 365 -1600
2022-01-14 19:17:40 GMT 51.868881 2.389378 22,600 276 365 -1600
2022-01-14 19:17:38 GMT 51.868408 2.397461 22,650 276 367 -1600
2022-01-14 19:17:35 GMT 51.868130 2.402725 22,750 276 367 -1600
2022-01-14 19:17:32 GMT 51.867477 2.413635 22,850 276 367 -1600
2022-01-14 19:17:29 GMT 51.866688 2.427139 22,950 276 368 -1600
2022-01-14 19:17:26 GMT 51.866688 2.427139 23,100 276 368 -1536
2022-01-14 19:17:23 GMT 51.866180 2.435476 23,125 276 369 -1472
2022-01-14 19:17:20 GMT 51.865665 2.444305 23,125 276 369 -1408
2022-01-14 19:17:18 GMT 51.865524 2.446899 23,125 276 369 -1408
2022-01-14 19:17:16 GMT 51.865036 2.455444 23,250 276 369 -1280
2022-01-14 19:17:13 GMT 51.864594 2.462921 23,350 276 369 -1088
2022-01-14 19:17:10 GMT 51.864120 2.470736 23,325 276 369 -1088
2022-01-14 19:17:08 GMT 51.863850 2.475052 23,350 276 369 -1024
2022-01-14 19:17:06 GMT 51.863480 2.481426 23,400 276 369 -960
2022-01-14 19:17:03 GMT 51.862930 2.490705 23,750 276 370 -960
2022-01-14 19:17:00 GMT 51.862499 2.498703 23,500 276 370 -960
2022-01-14 19:16:57 GMT 51.862106 2.504734 26,275 276 370 -896
2022-01-14 19:16:55 GMT 51.861694 2.511638 23,625 276 370 -896
2022-01-14 19:16:52 GMT 51.860821 2.526321 23,650 276 370 -896
2022-01-14 19:16:50 GMT 51.860821 2.526321 23,650 276 370 -896
2022-01-14 19:16:48 GMT 51.860550 2.530790 23,700 276 370 -896
2022-01-14 19:16:45 GMT 51.859985 2.540588 23,725 276 370 -896
2022-01-14 19:16:42 GMT 51.859451 2.549051 23,975 276 373 -1344
2022-01-14 19:16:39 GMT 51.859146 2.554550 23,800 276 370 -1024
2022-01-14 19:16:37 GMT 51.858170 2.570355 23,875 276 371 -1088
2022-01-14 19:16:34 GMT 51.858170 2.570355 23,900 276 372 -1216
2022-01-14 19:16:32 GMT 51.857437 2.582752 24,050 276 373 -1536
2022-01-14 19:16:29 GMT 51.857437 2.582752 24,000 276 373 -1472
2022-01-14 19:16:27 GMT 51.857071 2.588468 24,125 276 374 -1664
2022-01-14 19:16:25 GMT 51.856586 2.596283 24,225 276 375 -1664
2022-01-14 19:16:22 GMT 51.856121 2.603378 24,350 277 377 -1600
2022-01-14 19:16:19 GMT 51.855610 2.610855 24,300 276 376 -1664
2022-01-14 19:16:17 GMT 51.855145 2.617950 24,400 277 376 -1600
2022-01-14 19:16:14 GMT 51.854675 2.625198 24,400 277 377 -1600
2022-01-14 19:16:11 GMT 51.853546 2.642212 24,550 277 378 -1536
2022-01-14 19:16:08 GMT 51.853546 2.642212 24,650 277 378 -1472
2022-01-14 19:16:05 GMT 51.853046 2.649460 24,725 277 378 -1472
2022-01-14 19:16:02 GMT 51.852394 2.658768 24,725 277 379 -1472
2022-01-14 19:15:59 GMT 51.851807 2.666783 24,800 277 379 -1472
2022-01-14 19:15:57 GMT 51.851231 2.675171 24,875 276 379 -1472
2022-01-14 19:15:53 GMT 51.850388 2.693803 24,975 271 382 -1728
2022-01-14 19:15:50 GMT 51.850388 2.693803 25,075 269 382 -1728
2022-01-14 19:15:47 GMT 51.850441 2.701416 25,300 262 383 -1792
2022-01-14 19:15:44 GMT 51.850662 2.708575 25,200 265 382 -1792
2022-01-14 19:15:42 GMT 51.851212 2.717112 25,300 261 383 -1792
2022-01-14 19:15:39 GMT 51.851883 2.723999 25,375 258 384 -1792
2022-01-14 19:15:37 GMT 51.854073 2.739182 25,775 251 385 -1728
2022-01-14 19:15:34 GMT 51.854073 2.739182 25,575 252 385 -1792
2022-01-14 19:15:31 GMT 51.855747 2.748032 25,625 251 385 -1728
2022-01-14 19:15:28 GMT 51.857426 2.755508 25,700 250 385 -1664
2022-01-14 19:15:26 GMT 51.858215 2.758979 25,875 250 385 -1600
2022-01-14 19:15:23 GMT 51.862404 2.776947 26,050 250 385 -1600
2022-01-14 19:15:20 GMT 51.862404 2.776947 25,975 250 385 -1664
2022-01-14 19:15:17 GMT 51.864258 2.785034 26,000 250 385 -1664
2022-01-14 19:15:15 GMT 51.865433 2.790070 26,125 250 385 -1664
2022-01-14 19:15:12 GMT 51.867416 2.798470 26,125 250 385 -1664
2022-01-14 19:15:09 GMT 51.869659 2.808195 26,225 250 385 -1664
2022-01-14 19:15:06 GMT 51.870850 2.813317 26,275 250 385 -1664
2022-01-14 19:15:03 GMT 51.872833 2.821808 26,425 250 386 -1664
2022-01-14 19:15:00 GMT 51.874695 2.829971 26,500 250 386 -1664
2022-01-14 19:14:57 GMT 51.876846 2.839224 26,550 250 386 -1664
2022-01-14 19:14:54 GMT 51.878448 2.846201 26,675 250 387 -1728
2022-01-14 19:14:51 GMT 51.880096 2.853402 26,700 250 387 -1728
2022-01-14 19:14:49 GMT 51.881699 2.860305 26,775 250 387 -1728
2022-01-14 19:14:47 GMT 51.884445 2.872182 26,850 250 388 -1664
2022-01-14 19:14:45 GMT 51.884445 2.872182 27,025 250 388 -1664
2022-01-14 19:14:42 GMT 51.886238 2.880020 27,000 250 388 -1664
2022-01-14 19:14:39 GMT 51.887787 2.886583 27,050 250 388 -1664
2022-01-14 19:14:37 GMT 51.889435 2.893932 27,150 250 389 -1664
2022-01-14 19:14:34 GMT 51.891037 2.900688 27,200 250 389 -1664
2022-01-14 19:14:31 GMT 51.894245 2.914594 27,275 250 389 -1664
2022-01-14 19:14:29 GMT 51.894245 2.914594 27,350 250 390 -1664
2022-01-14 19:14:27 GMT 51.895157 2.918701 27,375 250 390 -1664
2022-01-14 19:14:25 GMT 51.896389 2.923933 27,475 250 390 -1664
2022-01-14 19:14:22 GMT 51.898911 2.934799 27,600 250 390 -1664
2022-01-14 19:14:19 GMT 51.900421 2.941513 27,625 250 392 -1728
2022-01-14 19:14:17 GMT 51.902023 2.948227 27,725 250 392 -1728
2022-01-14 19:14:14 GMT 51.903534 2.954865 27,725 250 392 -1728
2022-01-14 19:14:12 GMT 51.904816 2.960345 28,950 250 393 -1664
2022-01-14 19:14:10 GMT 51.906445 2.967407 28,000 250 393 -1664
2022-01-14 19:14:07 GMT 51.908028 2.974234 27,925 250 393 -1664
2022-01-14 19:14:05 GMT 51.909328 2.979728 28,625 249 395 -1408
2022-01-14 19:14:03 GMT 51.910904 2.986374 28,050 250 393 -1600
2022-01-14 19:14:01 GMT 51.911865 2.990646 28,275 250 395 -1472
2022-01-14 19:13:58 GMT 51.913425 2.997227 28,225 250 393 -1472
2022-01-14 19:13:56 GMT 51.916763 3.011398 28,275 250 395 -1472
2022-01-14 19:13:54 GMT 51.918407 3.018258 28,350 250 395 -1408
2022-01-14 19:13:51 GMT 51.920223 3.026106 28,425 250 395 -1408
2022-01-14 19:13:48 GMT 51.920223 3.026106 28,450 250 395 -1408
2022-01-14 19:13:45 GMT 51.922623 3.036194 28,500 249 395 -1408
2022-01-14 19:13:42 GMT 51.924225 3.042908 28,600 249 395 -1408
2022-01-14 19:13:39 GMT 51.928665 3.061752 28,675 249 395 -1408
2022-01-14 19:13:36 GMT 51.928665 3.061752 28,750 250 395 -1536
2022-01-14 19:13:33 GMT 51.930450 3.069305 28,800 250 395 -1472
2022-01-14 19:13:30 GMT 51.931721 3.074602 28,850 250 395 -1536
2022-01-14 19:13:27 GMT 51.934113 3.084793 28,950 250 395 -1600
2022-01-14 19:13:24 GMT 51.936050 3.093122 29,075 250 396 -1600
2022-01-14 19:13:21 GMT 51.938187 3.102188 29,125 250 396 -1600
2022-01-14 19:13:18 GMT 51.939423 3.107452 29,175 250 396 -1536
2022-01-14 19:13:16 GMT 51.940800 3.113447 29,200 250 397 -1536
2022-01-14 19:13:13 GMT 51.943359 3.124161 29,300 250 397 -1536
2022-01-14 19:13:10 GMT 51.947315 3.140991 29,425 250 397 -1536
2022-01-14 19:13:07 GMT 51.947315 3.140991 29,450 250 397 -1472
2022-01-14 19:13:04 GMT 51.949402 3.149719 29,525 250 397 -1472
2022-01-14 19:13:01 GMT 51.951324 3.158112 29,625 250 397 -1472
2022-01-14 19:12:58 GMT 51.952904 3.164926 29,675 251 396 -1408
2022-01-14 19:12:56 GMT 51.954117 3.170166 29,700 251 396 -1408
2022-01-14 19:12:54 GMT 51.955090 3.174500 29,800 252 396 -1408
2022-01-14 19:12:51 GMT 51.957466 3.185800 29,900 255 396 -1408
2022-01-14 19:12:48 GMT 51.958832 3.192902 29,950 256 395 -1472
2022-01-14 19:12:46 GMT 51.959518 3.196945 30,125 257 395 -1472
2022-01-14 19:12:44 GMT 51.960663 3.204193 31,250 272 398 -1728
2022-01-14 19:12:41 GMT 51.961609 3.210911 30,075 259 394 -1472
2022-01-14 19:12:38 GMT 51.962772 3.221113 30,150 263 394 -1536
2022-01-14 19:12:36 GMT 51.963364 3.227386 30,200 265 394 -1600
2022-01-14 19:12:34 GMT 51.963890 3.234924 30,275 266 394 -1600
2022-01-14 19:12:31 GMT 51.964325 3.244781 30,375 269 395 -1664
2022-01-14 19:12:28 GMT 51.964447 3.250776 30,400 270 396 -1728
2022-01-14 19:12:26 GMT 51.964493 3.257054 30,475 271 396 -1792
2022-01-14 19:12:24 GMT 51.964462 3.263016 30,550 272 396 -1792
2022-01-14 19:12:21 GMT 51.964355 3.271415 30,675 272 397 -1792
2022-01-14 19:12:18 GMT 51.964260 3.280518 30,825 272 397 -1792
2022-01-14 19:12:16 GMT 51.964233 3.285370 30,825 272 397 -1792
2022-01-14 19:12:14 GMT 51.964123 3.292681 30,975 272 397 -1728
2022-01-14 19:12:11 GMT 51.964050 3.300858 30,975 272 397 -1728
2022-01-14 19:12:08 GMT 51.963867 3.315887 31,025 272 398 -1728
2022-01-14 19:12:06 GMT 51.963867 3.315887 31,075 272 398 -1728
2022-01-14 19:12:04 GMT 51.963795 3.320539 31,175 272 398 -1664
2022-01-14 19:12:01 GMT 51.963703 3.330741 31,275 272 398 -1664
2022-01-14 19:11:58 GMT 51.963562 3.341178 31,375 272 398 -1728
2022-01-14 19:11:56 GMT 51.963516 3.344552 31,375 272 398 -1728
2022-01-14 19:11:54 GMT 51.963409 3.353195 31,425 272 398 -1728
2022-01-14 19:11:51 GMT 51.963329 3.361659 31,550 272 399 -1792
2022-01-14 19:11:48 GMT 51.963226 3.370438 31,600 272 399 -1792
2022-01-14 19:11:45 GMT 51.963097 3.379708 31,650 272 399 -1792
2022-01-14 19:11:42 GMT 51.963005 3.388419 31,775 272 400 -1792
2022-01-14 19:11:39 GMT 51.962906 3.398666 31,900 272 400 -1792
2022-01-14 19:11:36 GMT 51.962814 3.405151 31,975 272 400 -1792
2022-01-14 19:11:34 GMT 51.962769 3.410263 32,000 272 401 -1856
2022-01-14 19:11:31 GMT 51.962585 3.422163 32,125 272 402 -1856
2022-01-14 19:11:28 GMT 51.962540 3.428345 32,275 272 402 -1856
2022-01-14 19:11:25 GMT 51.962261 3.450099 32,275 272 403 -1792
2022-01-14 19:11:22 GMT 51.962261 3.450099 32,375 272 403 -1728
2022-01-14 19:11:19 GMT 51.962166 3.456142 32,500 272 404 -1664
2022-01-14 19:11:16 GMT 51.962036 3.465271 32,750 272 405 -1408
2022-01-14 19:11:14 GMT 51.961990 3.471375 32,700 272 405 -1600
2022-01-14 19:11:11 GMT 51.961842 3.482195 32,725 272 405 -1408
2022-01-14 19:11:08 GMT 51.961716 3.490143 32,750 272 405 -1472
2022-01-14 19:11:06 GMT 51.961609 3.497419 32,825 272 405 -1280
2022-01-14 19:11:03 GMT 51.961514 3.504560 32,850 272 406 -1280
2022-01-14 19:11:01 GMT 51.961468 3.510132 32,875 272 406 -1280
2022-01-14 19:10:58 GMT 51.961281 3.522609 33,000 272 406 -1280
2022-01-14 19:10:55 GMT 51.961212 3.529816 33,025 272 407 -1344
2022-01-14 19:10:52 GMT 51.961075 3.539276 33,125 272 408 -1344
2022-01-14 19:10:49 GMT 51.960983 3.547058 33,225 272 408 -1344
2022-01-14 19:10:46 GMT 51.960846 3.558578 33,275 272 409 -1280
2022-01-14 19:10:43 GMT 51.960754 3.566132 33,325 272 409 -1280
2022-01-14 19:10:40 GMT 51.960583 3.576521 33,400 272 409 -1280
2022-01-14 19:10:37 GMT 51.960537 3.582955 33,425 272 409 -1280
2022-01-14 19:10:35 GMT 51.960304 3.601475 33,625 272 409 -1152
2022-01-14 19:10:32 GMT 51.960304 3.601475 33,575 272 409 -1216
2022-01-14 19:10:29 GMT 51.960205 3.608246 33,600 272 409 -1216
2022-01-14 19:10:27 GMT 51.960117 3.613246 33,625 272 409 -1216
2022-01-14 19:10:25 GMT 51.960022 3.620224 33,750 272 410 -1152
2022-01-14 19:10:22 GMT 51.959885 3.629532 33,700 272 409 -1152
2022-01-14 19:10:19 GMT 51.959747 3.639069 33,800 272 410 -1216
2022-01-14 19:10:17 GMT 51.959698 3.645185 33,825 272 410 -1216
2022-01-14 19:10:15 GMT 51.959465 3.661115 33,925 272 411 -1280
2022-01-14 19:10:12 GMT 51.959465 3.661115 33,925 272 411 -1280
2022-01-14 19:10:09 GMT 51.959328 3.668884 34,000 272 411 -1280
2022-01-14 19:10:07 GMT 51.959232 3.675241 34,025 272 411 -1344
2022-01-14 19:10:05 GMT 51.959045 3.688424 34,075 272 411 -1344
2022-01-14 19:10:03 GMT 51.959045 3.688424 34,150 272 411 -1344
2022-01-14 19:10:00 GMT 51.958923 3.696365 34,225 272 411 -1344
2022-01-14 19:09:57 GMT 51.958694 3.711853 34,275 272 411 -1344
2022-01-14 19:09:55 GMT 51.958694 3.711853 34,425 272 411 -1344
2022-01-14 19:09:53 GMT 51.958557 3.720627 34,375 272 411 -1344
2022-01-14 19:09:50 GMT 51.958397 3.731742 34,450 272 411 -1344
2022-01-14 19:09:47 GMT 51.958302 3.737706 34,475 272 410 -1344
2022-01-14 19:09:45 GMT 51.958210 3.745553 34,550 272 410 -1280
2022-01-14 19:09:42 GMT 51.958115 3.751517 34,575 272 408 -1280
2022-01-14 19:09:40 GMT 51.957962 3.760300 34,675 272 408 -1280
2022-01-14 19:09:37 GMT 51.957825 3.768692 34,700 272 407 -1216
2022-01-14 19:09:35 GMT 51.957699 3.774824 34,775 272 406 -1216
2022-01-14 19:09:32 GMT 51.957558 3.783142 34,850 272 405 -1216
2022-01-14 19:09:29 GMT 51.957417 3.792088 34,850 272 405 -1216
2022-01-14 19:09:27 GMT 51.957138 3.808975 34,950 272 404 -1280
2022-01-14 19:09:24 GMT 51.957138 3.808975 34,975 272 404 -1280
2022-01-14 19:09:21 GMT 51.957047 3.815155 35,150 272 402 -1472
2022-01-14 19:09:19 GMT 51.956909 3.822632 35,075 272 403 -1408
2022-01-14 19:09:16 GMT 51.956764 3.831953 35,150 272 402 -1472
2022-01-14 19:09:14 GMT 51.956497 3.848953 35,300 272 401 -1536
2022-01-14 19:09:11 GMT 51.956360 3.854828 35,425 272 399 -1408
2022-01-14 19:09:08 GMT 51.956207 3.865304 35,400 272 398 -1344
2022-01-14 19:09:05 GMT 51.956207 3.865304 35,800 272 397 -1216
2022-01-14 19:09:02 GMT 51.956020 3.875584 35,725 272 390 -1152
2022-01-14 19:08:59 GMT 51.955902 3.883057 35,575 272 394 -1024
2022-01-14 19:08:57 GMT 51.955811 3.889465 35,625 272 391 -896
2022-01-14 19:08:54 GMT 51.955650 3.896772 35,650 272 391 -896
2022-01-14 19:08:52 GMT 51.955399 3.912735 35,675 272 390 -1088
2022-01-14 19:08:49 GMT 51.955399 3.912735 35,775 272 392 -1088
2022-01-14 19:08:46 GMT 51.955231 3.921962 35,750 272 390 -1152
2022-01-14 19:08:44 GMT 51.955124 3.928070 35,775 272 391 -1152
2022-01-14 19:08:41 GMT 51.955044 3.934204 35,850 272 392 -1088
2022-01-14 19:08:38 GMT 51.954903 3.943229 35,875 272 393 -960
2022-01-14 19:08:36 GMT 51.954765 3.949742 35,925 272 393 -832
2022-01-14 19:08:34 GMT 51.954674 3.954372 35,975 272 393 -768
2022-01-14 19:08:32 GMT 51.954575 3.962555 36,000 272 394 -320
2022-01-14 19:08:29 GMT 51.954391 3.971322 36,000 272 394 -128
2022-01-14 19:08:26 GMT 51.954254 3.980789 36,000 272 394 0
2022-01-14 19:08:24 GMT 51.954205 3.983407 36,000 272 394 0
2022-01-14 19:08:22 GMT 51.954071 3.990479 36,000 272 394 0
2022-01-14 19:08:19 GMT 51.953888 4.001160 36,000 272 394 0
2022-01-14 19:08:17 GMT 51.953796 4.006729 36,000 272 394 0
2022-01-14 19:08:14 GMT 51.953602 4.016445 36,000 272 393 0
2022-01-14 19:08:11 GMT 51.953274 4.034023 36,000 272 393 0
2022-01-14 19:08:08 GMT 51.953274 4.034023 36,000 272 393 0
2022-01-14 19:08:05 GMT 51.953182 4.039830 36,000 272 393 0
2022-01-14 19:08:03 GMT 51.952904 4.055211 36,000 272 393 0
2022-01-14 19:08:00 GMT 51.952904 4.055211 36,000 272 393 0
2022-01-14 19:07:57 GMT 51.952717 4.065883 36,000 272 393 0
2022-01-14 19:07:54 GMT 51.952606 4.072037 36,000 272 393 0
2022-01-14 19:07:52 GMT 51.952484 4.079145 36,000 272 393 0
2022-01-14 19:07:49 GMT 51.952297 4.089190 36,000 272 393 0
2022-01-14 19:07:46 GMT 51.952148 4.098206 36,000 272 393 0
2022-01-14 19:07:44 GMT 51.952019 4.104649 36,000 272 393 0
2022-01-14 19:07:41 GMT 51.951920 4.110718 36,000 272 393 0
2022-01-14 19:07:39 GMT 51.951782 4.117813 36,000 272 393 0
2022-01-14 19:07:36 GMT 51.951553 4.128876 36,000 272 393 0
2022-01-14 19:07:34 GMT 51.951508 4.131851 36,000 272 393 0
2022-01-14 19:07:31 GMT 51.951321 4.140512 36,000 272 393 0
2022-01-14 19:07:28 GMT 51.951187 4.147644 36,000 272 393 0
2022-01-14 19:07:26 GMT 51.951004 4.156342 36,000 272 393 0
2022-01-14 19:07:24 GMT 51.950912 4.161987 36,000 272 393 0
2022-01-14 19:07:22 GMT 51.950809 4.166643 36,000 272 393 0
2022-01-14 19:07:20 GMT 51.950684 4.174042 36,000 272 393 0
2022-01-14 19:07:17 GMT 51.950546 4.181671 36,000 272 393 0
2022-01-14 19:07:14 GMT 51.950363 4.189453 36,000 272 393 0
2022-01-14 19:07:12 GMT 51.950249 4.197013 36,000 272 393 0
2022-01-14 19:07:09 GMT 51.950089 4.205856 36,000 272 392 0
2022-01-14 19:07:06 GMT 51.949879 4.214826 36,000 272 392 0
2022-01-14 19:07:03 GMT 51.949768 4.220734 36,000 272 392 0
2022-01-14 19:07:01 GMT 51.949596 4.229658 36,000 272 392 0
2022-01-14 19:06:58 GMT 51.949448 4.237747 36,000 272 392 0
2022-01-14 19:06:55 GMT 51.949310 4.244919 36,000 272 392 0
2022-01-14 19:06:52 GMT 51.949081 4.256210 36,000 272 392 0
2022-01-14 19:06:49 GMT 51.948898 4.264908 36,000 272 392 0
2022-01-14 19:06:46 GMT 51.948757 4.273760 36,000 272 392 0
2022-01-14 19:06:43 GMT 51.948578 4.281158 36,000 272 392 0
2022-01-14 19:06:40 GMT 51.948441 4.288712 36,000 272 392 0
2022-01-14 19:06:38 GMT 51.948341 4.295027 36,000 272 392 0
2022-01-14 19:06:35 GMT 51.948109 4.305464 36,000 272 392 0
2022-01-14 19:06:32 GMT 51.947891 4.315948 36,000 272 392 0
2022-01-14 19:06:29 GMT 51.947800 4.321442 36,000 272 392 0
2022-01-14 19:06:26 GMT 51.947598 4.331595 36,000 272 392 0
2022-01-14 19:06:23 GMT 51.947456 4.339286 36,000 272 392 0
2022-01-14 19:06:21 GMT 51.947342 4.343262 36,000 272 392 0
2022-01-14 19:06:19 GMT 51.947159 4.352951 36,000 272 392 0
2022-01-14 19:06:16 GMT 51.947021 4.360428 36,000 272 391 0
2022-01-14 19:06:13 GMT 51.946838 4.369049 36,000 272 391 0
2022-01-14 19:06:11 GMT 51.946701 4.374847 36,000 272 391 0
2022-01-14 19:06:08 GMT 51.946518 4.383698 36,000 272 391 0
2022-01-14 19:06:05 GMT 51.946289 4.394836 36,000 272 391 0
2022-01-14 19:06:03 GMT 51.946198 4.400495 36,000 272 391 0
2022-01-14 19:06:00 GMT 51.945965 4.409598 36,000 272 391 0
2022-01-14 19:05:57 GMT 51.945919 4.413522 36,000 273 391 0
2022-01-14 19:05:55 GMT 51.945694 4.423447 36,000 273 391 0
2022-01-14 19:05:53 GMT 51.945602 4.428101 36,000 273 391 0
2022-01-14 19:05:50 GMT 51.945465 4.434662 36,000 273 391 0
2022-01-14 19:05:48 GMT 51.945267 4.443734 36,000 273 391 0
2022-01-14 19:05:45 GMT 51.945099 4.451065 36,000 273 391 0
2022-01-14 19:05:43 GMT 51.944962 4.458008 36,000 273 391 0
2022-01-14 19:05:40 GMT 51.944614 4.472377 36,000 273 391 0
2022-01-14 19:05:38 GMT 51.944614 4.472377 36,000 273 391 0
2022-01-14 19:05:36 GMT 51.944431 4.480617 36,000 273 391 0
2022-01-14 19:05:33 GMT 51.944336 4.486659 36,000 273 391 0
2022-01-14 19:05:30 GMT 51.944153 4.493565 36,000 273 391 0
2022-01-14 19:05:28 GMT 51.944000 4.501266 36,000 273 391 0
2022-01-14 19:05:26 GMT 51.943825 4.509417 36,000 273 391 0
2022-01-14 19:05:23 GMT 51.943634 4.516907 36,000 273 391 0
2022-01-14 19:05:20 GMT 51.943497 4.522858 36,000 273 391 0
2022-01-14 19:05:18 GMT 51.943314 4.530563 36,000 273 391 0
2022-01-14 19:05:16 GMT 51.943222 4.536209 36,000 273 391 0
2022-01-14 19:05:13 GMT 51.942986 4.545044 36,000 273 391 0
2022-01-14 19:05:10 GMT 51.942810 4.552917 36,000 273 391 0
2022-01-14 19:05:08 GMT 51.942661 4.559326 36,000 273 391 0
2022-01-14 19:05:05 GMT 51.942261 4.577026 36,000 273 391 0
2022-01-14 19:05:02 GMT 51.942261 4.577026 36,000 273 391 0
2022-01-14 19:04:59 GMT 51.942078 4.584045 36,000 273 391 0
2022-01-14 19:04:57 GMT 51.941963 4.589931 36,000 273 391 0
2022-01-14 19:04:55 GMT 51.941849 4.595108 36,000 273 391 0
2022-01-14 19:04:53 GMT 51.941666 4.603195 36,000 273 391 0
2022-01-14 19:04:50 GMT 51.941437 4.612122 36,000 273 391 0
2022-01-14 19:04:48 GMT 51.941345 4.616089 36,000 273 391 0
2022-01-14 19:04:45 GMT 51.941032 4.629953 36,000 273 391 0
2022-01-14 19:04:42 GMT 51.940979 4.633026 36,000 273 391 0
2022-01-14 19:04:40 GMT 51.940800 4.640703 36,000 273 391 0
2022-01-14 19:04:38 GMT 51.940659 4.646903 36,000 273 391 0
2022-01-14 19:04:35 GMT 51.940472 4.654358 36,000 273 391 0
2022-01-14 19:04:32 GMT 51.940247 4.663162 36,000 273 391 0
2022-01-14 19:04:30 GMT 51.940056 4.672015 36,000 273 391 0
2022-01-14 19:04:27 GMT 51.939774 4.683472 36,000 273 391 0
2022-01-14 19:04:25 GMT 51.939774 4.683472 36,000 273 391 0
2022-01-14 19:04:22 GMT 51.939560 4.691238 36,000 273 391 0
2022-01-14 19:04:20 GMT 51.939358 4.699873 36,000 273 391 0
2022-01-14 19:04:17 GMT 51.939194 4.706650 36,000 273 391 0
2022-01-14 19:04:15 GMT 51.939011 4.714661 36,000 273 391 0
2022-01-14 19:04:12 GMT 51.938843 4.721531 36,000 273 391 0
2022-01-14 19:04:10 GMT 51.938473 4.736834 36,000 273 391 0
2022-01-14 19:04:07 GMT 51.938473 4.736834 36,000 273 391 0
2022-01-14 19:04:04 GMT 51.938278 4.744949 36,000 273 391 0
2022-01-14 19:04:01 GMT 51.938049 4.755020 36,000 273 391 0
2022-01-14 19:03:59 GMT 51.937958 4.757919 36,000 273 391 0
2022-01-14 19:03:57 GMT 51.937683 4.771042 36,000 273 391 0
2022-01-14 19:03:55 GMT 51.937683 4.771042 36,000 273 391 0
2022-01-14 19:03:53 GMT 51.937454 4.779129 36,025 273 391 0
2022-01-14 19:03:50 GMT 51.937309 4.786508 36,000 273 391 0
2022-01-14 19:03:47 GMT 51.937134 4.794159 36,025 273 391 0
2022-01-14 19:03:45 GMT 51.936935 4.801339 36,000 273 391 0
2022-01-14 19:03:43 GMT 51.936813 4.806900 36,025 273 391 0
2022-01-14 19:03:40 GMT 51.936562 4.816799 36,025 273 391 0
2022-01-14 19:03:37 GMT 51.936283 4.830218 36,025 273 391 0
2022-01-14 19:03:35 GMT 51.936283 4.830218 36,000 273 391 0
2022-01-14 19:03:32 GMT 51.936050 4.839242 36,025 273 391 0
2022-01-14 19:03:30 GMT 51.935909 4.844971 36,000 273 391 0
2022-01-14 19:03:27 GMT 51.935677 4.853524 36,000 273 391 0
2022-01-14 19:03:25 GMT 51.935539 4.859645 36,000 273 391 0
2022-01-14 19:03:22 GMT 51.935349 4.867706 36,000 273 391 0
2022-01-14 19:03:20 GMT 51.935165 4.874878 36,000 273 391 0
2022-01-14 19:03:17 GMT 51.934982 4.883118 36,000 273 391 0
2022-01-14 19:03:15 GMT 51.934841 4.887817 36,000 273 391 0
2022-01-14 19:03:12 GMT 51.934608 4.897470 36,000 273 391 0
2022-01-14 19:03:10 GMT 51.934433 4.903946 36,000 273 391 0
2022-01-14 19:03:07 GMT 51.934204 4.912415 36,000 273 391 0
2022-01-14 19:03:05 GMT 51.933838 4.926910 36,000 273 391 0
2022-01-14 19:03:02 GMT 51.933655 4.933853 36,000 273 391 0
2022-01-14 19:02:59 GMT 51.933445 4.941415 36,000 273 391 0
2022-01-14 19:02:57 GMT 51.933445 4.941415 36,000 273 391 0
2022-01-14 19:02:55 GMT 51.933304 4.947065 36,000 273 391 0
2022-01-14 19:02:52 GMT 51.933117 4.955226 36,000 273 391 0
2022-01-14 19:02:50 GMT 51.932747 4.968645 36,000 273 391 0
2022-01-14 19:02:48 GMT 51.932747 4.968645 36,000 273 391 0
2022-01-14 19:02:45 GMT 51.932327 4.985275 36,000 273 391 0
2022-01-14 19:02:42 GMT 51.932327 4.985275 36,000 273 391 0
2022-01-14 19:02:40 GMT 51.932098 4.995575 36,000 273 391 0
2022-01-14 19:02:38 GMT 51.932098 4.995575 36,000 273 391 0
2022-01-14 19:02:35 GMT 51.931686 5.010834 36,000 273 391 0
2022-01-14 19:02:33 GMT 51.931686 5.010834 36,000 273 390 0
2022-01-14 19:02:30 GMT 51.931412 5.020752 36,000 273 390 0
2022-01-14 19:02:28 GMT 51.931210 5.027815 36,000 273 390 0
2022-01-14 19:02:25 GMT 51.931091 5.033493 36,000 273 390 0
2022-01-14 19:02:22 GMT 51.930790 5.044137 36,000 273 390 0
2022-01-14 19:02:20 GMT 51.930634 5.049286 36,000 273 390 0
2022-01-14 19:02:18 GMT 51.930496 5.054932 36,000 273 390 0
2022-01-14 19:02:15 GMT 51.930233 5.065482 36,000 273 390 0
2022-01-14 19:02:12 GMT 51.930000 5.073015 36,000 273 390 0
2022-01-14 19:02:10 GMT 51.929718 5.084229 36,000 273 390 0
2022-01-14 19:02:08 GMT 51.929718 5.084229 36,000 273 390 0
2022-01-14 19:02:05 GMT 51.929489 5.092392 36,000 273 390 0
2022-01-14 19:02:02 GMT 51.929253 5.101894 36,000 273 390 0
2022-01-14 19:01:59 GMT 51.929070 5.109113 36,000 273 390 0
2022-01-14 19:01:57 GMT 51.928848 5.116882 36,000 273 390 0
2022-01-14 19:01:54 GMT 51.928463 5.131008 36,000 273 390 0
2022-01-14 19:01:51 GMT 51.928463 5.131008 36,000 273 390 0
2022-01-14 19:01:49 GMT 51.928253 5.139389 36,000 273 390 0
2022-01-14 19:01:46 GMT 51.927998 5.148743 36,000 273 390 0
2022-01-14 19:01:43 GMT 51.927750 5.157547 36,000 273 390 0
2022-01-14 19:01:40 GMT 51.927567 5.164642 36,000 273 390 0
2022-01-14 19:01:38 GMT 51.927063 5.182495 36,000 273 390 0
2022-01-14 19:01:35 GMT 51.927063 5.182495 36,000 273 390 0
2022-01-14 19:01:32 GMT 51.926880 5.189784 36,000 273 390 0
2022-01-14 19:01:29 GMT 51.926601 5.199437 36,000 273 390 0
2022-01-14 19:01:26 GMT 51.926182 5.214425 36,000 273 390 0
2022-01-14 19:01:23 GMT 51.925949 5.222508 36,000 273 390 0
2022-01-14 19:01:20 GMT 51.925949 5.222508 36,000 273 390 0
2022-01-14 19:01:18 GMT 51.925644 5.232391 36,000 273 390 0
2022-01-14 19:01:15 GMT 51.925484 5.238595 36,000 273 390 0
2022-01-14 19:01:12 GMT 51.925205 5.248561 36,000 273 389 0
2022-01-14 19:01:09 GMT 51.925003 5.255661 36,000 273 389 0
2022-01-14 19:01:06 GMT 51.924545 5.270767 36,000 273 389 0
2022-01-14 19:01:04 GMT 51.924545 5.270767 36,000 273 389 0
2022-01-14 19:01:01 GMT 51.924316 5.278702 36,000 273 389 0
2022-01-14 19:00:59 GMT 51.924042 5.287798 36,000 273 389 0
2022-01-14 19:00:56 GMT 51.923855 5.295489 36,000 273 389 0
2022-01-14 19:00:53 GMT 51.923622 5.303022 36,000 273 389 0
2022-01-14 19:00:50 GMT 51.923401 5.310516 36,000 273 389 0
2022-01-14 19:00:47 GMT 51.923126 5.320435 36,000 273 389 0
2022-01-14 19:00:44 GMT 51.922874 5.328212 36,000 273 389 0
2022-01-14 19:00:41 GMT 51.922623 5.336914 36,000 273 389 0
2022-01-14 19:00:39 GMT 51.922440 5.343094 36,000 273 389 0
2022-01-14 19:00:36 GMT 51.922085 5.354422 36,000 273 389 0
2022-01-14 19:00:33 GMT 51.921890 5.361862 36,000 273 389 0
2022-01-14 19:00:30 GMT 51.921661 5.368652 36,000 273 389 0
2022-01-14 19:00:28 GMT 51.921432 5.376944 36,000 273 389 0
2022-01-14 19:00:25 GMT 51.921204 5.384064 36,000 273 389 0
2022-01-14 19:00:22 GMT 51.920921 5.392875 36,000 273 389 0
2022-01-14 19:00:19 GMT 51.920734 5.399859 36,000 273 389 0
2022-01-14 19:00:17 GMT 51.920471 5.408630 36,000 273 389 0
2022-01-14 19:00:14 GMT 51.920242 5.416107 36,000 273 389 0
2022-01-14 19:00:11 GMT 51.919991 5.424892 36,000 273 389 0
2022-01-14 19:00:08 GMT 51.919479 5.441371 36,000 273 389 0
2022-01-14 19:00:05 GMT 51.919479 5.441371 36,000 273 389 0
2022-01-14 19:00:02 GMT 51.919189 5.451813 36,000 273 389 0
2022-01-14 18:59:59 GMT 51.918919 5.459734 36,000 273 389 0
2022-01-14 18:59:56 GMT 51.918732 5.467072 36,000 273 389 0
2022-01-14 18:59:53 GMT 51.918411 5.477448 36,000 273 389 0
2022-01-14 18:59:50 GMT 51.918182 5.485458 36,000 273 389 0
2022-01-14 18:59:48 GMT 51.917942 5.492850 36,000 273 389 0
2022-01-14 18:59:45 GMT 51.917664 5.502424 36,000 273 389 0
2022-01-14 18:59:42 GMT 51.917431 5.509565 36,000 273 389 0
2022-01-14 18:59:39 GMT 51.917244 5.515921 36,000 273 389 0
2022-01-14 18:59:36 GMT 51.916683 5.534520 36,000 273 389 0
2022-01-14 18:59:33 GMT 51.916683 5.534520 36,000 273 389 0
2022-01-14 18:59:30 GMT 51.916405 5.543623 36,000 273 389 0
2022-01-14 18:59:28 GMT 51.916035 5.556022 36,000 273 389 0
2022-01-14 18:59:25 GMT 51.916035 5.556022 36,000 273 389 0
2022-01-14 18:59:23 GMT 51.915756 5.565643 36,000 273 389 0
2022-01-14 18:59:19 GMT 51.915428 5.575718 36,000 273 389 0
2022-01-14 18:59:16 GMT 51.915150 5.584508 36,000 273 389 0
2022-01-14 18:59:13 GMT 51.914639 5.601222 36,000 273 389 0
2022-01-14 18:59:10 GMT 51.914639 5.601222 36,000 273 389 0
2022-01-14 18:59:08 GMT 51.914452 5.606637 36,000 273 389 0
2022-01-14 18:59:05 GMT 51.913937 5.624372 36,000 273 389 0
2022-01-14 18:59:02 GMT 51.913937 5.624372 36,000 273 389 0
2022-01-14 18:58:59 GMT 51.913612 5.634260 36,000 273 389 0
2022-01-14 18:58:56 GMT 51.913376 5.641327 36,000 273 389 0
2022-01-14 18:58:53 GMT 51.912827 5.658417 36,000 273 388 0
2022-01-14 18:58:50 GMT 51.912827 5.658417 36,000 273 388 0
2022-01-14 18:58:48 GMT 51.912643 5.664825 36,000 273 388 0
2022-01-14 18:58:45 GMT 51.912369 5.673447 36,000 273 388 0
2022-01-14 18:58:43 GMT 51.912094 5.682068 36,000 273 388 0
2022-01-14 18:58:40 GMT 51.911911 5.688171 36,000 273 388 0
2022-01-14 18:58:38 GMT 51.911682 5.695419 36,000 273 388 0
2022-01-14 18:58:35 GMT 51.911453 5.702515 36,000 273 388 0
2022-01-14 18:58:32 GMT 51.911179 5.710907 36,000 273 388 0
2022-01-14 18:58:29 GMT 51.910774 5.722621 36,000 274 388 0
2022-01-14 18:58:26 GMT 51.910587 5.728350 36,000 273 388 0
2022-01-14 18:58:23 GMT 51.910309 5.737374 36,000 273 388 0
2022-01-14 18:58:20 GMT 51.909843 5.751814 36,000 273 388 0
2022-01-14 18:58:18 GMT 51.909843 5.751814 36,000 274 388 0
2022-01-14 18:58:15 GMT 51.909576 5.760345 36,000 273 388 0
2022-01-14 18:58:12 GMT 51.909237 5.770883 36,000 274 388 0
2022-01-14 18:58:09 GMT 51.908958 5.779358 36,000 274 388 0
2022-01-14 18:58:06 GMT 51.908661 5.787506 36,000 274 388 0
2022-01-14 18:58:03 GMT 51.908432 5.795059 36,000 274 388 0
2022-01-14 18:58:00 GMT 51.907974 5.809326 36,000 274 388 0
2022-01-14 18:57:58 GMT 51.907608 5.819772 36,000 274 388 0
2022-01-14 18:57:55 GMT 51.907608 5.819772 36,000 274 388 0
2022-01-14 18:57:52 GMT 51.907333 5.827332 36,000 274 388 0
2022-01-14 18:57:49 GMT 51.907013 5.837097 36,000 274 388 0
2022-01-14 18:57:47 GMT 51.906860 5.841274 36,000 274 388 0
2022-01-14 18:57:44 GMT 51.906509 5.851059 36,000 274 388 0
2022-01-14 18:57:41 GMT 51.906235 5.859985 36,000 274 388 0
2022-01-14 18:57:38 GMT 51.905930 5.868190 36,000 274 388 0
2022-01-14 18:57:35 GMT 51.905605 5.877372 36,000 274 388 0
2022-01-14 18:57:32 GMT 51.905273 5.887604 36,000 274 388 0
2022-01-14 18:57:29 GMT 51.905045 5.894699 36,000 274 388 0
2022-01-14 18:57:27 GMT 51.904907 5.899187 36,000 274 388 0
2022-01-14 18:57:24 GMT 51.904587 5.908279 36,000 274 388 0
2022-01-14 18:57:22 GMT 51.904396 5.914019 36,000 274 388 0
2022-01-14 18:57:19 GMT 51.903854 5.929718 36,000 274 388 0
2022-01-14 18:57:17 GMT 51.903603 5.936776 36,000 274 388 0
2022-01-14 18:57:14 GMT 51.903603 5.936776 36,000 274 388 0
2022-01-14 18:57:12 GMT 51.903122 5.950851 36,000 274 388 0
2022-01-14 18:57:09 GMT 51.903122 5.950851 36,000 274 388 0
2022-01-14 18:57:07 GMT 51.902573 5.967102 36,000 274 388 0
2022-01-14 18:57:04 GMT 51.902573 5.967102 36,000 274 388 0
2022-01-14 18:57:01 GMT 51.902206 5.977859 36,000 274 388 0
2022-01-14 18:56:58 GMT 51.902069 5.981820 36,000 274 388 0
2022-01-14 18:56:56 GMT 51.901749 5.990601 36,000 274 388 0
2022-01-14 18:56:53 GMT 51.901417 6.001360 36,000 274 388 0
2022-01-14 18:56:49 GMT 51.901089 6.009835 36,000 274 388 0
2022-01-14 18:56:47 GMT 51.900856 6.017133 36,000 274 388 0
2022-01-14 18:56:44 GMT 51.900623 6.023961 36,000 274 388 0
2022-01-14 18:56:42 GMT 51.900112 6.038243 36,000 274 388 0
2022-01-14 18:56:39 GMT 51.899826 6.046448 36,000 274 389 0
2022-01-14 18:56:37 GMT 51.899826 6.046448 36,000 274 389 0
2022-01-14 18:56:34 GMT 51.899597 6.053543 36,000 274 389 0
2022-01-14 18:56:32 GMT 51.899414 6.058884 36,000 274 389 0
2022-01-14 18:56:29 GMT 51.899094 6.067657 36,000 274 389 0
2022-01-14 18:56:27 GMT 51.898911 6.073074 36,000 274 389 0
2022-01-14 18:56:24 GMT 51.898636 6.081924 36,000 274 389 0
2022-01-14 18:56:21 GMT 51.898224 6.093979 36,000 274 389 0
2022-01-14 18:56:18 GMT 51.898018 6.099374 36,000 274 389 0
2022-01-14 18:56:16 GMT 51.897720 6.107864 36,000 274 389 0
2022-01-14 18:56:13 GMT 51.897411 6.116167 36,000 274 389 0
2022-01-14 18:56:10 GMT 51.897179 6.122524 36,000 274 389 0
2022-01-14 18:56:07 GMT 51.896809 6.133196 36,000 274 389 0
2022-01-14 18:56:04 GMT 51.896530 6.140747 36,000 274 389 0
2022-01-14 18:56:02 GMT 51.896343 6.146144 36,000 274 389 0
2022-01-14 18:55:59 GMT 51.896027 6.154709 36,000 274 389 0
2022-01-14 18:55:57 GMT 51.895477 6.169662 36,000 274 389 0
2022-01-14 18:55:54 GMT 51.895477 6.169662 36,000 274 389 0
2022-01-14 18:55:51 GMT 51.895203 6.176987 36,000 274 389 0
2022-01-14 18:55:48 GMT 51.894619 6.192993 36,000 274 389 0
2022-01-14 18:55:46 GMT 51.894619 6.192993 36,000 274 389 0
2022-01-14 18:55:43 GMT 51.894341 6.201547 36,000 274 389 0
2022-01-14 18:55:40 GMT 51.893967 6.211319 36,000 274 389 0
2022-01-14 18:55:37 GMT 51.893692 6.219254 36,000 274 389 0
2022-01-14 18:55:34 GMT 51.893360 6.228180 36,000 274 389 0
2022-01-14 18:55:31 GMT 51.892803 6.243973 36,000 274 389 0
2022-01-14 18:55:28 GMT 51.892803 6.243973 36,000 274 389 0
2022-01-14 18:55:26 GMT 51.892570 6.249847 36,000 274 389 0
2022-01-14 18:55:23 GMT 51.892181 6.260203 36,000 274 389 0
2022-01-14 18:55:21 GMT 51.892044 6.264211 36,000 274 389 0
2022-01-14 18:55:18 GMT 51.891678 6.274975 36,000 274 389 0
2022-01-14 18:55:15 GMT 51.891033 6.291809 36,000 274 389 0
2022-01-14 18:55:12 GMT 51.891033 6.291809 36,000 274 389 0
2022-01-14 18:55:10 GMT 51.890854 6.297393 36,000 274 389 0
2022-01-14 18:55:07 GMT 51.890522 6.306076 36,000 274 389 0
2022-01-14 18:55:04 GMT 51.889847 6.324116 36,000 274 389 0
2022-01-14 18:55:01 GMT 51.889847 6.324116 36,000 274 389 0
2022-01-14 18:54:58 GMT 51.889572 6.331688 36,000 274 389 0
2022-01-14 18:54:56 GMT 51.889404 6.336365 36,000 274 389 0
2022-01-14 18:54:53 GMT 51.888657 6.356185 36,000 274 389 0
2022-01-14 18:54:50 GMT 51.888657 6.356185 36,000 274 389 0
2022-01-14 18:54:47 GMT 51.888336 6.363979 36,000 274 389 0
2022-01-14 18:54:44 GMT 51.888016 6.371328 36,000 274 389 0
2022-01-14 18:54:41 GMT 51.887604 6.382314 36,000 274 389 0
2022-01-14 18:54:38 GMT 51.887009 6.397532 36,000 274 389 0
2022-01-14 18:54:36 GMT 51.887009 6.397532 36,000 274 388 0
2022-01-14 18:54:33 GMT 51.886780 6.403248 36,000 274 389 0
2022-01-14 18:54:30 GMT 51.886414 6.412749 36,000 274 388 0
2022-01-14 18:54:27 GMT 51.886055 6.422119 36,000 274 388 0
2022-01-14 18:54:24 GMT 51.885773 6.428909 36,000 274 388 0
2022-01-14 18:54:21 GMT 51.885361 6.440215 36,000 274 388 0
2022-01-14 18:54:18 GMT 51.885075 6.447296 36,000 274 388 0
2022-01-14 18:54:16 GMT 51.884796 6.454926 36,000 274 388 0
2022-01-14 18:54:13 GMT 51.884472 6.463394 36,000 274 388 -64
2022-01-14 18:54:10 GMT 51.884190 6.470871 36,000 274 388 0
2022-01-14 18:54:07 GMT 51.883911 6.478195 36,000 274 388 0
2022-01-14 18:54:05 GMT 51.883575 6.487204 36,000 274 388 0
2022-01-14 18:54:02 GMT 51.883308 6.493225 36,000 274 388 0
2022-01-14 18:53:59 GMT 51.882935 6.503372 36,000 274 389 0
2022-01-14 18:53:56 GMT 51.882656 6.510849 36,000 274 389 0
2022-01-14 18:53:53 GMT 51.882236 6.520920 36,000 274 389 0
2022-01-14 18:53:50 GMT 51.881882 6.530704 36,000 274 389 0
2022-01-14 18:53:47 GMT 51.881561 6.538127 36,000 274 389 0
2022-01-14 18:53:44 GMT 51.881306 6.544876 36,000 274 389 0
2022-01-14 18:53:41 GMT 51.881012 6.552602 36,000 274 388 -64
2022-01-14 18:53:38 GMT 51.880280 6.570282 36,000 274 388 0
2022-01-14 18:53:36 GMT 51.880280 6.570282 36,000 274 388 0
2022-01-14 18:53:33 GMT 51.879955 6.578903 36,000 274 388 0
2022-01-14 18:53:30 GMT 51.879677 6.585464 36,000 274 388 0
2022-01-14 18:53:27 GMT 51.878998 6.603080 36,000 274 388 0
2022-01-14 18:53:24 GMT 51.878998 6.603080 36,000 274 388 0
2022-01-14 18:53:21 GMT 51.878632 6.612508 36,000 274 388 0
2022-01-14 18:53:18 GMT 51.878235 6.622314 36,000 274 388 0
2022-01-14 18:53:16 GMT 51.878048 6.626511 36,000 274 388 0
2022-01-14 18:53:13 GMT 51.877674 6.635437 36,000 274 388 0
2022-01-14 18:53:10 GMT 51.877350 6.644502 36,000 274 388 0
2022-01-14 18:53:07 GMT 51.876984 6.653632 36,000 274 388 0
2022-01-14 18:53:04 GMT 51.876663 6.661204 36,000 274 388 0
2022-01-14 18:53:01 GMT 51.876297 6.670557 36,000 274 388 -64
2022-01-14 18:52:58 GMT 51.875885 6.680059 36,000 274 388 0
2022-01-14 18:52:56 GMT 51.875748 6.683622 36,000 274 388 0
2022-01-14 18:52:53 GMT 51.875252 6.695862 36,000 274 388 0
2022-01-14 18:52:50 GMT 51.874695 6.710197 36,000 274 388 0
2022-01-14 18:52:47 GMT 51.874695 6.710197 36,000 274 388 0
2022-01-14 18:52:44 GMT 51.874237 6.721480 36,000 274 388 0
2022-01-14 18:52:41 GMT 51.873917 6.728532 36,000 274 388 0
2022-01-14 18:52:38 GMT 51.873230 6.745977 36,000 274 388 0
2022-01-14 18:52:35 GMT 51.872787 6.756058 36,000 274 388 0
2022-01-14 18:52:32 GMT 51.872787 6.756058 36,000 274 389 0
2022-01-14 18:52:29 GMT 51.872543 6.762308 36,000 274 389 0
2022-01-14 18:52:26 GMT 51.872131 6.772329 36,000 274 389 0
2022-01-14 18:52:23 GMT 51.871857 6.779455 36,000 274 389 0
2022-01-14 18:52:20 GMT 51.871391 6.790390 36,000 274 389 0
2022-01-14 18:52:17 GMT 51.871033 6.799052 36,000 274 388 0
2022-01-14 18:52:14 GMT 51.870598 6.809540 36,000 274 388 0
2022-01-14 18:52:11 GMT 51.869980 6.824366 36,000 274 388 0
2022-01-14 18:52:08 GMT 51.869705 6.830898 36,000 274 388 0
2022-01-14 18:52:06 GMT 51.869705 6.830898 36,000 274 388 0
2022-01-14 18:52:03 GMT 51.869343 6.839828 36,000 274 388 0
2022-01-14 18:52:00 GMT 51.868927 6.848862 36,000 274 388 0
2022-01-14 18:51:57 GMT 51.868736 6.854248 36,000 274 388 0
2022-01-14 18:51:55 GMT 51.868469 6.859552 36,000 274 388 0
2022-01-14 18:51:53 GMT 51.868103 6.868237 36,000 274 388 0
2022-01-14 18:51:50 GMT 51.867828 6.875140 36,000 274 388 0
2022-01-14 18:51:47 GMT 51.867477 6.883240 36,000 274 388 0
2022-01-14 18:51:45 GMT 51.866825 6.898117 36,000 274 389 0
2022-01-14 18:51:42 GMT 51.866825 6.898117 36,000 274 389 0
2022-01-14 18:51:39 GMT 51.866364 6.908470 36,000 274 389 0
2022-01-14 18:51:36 GMT 51.865990 6.917953 36,000 274 389 0
2022-01-14 18:51:33 GMT 51.865616 6.926727 36,000 274 389 0
2022-01-14 18:51:30 GMT 51.865311 6.932893 36,000 274 389 0
2022-01-14 18:51:27 GMT 51.864918 6.942902 36,000 274 389 0
2022-01-14 18:51:24 GMT 51.864532 6.951079 36,000 274 389 0
2022-01-14 18:51:21 GMT 51.864174 6.959076 36,000 274 389 0
2022-01-14 18:51:18 GMT 51.863754 6.969118 36,000 274 389 0
2022-01-14 18:51:16 GMT 51.863522 6.974716 36,000 274 389 0
2022-01-14 18:51:14 GMT 51.863243 6.980820 36,000 274 389 0
2022-01-14 18:51:11 GMT 51.862839 6.990497 36,000 274 389 0
2022-01-14 18:51:08 GMT 51.862518 6.997846 36,000 274 389 0
2022-01-14 18:51:06 GMT 51.862267 7.003632 36,000 274 389 0
2022-01-14 18:51:03 GMT 51.861523 7.020950 36,000 274 389 0
2022-01-14 18:51:00 GMT 51.861523 7.020950 36,000 274 389 0
2022-01-14 18:50:57 GMT 51.861191 7.028429 36,000 274 388 0
2022-01-14 18:50:55 GMT 51.860916 7.034225 36,000 275 389 0
2022-01-14 18:50:53 GMT 51.860588 7.041473 36,000 275 389 0
2022-01-14 18:50:50 GMT 51.860184 7.051144 36,000 275 389 0
2022-01-14 18:50:47 GMT 51.859909 7.057677 36,000 275 389 0
2022-01-14 18:50:45 GMT 51.859566 7.064972 36,000 275 389 0
2022-01-14 18:50:42 GMT 51.859222 7.072449 36,000 275 389 0
2022-01-14 18:50:39 GMT 51.858822 7.081909 36,000 275 390 0
2022-01-14 18:50:36 GMT 51.858028 7.099609 36,000 275 390 0
2022-01-14 18:50:33 GMT 51.858028 7.099609 36,000 275 390 -64
2022-01-14 18:50:30 GMT 51.857658 7.108154 36,025 275 389 -64
2022-01-14 18:50:27 GMT 51.857285 7.116394 36,000 275 389 -64
2022-01-14 18:50:25 GMT 51.857117 7.120254 36,000 275 389 0
2022-01-14 18:50:23 GMT 51.856308 7.139053 36,000 275 389 0
2022-01-14 18:50:20 GMT 51.856308 7.139053 36,025 275 389 0
2022-01-14 18:50:17 GMT 51.856018 7.144825 36,025 275 389 0
2022-01-14 18:50:15 GMT 51.855377 7.159152 36,000 275 389 0
2022-01-14 18:50:12 GMT 51.855057 7.166204 36,000 275 389 0
2022-01-14 18:50:09 GMT 51.855057 7.166204 36,000 275 389 0
2022-01-14 18:50:07 GMT 51.854691 7.175112 36,000 275 389 0
2022-01-14 18:50:05 GMT 51.854492 7.179413 36,000 275 389 0
2022-01-14 18:50:03 GMT 51.854141 7.186617 36,000 275 389 0
2022-01-14 18:50:00 GMT 51.853683 7.196713 36,000 275 389 0
2022-01-14 18:49:57 GMT 51.853180 7.208070 36,000 275 389 0
2022-01-14 18:49:55 GMT 51.853180 7.208070 36,000 275 389 0
2022-01-14 18:49:53 GMT 51.852814 7.215865 36,000 275 389 0
2022-01-14 18:49:50 GMT 51.852348 7.225800 36,000 275 389 0
2022-01-14 18:49:47 GMT 51.852116 7.231827 36,000 275 389 0
2022-01-14 18:49:45 GMT 51.851852 7.237615 36,000 275 389 0
2022-01-14 18:49:42 GMT 51.851028 7.254762 36,000 275 389 0
2022-01-14 18:49:39 GMT 51.851028 7.254762 36,000 275 389 0
2022-01-14 18:49:36 GMT 51.850571 7.265081 36,000 275 389 0
2022-01-14 18:49:33 GMT 51.850250 7.272281 36,000 275 388 0
2022-01-14 18:49:30 GMT 51.849743 7.283020 36,000 275 389 0
2022-01-14 18:49:27 GMT 51.849472 7.288686 36,000 275 389 0
2022-01-14 18:49:25 GMT 51.849152 7.296258 36,000 275 389 0
2022-01-14 18:49:23 GMT 51.848904 7.300720 36,000 275 389 0
2022-01-14 18:49:20 GMT 51.848534 7.309418 36,000 275 389 0
2022-01-14 18:49:17 GMT 51.848053 7.319270 36,000 275 389 0
2022-01-14 18:49:15 GMT 51.847687 7.327361 36,000 275 389 64
2022-01-14 18:49:12 GMT 51.847416 7.333603 36,000 275 389 64
2022-01-14 18:49:09 GMT 51.846951 7.344131 36,000 275 389 64
2022-01-14 18:49:06 GMT 51.846622 7.350616 36,000 275 389 64
2022-01-14 18:49:03 GMT 51.846130 7.360988 36,000 275 389 0
2022-01-14 18:49:00 GMT 51.845810 7.368189 36,000 275 389 0
2022-01-14 18:48:57 GMT 51.845413 7.377701 36,000 275 389 0
2022-01-14 18:48:54 GMT 51.844994 7.386703 36,000 275 389 0
2022-01-14 18:48:51 GMT 51.844620 7.394987 36,000 275 389 0
2022-01-14 18:48:48 GMT 51.844208 7.403523 36,000 275 389 0
2022-01-14 18:48:45 GMT 51.843830 7.412338 36,000 275 389 0
2022-01-14 18:48:42 GMT 51.843521 7.419409 36,000 275 389 0
2022-01-14 18:48:39 GMT 51.842712 7.437439 36,000 275 388 0
2022-01-14 18:48:36 GMT 51.842712 7.437439 36,000 275 388 64
2022-01-14 18:48:33 GMT 51.842342 7.445755 36,000 275 388 0
2022-01-14 18:48:30 GMT 51.841969 7.453918 36,000 275 388 0
2022-01-14 18:48:27 GMT 51.841232 7.469887 36,000 275 388 0
2022-01-14 18:48:25 GMT 51.841232 7.469887 36,000 275 388 0
2022-01-14 18:48:22 GMT 51.840897 7.477875 35,975 275 388 0
2022-01-14 18:48:19 GMT 51.840454 7.487554 36,000 275 388 0
2022-01-14 18:48:16 GMT 51.840153 7.493134 36,000 275 388 0
2022-01-14 18:48:14 GMT 51.839355 7.511011 36,000 275 388 0
2022-01-14 18:48:11 GMT 51.839355 7.511011 36,000 275 387 0
2022-01-14 18:48:08 GMT 51.838898 7.520599 36,000 275 388 0
2022-01-14 18:48:05 GMT 51.838531 7.528010 36,000 275 387 0
2022-01-14 18:48:02 GMT 51.838200 7.535400 36,000 275 387 0
2022-01-14 18:47:59 GMT 51.837780 7.543869 36,000 275 387 64
2022-01-14 18:47:56 GMT 51.837269 7.554321 35,975 275 387 0
2022-01-14 18:47:53 GMT 51.836472 7.571436 35,975 275 387 0
2022-01-14 18:47:50 GMT 51.836472 7.571436 35,975 275 387 0
2022-01-14 18:47:47 GMT 51.836102 7.578659 35,975 275 387 0
2022-01-14 18:47:45 GMT 51.835739 7.586431 35,975 275 387 0
2022-01-14 18:47:42 GMT 51.835327 7.595190 35,975 275 387 0
2022-01-14 18:47:39 GMT 51.834892 7.603683 35,975 275 387 0
2022-01-14 18:47:36 GMT 51.834103 7.620010 36,000 275 387 0
2022-01-14 18:47:33 GMT 51.834103 7.620010 36,000 275 387 0
2022-01-14 18:47:30 GMT 51.833817 7.626442 35,975 275 387 0
2022-01-14 18:47:27 GMT 51.833267 7.636908 36,000 275 387 0
2022-01-14 18:47:24 GMT 51.832935 7.644119 35,975 275 387 0
2022-01-14 18:47:21 GMT 51.832443 7.654130 36,000 275 386 -64
2022-01-14 18:47:18 GMT 51.832031 7.662667 35,975 275 387 0
2022-01-14 18:47:15 GMT 51.831619 7.671055 35,975 275 387 0
2022-01-14 18:47:12 GMT 51.831215 7.679138 36,000 275 386 0
2022-01-14 18:47:09 GMT 51.830658 7.690355 36,000 275 387 0
2022-01-14 18:47:06 GMT 51.830376 7.696152 36,000 275 386 0
2022-01-14 18:47:04 GMT 51.830063 7.702381 36,000 275 387 0
2022-01-14 18:47:02 GMT 51.829697 7.709285 36,000 275 387 0
2022-01-14 18:46:58 GMT 51.829193 7.720197 36,000 275 387 0
2022-01-14 18:46:56 GMT 51.828873 7.726655 36,000 275 387 0
2022-01-14 18:46:53 GMT 51.828564 7.733231 36,000 275 387 0
2022-01-14 18:46:51 GMT 51.828094 7.742081 35,975 275 387 0
2022-01-14 18:46:48 GMT 51.827770 7.748795 36,000 275 386 0
2022-01-14 18:46:45 GMT 51.827316 7.758203 36,000 275 386 0
2022-01-14 18:46:42 GMT 51.826885 7.767258 36,000 275 386 -64
2022-01-14 18:46:39 GMT 51.826511 7.774582 36,000 275 386 0
2022-01-14 18:46:36 GMT 51.825760 7.789752 36,000 275 386 0
2022-01-14 18:46:34 GMT 51.825760 7.789752 36,000 275 386 0
2022-01-14 18:46:31 GMT 51.825397 7.796783 36,000 275 386 0
2022-01-14 18:46:28 GMT 51.824890 7.806974 36,000 275 386 0
2022-01-14 18:46:25 GMT 51.824604 7.812958 36,000 275 386 0
2022-01-14 18:46:22 GMT 51.823975 7.824715 36,000 275 386 64
2022-01-14 18:46:19 GMT 51.823563 7.833103 36,000 275 386 0
2022-01-14 18:46:16 GMT 51.823116 7.841721 36,000 275 386 0
2022-01-14 18:46:13 GMT 51.822838 7.847290 36,000 275 386 0
2022-01-14 18:46:11 GMT 51.822006 7.862574 36,000 275 386 0
2022-01-14 18:46:08 GMT 51.822006 7.862574 35,975 275 386 0
2022-01-14 18:46:05 GMT 51.821457 7.873040 35,975 275 386 -64
2022-01-14 18:46:02 GMT 51.821045 7.881577 36,000 275 386 -64
2022-01-14 18:45:59 GMT 51.820633 7.888777 36,000 275 386 -64
2022-01-14 18:45:56 GMT 51.820221 7.896869 36,000 275 386 -64
2022-01-14 18:45:54 GMT 51.819809 7.904587 36,000 275 386 0
2022-01-14 18:45:51 GMT 51.819389 7.912979 36,000 275 386 0
2022-01-14 18:45:48 GMT 51.818985 7.920549 36,000 275 386 -64
2022-01-14 18:45:45 GMT 51.818436 7.931238 36,000 275 386 -64
2022-01-14 18:45:42 GMT 51.817566 7.947495 36,000 275 386 -64
2022-01-14 18:45:39 GMT 51.817566 7.947495 36,000 275 386 -64
2022-01-14 18:45:36 GMT 51.817108 7.956774 36,000 275 386 0
2022-01-14 18:45:33 GMT 51.816833 7.962416 36,000 275 386 0
2022-01-14 18:45:31 GMT 51.816330 7.971620 36,000 275 386 0
2022-01-14 18:45:28 GMT 51.816040 7.977448 36,000 275 386 0
2022-01-14 18:45:25 GMT 51.815666 7.985153 36,000 275 386 0
2022-01-14 18:45:22 GMT 51.814690 8.003845 36,025 275 386 0
2022-01-14 18:45:19 GMT 51.814690 8.003845 36,000 275 386 0
2022-01-14 18:45:16 GMT 51.814133 8.014749 36,025 275 387 0
2022-01-14 18:45:13 GMT 51.813904 8.019129 36,000 275 387 0
2022-01-14 18:45:11 GMT 51.813446 8.027888 36,025 275 387 0
2022-01-14 18:45:08 GMT 51.812622 8.044145 36,025 275 387 0
2022-01-14 18:45:05 GMT 51.812622 8.044145 36,025 275 387 0
2022-01-14 18:45:02 GMT 51.812176 8.052063 36,025 275 387 0
2022-01-14 18:44:59 GMT 51.811710 8.060837 36,025 275 387 0
2022-01-14 18:44:56 GMT 51.811249 8.070126 36,025 275 387 0
2022-01-14 18:44:54 GMT 51.810452 8.084869 36,025 275 387 0
2022-01-14 18:44:51 GMT 51.810452 8.084869 36,025 275 387 0
2022-01-14 18:44:48 GMT 51.810059 8.092173 36,025 275 387 0
2022-01-14 18:44:45 GMT 51.809566 8.101425 36,025 275 387 0
2022-01-14 18:44:42 GMT 51.809097 8.110434 36,025 275 387 0
2022-01-14 18:44:39 GMT 51.808685 8.118820 36,025 275 388 0
2022-01-14 18:44:36 GMT 51.808228 8.127285 36,025 275 388 0
2022-01-14 18:44:34 GMT 51.807892 8.133469 36,025 275 388 0
2022-01-14 18:44:31 GMT 51.806915 8.151627 36,025 275 388 0
2022-01-14 18:44:28 GMT 51.806915 8.151627 36,025 275 388 0
2022-01-14 18:44:25 GMT 51.806404 8.161469 36,025 275 388 0
2022-01-14 18:44:22 GMT 51.806168 8.165588 36,025 275 388 0
2022-01-14 18:44:20 GMT 51.805702 8.174667 36,025 275 388 0
2022-01-14 18:44:17 GMT 51.805332 8.181229 36,025 275 388 0
2022-01-14 18:44:14 GMT 51.804886 8.190159 36,025 275 388 0
2022-01-14 18:44:11 GMT 51.804401 8.199005 36,025 275 388 0
2022-01-14 18:44:08 GMT 51.803890 8.208694 36,025 275 388 0
2022-01-14 18:44:05 GMT 51.803513 8.215695 36,025 275 388 64
2022-01-14 18:44:02 GMT 51.803051 8.224640 36,025 275 388 0
2022-01-14 18:44:00 GMT 51.802818 8.229294 36,025 275 388 0
2022-01-14 18:43:57 GMT 51.802277 8.239449 36,025 276 388 0
2022-01-14 18:43:54 GMT 51.801746 8.249130 36,025 276 388 0
2022-01-14 18:43:51 GMT 51.801281 8.257523 36,025 276 388 0
2022-01-14 18:43:48 GMT 51.800720 8.267286 36,025 276 388 0
2022-01-14 18:43:45 GMT 51.800396 8.273392 36,025 276 388 0
2022-01-14 18:43:42 GMT 51.799896 8.282652 36,025 276 388 0
2022-01-14 18:43:40 GMT 51.799576 8.288516 36,025 276 388 0
2022-01-14 18:43:37 GMT 51.798935 8.300097 36,025 276 388 0
2022-01-14 18:43:34 GMT 51.798569 8.307000 36,025 276 388 0
2022-01-14 18:43:31 GMT 51.798164 8.313980 36,025 276 388 0
2022-01-14 18:43:28 GMT 51.797649 8.322906 36,025 276 388 0
2022-01-14 18:43:25 GMT 51.797234 8.330994 36,025 276 388 0
2022-01-14 18:43:22 GMT 51.796692 8.340330 36,025 276 388 0
2022-01-14 18:43:20 GMT 51.795959 8.354434 36,000 276 387 0
2022-01-14 18:43:17 GMT 51.795959 8.354434 36,000 276 388 0
2022-01-14 18:43:14 GMT 51.795464 8.362732 36,025 276 388 0
2022-01-14 18:43:11 GMT 51.794857 8.374252 36,000 276 388 0
2022-01-14 18:43:08 GMT 51.794540 8.380267 36,025 276 388 0
2022-01-14 18:43:05 GMT 51.794113 8.387756 36,025 276 388 0
2022-01-14 18:43:03 GMT 51.793716 8.394742 36,025 276 388 0
2022-01-14 18:43:00 GMT 51.793228 8.404007 36,025 276 388 0
2022-01-14 18:42:57 GMT 51.792622 8.414917 36,025 276 388 0
2022-01-14 18:42:54 GMT 51.792297 8.420639 36,000 276 388 0
2022-01-14 18:42:51 GMT 51.791786 8.429794 36,000 276 388 0
2022-01-14 18:42:48 GMT 51.791321 8.438644 36,000 276 387 0
2022-01-14 18:42:45 GMT 51.790810 8.447189 36,000 276 387 0
2022-01-14 18:42:42 GMT 51.790340 8.455887 36,000 276 387 0
2022-01-14 18:42:39 GMT 51.789368 8.472612 36,000 276 387 0
2022-01-14 18:42:36 GMT 51.788807 8.483047 36,000 276 387 0
2022-01-14 18:42:33 GMT 51.788807 8.483047 36,000 276 387 0
2022-01-14 18:42:30 GMT 51.788361 8.491021 36,000 276 387 0
2022-01-14 18:42:27 GMT 51.787876 8.499680 36,000 276 387 0
2022-01-14 18:42:24 GMT 51.787457 8.506775 36,000 276 387 0
2022-01-14 18:42:21 GMT 51.787033 8.513959 36,000 276 387 0
2022-01-14 18:42:18 GMT 51.786392 8.525836 36,000 276 387 0
2022-01-14 18:42:15 GMT 51.785980 8.532740 36,000 276 387 0
2022-01-14 18:42:12 GMT 51.785500 8.540955 36,000 276 386 0
2022-01-14 18:42:09 GMT 51.784836 8.552856 36,000 276 386 0
2022-01-14 18:42:06 GMT 51.784424 8.559463 36,000 276 386 0
2022-01-14 18:42:02 GMT 51.783871 8.569717 36,000 276 386 0
2022-01-14 18:41:59 GMT 51.783173 8.581390 36,000 276 386 0
2022-01-14 18:41:56 GMT 51.782867 8.587077 36,000 276 386 64
2022-01-14 18:41:53 GMT 51.782364 8.596059 36,000 276 386 0
2022-01-14 18:41:50 GMT 51.781860 8.604745 36,000 276 386 64
2022-01-14 18:41:47 GMT 51.781311 8.614617 36,000 276 386 0
2022-01-14 18:41:44 GMT 51.780807 8.623525 36,000 276 386 0
2022-01-14 18:41:41 GMT 51.780426 8.629456 36,000 276 386 64
2022-01-14 18:41:38 GMT 51.779892 8.639411 36,000 276 386 64
2022-01-14 18:41:35 GMT 51.779572 8.645201 36,000 276 386 64
2022-01-14 18:41:32 GMT 51.778751 8.659286 36,000 276 386 64
2022-01-14 18:41:29 GMT 51.778381 8.665541 36,000 276 386 0
2022-01-14 18:41:26 GMT 51.777924 8.674151 36,000 276 386 0
2022-01-14 18:41:23 GMT 51.777493 8.681335 36,000 276 386 0
2022-01-14 18:41:20 GMT 51.776981 8.690033 36,000 276 386 0
2022-01-14 18:41:17 GMT 51.776516 8.698502 36,000 276 382 0
2022-01-14 18:41:14 GMT 51.776093 8.706294 36,000 276 385 0
2022-01-14 18:41:11 GMT 51.775085 8.723145 36,000 276 385 0
2022-01-14 18:41:09 GMT 51.775085 8.723145 36,000 276 385 0
2022-01-14 18:41:06 GMT 51.774609 8.731155 36,000 276 385 0
2022-01-14 18:41:03 GMT 51.774124 8.739995 36,000 276 385 0
2022-01-14 18:41:00 GMT 51.773491 8.750381 36,000 276 385 0
2022-01-14 18:40:57 GMT 51.773071 8.757935 36,000 276 384 0
2022-01-14 18:40:54 GMT 51.772697 8.764038 36,000 276 384 0
2022-01-14 18:40:51 GMT 51.772186 8.772736 36,000 276 384 0
2022-01-14 18:40:48 GMT 51.771351 8.786926 36,000 276 384 0
2022-01-14 18:40:45 GMT 51.770874 8.795001 36,000 276 384 0
2022-01-14 18:40:42 GMT 51.770557 8.800430 36,000 276 384 0
2022-01-14 18:40:39 GMT 51.770046 8.808823 36,000 276 384 0
2022-01-14 18:40:36 GMT 51.769501 8.817493 36,000 276 384 0
2022-01-14 18:40:33 GMT 51.769089 8.824620 36,000 276 384 0
2022-01-14 18:40:30 GMT 51.768585 8.832934 36,000 276 384 0
2022-01-14 18:40:27 GMT 51.767990 8.842955 36,000 276 383 0
2022-01-14 18:40:24 GMT 51.767578 8.850403 36,000 276 383 0
2022-01-14 18:40:21 GMT 51.767029 8.858989 36,000 276 383 0
2022-01-14 18:40:18 GMT 51.766460 8.869247 36,000 276 383 0
2022-01-14 18:40:15 GMT 51.765530 8.884277 36,000 276 383 0
2022-01-14 18:40:12 GMT 51.765530 8.884277 36,000 276 383 0
2022-01-14 18:40:09 GMT 51.764511 8.901524 36,000 276 383 0
2022-01-14 18:40:06 GMT 51.764511 8.901524 36,000 276 383 0
2022-01-14 18:40:03 GMT 51.764042 8.909454 36,000 276 383 0
2022-01-14 18:40:00 GMT 51.763504 8.918300 36,000 276 383 0
2022-01-14 18:39:57 GMT 51.762863 8.929212 36,000 276 383 0
2022-01-14 18:39:54 GMT 51.762451 8.936116 36,000 276 383 0
2022-01-14 18:39:51 GMT 51.761993 8.944550 36,000 276 383 0
2022-01-14 18:39:48 GMT 51.760986 8.961206 36,000 276 383 0
2022-01-14 18:39:45 GMT 51.760986 8.961206 36,000 276 383 0
2022-01-14 18:39:42 GMT 51.760529 8.969149 36,000 276 382 0
2022-01-14 18:39:39 GMT 51.759979 8.977834 36,000 276 382 0
2022-01-14 18:39:36 GMT 51.759384 8.987781 36,000 276 382 0
2022-01-14 18:39:33 GMT 51.758972 8.995056 36,000 276 382 0
2022-01-14 18:39:30 GMT 51.758560 9.002034 36,000 276 382 0
2022-01-14 18:39:28 GMT 51.758129 9.009094 36,000 276 382 0
2022-01-14 18:39:25 GMT 51.757523 9.019623 36,000 276 382 0
2022-01-14 18:39:22 GMT 51.757187 9.025269 36,000 276 382 0
2022-01-14 18:39:19 GMT 51.756592 9.034844 36,000 276 382 0
2022-01-14 18:39:16 GMT 51.756088 9.043233 36,000 276 382 0
2022-01-14 18:39:13 GMT 51.755569 9.052277 36,000 276 382 0
2022-01-14 18:39:10 GMT 51.755127 9.058896 36,000 276 382 0
2022-01-14 18:39:08 GMT 51.754761 9.065502 36,000 276 382 0
2022-01-14 18:39:05 GMT 51.754074 9.076192 36,000 276 381 0
2022-01-14 18:39:02 GMT 51.753658 9.083252 36,000 276 381 0
2022-01-14 18:38:59 GMT 51.753067 9.092523 36,000 276 381 0
2022-01-14 18:38:56 GMT 51.752426 9.102915 36,000 276 381 0
2022-01-14 18:38:53 GMT 51.752197 9.106775 36,000 276 381 0
2022-01-14 18:38:50 GMT 51.751419 9.119395 36,000 276 381 0
2022-01-14 18:38:47 GMT 51.751099 9.124756 36,000 276 381 0
2022-01-14 18:38:44 GMT 51.749889 9.143906 36,000 276 381 0
2022-01-14 18:38:41 GMT 51.749889 9.143906 36,000 276 381 0
2022-01-14 18:38:38 GMT 51.749329 9.153366 36,000 276 381 0
2022-01-14 18:38:35 GMT 51.748901 9.160074 36,000 276 381 0
2022-01-14 18:38:32 GMT 51.748493 9.166946 36,000 276 381 0
2022-01-14 18:38:29 GMT 51.747986 9.175217 36,000 276 381 0
2022-01-14 18:38:26 GMT 51.747437 9.183828 36,000 276 381 0
2022-01-14 18:38:23 GMT 51.746704 9.195185 36,000 276 381 64
2022-01-14 18:38:20 GMT 51.746349 9.200821 36,000 276 381 64
2022-01-14 18:38:18 GMT 51.745880 9.208473 36,000 276 381 64
2022-01-14 18:38:15 GMT 51.745468 9.215228 36,000 276 381 64
2022-01-14 18:38:12 GMT 51.745056 9.222132 36,000 276 381 64
2022-01-14 18:38:09 GMT 51.744396 9.232559 36,000 276 381 0
2022-01-14 18:38:06 GMT 51.743835 9.241028 36,000 276 381 0
2022-01-14 18:38:03 GMT 51.743362 9.249301 35,975 276 381 0
2022-01-14 18:38:00 GMT 51.742813 9.258134 36,000 276 381 0
2022-01-14 18:37:57 GMT 51.742172 9.268007 36,000 276 381 0
2022-01-14 18:37:54 GMT 51.741554 9.278107 36,000 276 381 0
2022-01-14 18:37:51 GMT 51.741165 9.283893 36,000 276 381 0
2022-01-14 18:37:48 GMT 51.740707 9.291390 36,000 276 381 0
2022-01-14 18:37:45 GMT 51.740067 9.301931 36,000 276 381 0
2022-01-14 18:37:42 GMT 51.739700 9.307721 36,000 276 381 0
2022-01-14 18:37:39 GMT 51.739086 9.317245 36,000 276 381 0
2022-01-14 18:37:36 GMT 51.738483 9.326859 36,000 276 381 0
2022-01-14 18:37:33 GMT 51.737961 9.334593 36,000 276 381 0
2022-01-14 18:37:30 GMT 51.737320 9.345093 36,000 276 381 0
2022-01-14 18:37:27 GMT 51.736908 9.351073 36,000 276 381 0
2022-01-14 18:37:24 GMT 51.736359 9.359906 36,000 276 381 0
2022-01-14 18:37:21 GMT 51.735855 9.367552 36,000 276 381 0
2022-01-14 18:37:18 GMT 51.735271 9.376984 36,000 276 381 0
2022-01-14 18:37:15 GMT 51.734528 9.388962 35,975 276 381 0
2022-01-14 18:37:12 GMT 51.733704 9.401625 36,000 276 381 0
2022-01-14 18:37:09 GMT 51.733704 9.401625 36,000 276 381 0
2022-01-14 18:37:06 GMT 51.733036 9.411850 36,000 276 381 0
2022-01-14 18:37:03 GMT 51.732525 9.419861 36,000 276 381 0
2022-01-14 18:37:00 GMT 51.731361 9.438019 36,000 276 381 0
2022-01-14 18:36:57 GMT 51.731361 9.438019 36,000 276 381 0
2022-01-14 18:36:54 GMT 51.730846 9.445801 36,000 276 381 0
2022-01-14 18:36:51 GMT 51.729687 9.463654 36,000 276 381 0
2022-01-14 18:36:48 GMT 51.729687 9.463654 36,000 276 381 0
2022-01-14 18:36:45 GMT 51.729309 9.469769 36,000 276 381 0
2022-01-14 18:36:42 GMT 51.728806 9.477118 36,000 276 381 0
2022-01-14 18:36:39 GMT 51.728287 9.485626 36,000 276 381 0
2022-01-14 18:36:37 GMT 51.727684 9.495087 36,000 276 381 0
2022-01-14 18:36:34 GMT 51.727203 9.502209 36,000 277 381 0
2022-01-14 18:36:31 GMT 51.726608 9.511562 36,000 277 381 0
2022-01-14 18:36:28 GMT 51.726242 9.517055 36,000 277 381 0
2022-01-14 18:36:25 GMT 51.725681 9.525375 36,000 276 381 0
2022-01-14 18:36:22 GMT 51.724960 9.536578 36,000 277 381 0
2022-01-14 18:36:19 GMT 51.724609 9.542084 36,000 277 381 0
2022-01-14 18:36:17 GMT 51.724274 9.547565 36,000 277 381 0
2022-01-14 18:36:14 GMT 51.723446 9.560013 36,000 277 381 0
2022-01-14 18:36:11 GMT 51.723175 9.564341 36,000 277 381 0
2022-01-14 18:36:08 GMT 51.722469 9.574890 36,000 277 381 0
2022-01-14 18:36:05 GMT 51.721939 9.583047 36,000 277 382 0
2022-01-14 18:36:02 GMT 51.721443 9.590988 36,000 277 382 0
2022-01-14 18:35:59 GMT 51.720978 9.598191 36,000 277 382 0
2022-01-14 18:35:57 GMT 51.720566 9.603981 36,000 277 382 0
2022-01-14 18:35:54 GMT 51.720047 9.612274 36,000 277 382 0
2022-01-14 18:35:51 GMT 51.719490 9.620667 36,000 277 382 0
2022-01-14 18:35:48 GMT 51.718929 9.628906 36,000 277 382 0
2022-01-14 18:35:46 GMT 51.718468 9.636078 36,000 277 382 0
2022-01-14 18:35:43 GMT 51.717907 9.644318 36,025 277 382 0
2022-01-14 18:35:40 GMT 51.717316 9.653568 36,025 277 382 0
2022-01-14 18:35:37 GMT 51.716557 9.664459 36,025 277 382 0
2022-01-14 18:35:34 GMT 51.715580 9.679260 36,000 277 382 0
2022-01-14 18:35:31 GMT 51.715580 9.679260 36,000 277 382 0
2022-01-14 18:35:28 GMT 51.714973 9.688034 36,000 277 382 0
2022-01-14 18:35:25 GMT 51.714508 9.695206 36,000 277 382 0
2022-01-14 18:35:22 GMT 51.713882 9.704491 36,025 277 382 0
2022-01-14 18:35:19 GMT 51.713379 9.712434 36,000 277 382 0
2022-01-14 18:35:16 GMT 51.712830 9.720377 36,000 277 382 0
2022-01-14 18:35:12 GMT 51.711868 9.734332 36,000 277 382 0
2022-01-14 18:35:09 GMT 51.711437 9.741058 36,000 277 382 0
2022-01-14 18:35:07 GMT 51.711044 9.746877 36,000 277 382 0
2022-01-14 18:35:04 GMT 51.710495 9.755266 36,025 277 382 -64
2022-01-14 18:35:01 GMT 51.709442 9.770632 36,025 277 382 -64
2022-01-14 18:34:58 GMT 51.709442 9.770632 36,025 277 382 0
2022-01-14 18:34:55 GMT 51.708271 9.788361 36,025 277 382 0
2022-01-14 18:34:52 GMT 51.708271 9.788361 36,025 277 382 0
2022-01-14 18:34:49 GMT 51.707565 9.798394 36,025 277 382 0
2022-01-14 18:34:46 GMT 51.707016 9.806486 36,025 277 382 0
2022-01-14 18:34:42 GMT 51.706223 9.818268 36,025 277 382 0
2022-01-14 18:34:39 GMT 51.705711 9.825897 36,025 277 383 0
2022-01-14 18:34:36 GMT 51.705002 9.836698 36,025 277 379 0
2022-01-14 18:34:33 GMT 51.704681 9.841152 36,025 277 383 0
2022-01-14 18:34:30 GMT 51.703987 9.851608 36,025 277 383 0
2022-01-14 18:34:27 GMT 51.703629 9.857112 36,025 277 383 0
2022-01-14 18:34:24 GMT 51.702965 9.867172 36,025 277 383 0
2022-01-14 18:34:21 GMT 51.702393 9.875670 36,025 277 383 0
2022-01-14 18:34:18 GMT 51.701248 9.892595 36,025 277 383 0
2022-01-14 18:34:15 GMT 51.701248 9.892595 36,000 277 383 0
2022-01-14 18:34:12 GMT 51.700451 9.904022 36,025 277 383 0
2022-01-14 18:34:09 GMT 51.699657 9.916000 36,000 277 383 0
2022-01-14 18:34:06 GMT 51.699657 9.916000 36,025 277 383 0
2022-01-14 18:34:03 GMT 51.698307 9.935379 36,025 277 383 0
2022-01-14 18:34:00 GMT 51.698307 9.935379 36,000 277 383 0
2022-01-14 18:33:57 GMT 51.697632 9.945522 36,000 277 383 0
2022-01-14 18:33:54 GMT 51.697266 9.951089 36,000 277 383 0
2022-01-14 18:33:51 GMT 51.695892 9.971058 36,000 277 383 0
2022-01-14 18:33:48 GMT 51.695892 9.971058 36,000 277 383 0
2022-01-14 18:33:44 GMT 51.695297 9.979891 36,000 277 383 0
2022-01-14 18:33:41 GMT 51.694675 9.988708 36,000 277 383 0
2022-01-14 18:33:38 GMT 51.693745 10.002213 36,000 277 382 0
2022-01-14 18:33:36 GMT 51.693745 10.002213 36,000 277 383 0
2022-01-14 18:33:33 GMT 51.692955 10.013504 36,000 277 383 0
2022-01-14 18:33:30 GMT 51.692368 10.022352 36,000 277 382 0
2022-01-14 18:33:27 GMT 51.691772 10.030963 36,000 277 382 0
2022-01-14 18:33:24 GMT 51.691372 10.036240 36,000 277 382 0
2022-01-14 18:33:21 GMT 51.690628 10.046997 36,000 277 382 0
2022-01-14 18:33:18 GMT 51.690022 10.056076 36,000 277 382 0
2022-01-14 18:33:15 GMT 51.689697 10.060501 36,000 277 382 0
2022-01-14 18:33:12 GMT 51.688999 10.070572 36,000 277 382 0
2022-01-14 18:33:09 GMT 51.687786 10.087967 36,000 277 382 0
2022-01-14 18:33:06 GMT 51.687786 10.087967 36,000 277 382 0
2022-01-14 18:33:03 GMT 51.687088 10.097885 36,000 277 382 0
2022-01-14 18:33:00 GMT 51.686646 10.104378 36,000 277 382 0
2022-01-14 18:32:57 GMT 51.686050 10.112321 36,000 277 382 0
2022-01-14 18:32:54 GMT 51.685364 10.122491 36,000 277 382 0
2022-01-14 18:32:51 GMT 51.684856 10.129547 36,000 277 381 0
2022-01-14 18:32:48 GMT 51.684158 10.139160 36,000 277 382 0
2022-01-14 18:32:45 GMT 51.682899 10.157013 36,000 277 382 0
2022-01-14 18:32:42 GMT 51.682899 10.157013 35,975 277 382 0
2022-01-14 18:32:39 GMT 51.682343 10.165024 36,000 277 382 0
2022-01-14 18:32:36 GMT 51.681873 10.171280 36,000 277 382 0
2022-01-14 18:32:33 GMT 51.681362 10.178757 35,975 277 382 0
2022-01-14 18:32:30 GMT 51.680477 10.191422 35,975 277 381 0
2022-01-14 18:32:27 GMT 51.679962 10.198801 35,975 277 381 0
2022-01-14 18:32:24 GMT 51.679367 10.206967 35,975 277 380 0
2022-01-14 18:32:21 GMT 51.678661 10.216904 35,975 277 381 0
2022-01-14 18:32:18 GMT 51.678246 10.222931 35,975 277 381 0
2022-01-14 18:32:15 GMT 51.677536 10.233319 35,975 277 381 0
2022-01-14 18:32:12 GMT 51.676941 10.241411 35,975 277 381 0
2022-01-14 18:32:09 GMT 51.676483 10.248017 35,975 277 380 0
2022-01-14 18:32:06 GMT 51.675266 10.265198 35,975 277 380 0
2022-01-14 18:32:03 GMT 51.675266 10.265198 35,975 277 380 0
2022-01-14 18:32:00 GMT 51.674660 10.273819 35,975 277 380 0
2022-01-14 18:31:57 GMT 51.673965 10.283277 35,975 277 380 0
2022-01-14 18:31:54 GMT 51.673416 10.290626 35,975 277 380 0
2022-01-14 18:31:51 GMT 51.672890 10.298538 36,000 277 379 0
2022-01-14 18:31:48 GMT 51.672287 10.306625 36,000 277 380 0
2022-01-14 18:31:45 GMT 51.671539 10.316904 35,975 277 379 0
2022-01-14 18:31:42 GMT 51.671036 10.324253 35,975 277 379 0
2022-01-14 18:31:39 GMT 51.670349 10.333384 35,975 277 379 0
2022-01-14 18:31:36 GMT 51.669800 10.341104 36,000 277 379 -64
2022-01-14 18:31:33 GMT 51.669212 10.349121 36,000 277 379 -64
2022-01-14 18:31:30 GMT 51.667831 10.367976 36,000 277 379 0
2022-01-14 18:31:26 GMT 51.667831 10.367976 36,000 277 379 0
2022-01-14 18:31:23 GMT 51.667164 10.377121 36,000 277 379 -64
2022-01-14 18:31:20 GMT 51.666466 10.386581 36,000 277 379 -64
2022-01-14 18:31:17 GMT 51.665859 10.394897 36,000 277 379 0
2022-01-14 18:31:14 GMT 51.665257 10.403442 36,000 277 379 0
2022-01-14 18:31:11 GMT 51.664650 10.411835 36,000 277 379 0
2022-01-14 18:31:08 GMT 51.663395 10.428848 36,000 277 379 0
2022-01-14 18:31:05 GMT 51.663395 10.428848 36,000 277 379 0
2022-01-14 18:31:02 GMT 51.662834 10.437088 36,000 277 379 0
2022-01-14 18:30:59 GMT 51.662323 10.443573 36,000 277 379 0
2022-01-14 18:30:56 GMT 51.661716 10.452499 36,000 277 379 0
2022-01-14 18:30:53 GMT 51.661148 10.460395 36,025 277 380 0
2022-01-14 18:30:50 GMT 51.660461 10.469513 36,000 277 379 0
2022-01-14 18:30:47 GMT 51.659855 10.478058 36,000 277 379 0
2022-01-14 18:30:44 GMT 51.659252 10.486221 36,000 277 379 0
2022-01-14 18:30:41 GMT 51.657948 10.504303 36,025 277 379 0
2022-01-14 18:30:38 GMT 51.657948 10.504303 36,000 277 379 0
2022-01-14 18:30:34 GMT 51.657158 10.514908 36,000 277 379 0
2022-01-14 18:30:31 GMT 51.656551 10.523300 36,000 277 379 0
2022-01-14 18:30:28 GMT 51.655884 10.532326 36,000 277 379 0
2022-01-14 18:30:25 GMT 51.655434 10.537796 36,000 277 380 0
2022-01-14 18:30:22 GMT 51.654503 10.550842 36,025 277 379 0
2022-01-14 18:30:19 GMT 51.653915 10.558678 36,025 277 380 0
2022-01-14 18:30:16 GMT 51.653385 10.565262 36,000 277 380 0
2022-01-14 18:30:13 GMT 51.652687 10.574951 36,025 277 380 0
2022-01-14 18:30:10 GMT 51.651989 10.583801 36,025 277 380 0
2022-01-14 18:30:07 GMT 51.651478 10.590897 36,025 277 380 0
2022-01-14 18:30:03 GMT 51.650730 10.600586 36,025 277 380 0
2022-01-14 18:30:00 GMT 51.650173 10.608139 36,025 277 380 0
2022-01-14 18:29:57 GMT 51.649338 10.619474 36,025 277 380 0
2022-01-14 18:29:54 GMT 51.648880 10.625190 36,025 277 380 0
2022-01-14 18:29:51 GMT 51.647518 10.643158 36,025 277 380 0
2022-01-14 18:29:48 GMT 51.647518 10.643158 36,025 277 381 0
2022-01-14 18:29:45 GMT 51.646633 10.655212 36,025 277 381 0
2022-01-14 18:29:42 GMT 51.646217 10.660477 36,025 277 381 0
2022-01-14 18:29:39 GMT 51.645519 10.669861 36,025 277 381 0
2022-01-14 18:29:36 GMT 51.644867 10.678787 36,025 277 381 0
2022-01-14 18:29:33 GMT 51.644402 10.684891 36,025 277 381 0
2022-01-14 18:29:30 GMT 51.643051 10.703125 36,000 277 381 0
2022-01-14 18:29:27 GMT 51.643051 10.703125 36,000 277 381 0
2022-01-14 18:29:24 GMT 51.642307 10.712814 36,000 277 381 0
2022-01-14 18:29:21 GMT 51.641701 10.720749 36,000 277 380 0
2022-01-14 18:29:18 GMT 51.640961 10.730748 36,000 278 380 0
2022-01-14 18:29:15 GMT 51.640491 10.736694 36,000 277 380 0
2022-01-14 18:29:12 GMT 51.639885 10.744476 36,000 277 380 0
2022-01-14 18:29:09 GMT 51.639233 10.753174 36,000 278 380 0
2022-01-14 18:29:06 GMT 51.638489 10.762634 36,000 278 380 0
2022-01-14 18:29:03 GMT 51.637894 10.770759 36,000 278 380 0
2022-01-14 18:28:59 GMT 51.637024 10.781893 36,000 278 380 0
2022-01-14 18:28:56 GMT 51.636429 10.789688 36,000 278 380 0
2022-01-14 18:28:53 GMT 51.635880 10.796814 36,000 278 380 0
2022-01-14 18:28:50 GMT 51.635147 10.806241 36,000 278 380 0
2022-01-14 18:28:47 GMT 51.634277 10.817450 36,000 278 380 0
2022-01-14 18:28:44 GMT 51.633835 10.823593 36,000 278 380 0
2022-01-14 18:28:40 GMT 51.632217 10.844100 36,000 278 380 0
2022-01-14 18:28:37 GMT 51.632217 10.844100 36,000 277 379 0
2022-01-14 18:28:34 GMT 51.631668 10.851003 36,000 278 380 0
2022-01-14 18:28:30 GMT 51.630573 10.865097 36,000 278 380 0
2022-01-14 18:28:27 GMT 51.629925 10.873718 36,000 278 380 0
2022-01-14 18:28:24 GMT 51.629505 10.879059 36,000 278 380 0
2022-01-14 18:28:21 GMT 51.628853 10.886917 36,000 278 380 0
2022-01-14 18:28:18 GMT 51.628059 10.897522 36,000 278 380 0
2022-01-14 18:28:15 GMT 51.627365 10.906380 36,000 278 379 0
2022-01-14 18:28:12 GMT 51.626724 10.914472 36,025 277 379 0
2022-01-14 18:28:09 GMT 51.626312 10.920262 36,000 277 379 -64
2022-01-14 18:28:06 GMT 51.625580 10.929615 36,000 277 379 0
2022-01-14 18:28:02 GMT 51.624847 10.939191 36,000 277 379 0
2022-01-14 18:27:59 GMT 51.624207 10.947802 36,000 277 379 0
2022-01-14 18:27:56 GMT 51.622803 10.966187 36,025 277 378 0
2022-01-14 18:27:53 GMT 51.622803 10.966187 36,025 278 378 0
2022-01-14 18:27:48 GMT 51.621689 10.980761 36,025 277 378 0
2022-01-14 18:27:45 GMT 51.620892 10.990677 36,025 277 378 0
2022-01-14 18:27:42 GMT 51.620522 10.995941 36,000 277 378 0
2022-01-14 18:27:39 GMT 51.619171 11.013260 36,025 277 378 0
2022-01-14 18:27:36 GMT 51.619171 11.013260 36,025 277 378 0
2022-01-14 18:27:33 GMT 51.618576 11.020994 36,025 277 378 0
2022-01-14 18:27:30 GMT 51.617821 11.031189 36,025 277 378 0
2022-01-14 18:27:27 GMT 51.616470 11.048508 36,025 277 378 0
2022-01-14 18:27:24 GMT 51.616470 11.048508 36,025 277 378 0
2022-01-14 18:27:21 GMT 51.616104 11.053137 36,025 278 378 0
2022-01-14 18:27:18 GMT 51.615257 11.064148 36,025 278 378 0
2022-01-14 18:27:14 GMT 51.614502 11.073922 36,025 278 378 0
2022-01-14 18:27:11 GMT 51.613815 11.082916 36,000 278 378 0
2022-01-14 18:27:08 GMT 51.612560 11.099243 36,000 278 378 0
2022-01-14 18:27:05 GMT 51.612560 11.099243 36,000 278 378 0
2022-01-14 18:27:02 GMT 51.611893 11.107697 36,000 278 378 0
2022-01-14 18:26:58 GMT 51.610931 11.119871 36,000 278 378 0
2022-01-14 18:26:55 GMT 51.610138 11.129761 36,000 278 378 0
2022-01-14 18:26:52 GMT 51.609486 11.138077 36,000 278 378 0
2022-01-14 18:26:49 GMT 51.609116 11.142807 36,000 278 378 0
2022-01-14 18:26:46 GMT 51.608276 11.152979 36,000 278 378 0
2022-01-14 18:26:43 GMT 51.607437 11.163254 36,000 278 378 0
2022-01-14 18:26:39 GMT 51.606789 11.171722 36,000 278 378 0
2022-01-14 18:26:36 GMT 51.606125 11.179999 36,000 278 378 0
2022-01-14 18:26:33 GMT 51.605251 11.191177 36,000 278 378 0
2022-01-14 18:26:29 GMT 51.604523 11.199968 36,000 278 377 0
2022-01-14 18:26:26 GMT 51.603901 11.207657 36,000 278 377 0
2022-01-14 18:26:23 GMT 51.603203 11.216354 36,000 278 374 0
2022-01-14 18:26:20 GMT 51.602409 11.226501 36,000 278 374 0
2022-01-14 18:26:17 GMT 51.601852 11.233521 36,000 278 377 0
2022-01-14 18:26:14 GMT 51.601341 11.240234 36,000 278 377 0
2022-01-14 18:26:11 GMT 51.600632 11.248738 36,000 278 377 0
2022-01-14 18:26:08 GMT 51.599850 11.258926 36,000 278 377 0
2022-01-14 18:26:04 GMT 51.599030 11.268781 36,000 278 376 0
2022-01-14 18:26:01 GMT 51.598312 11.277618 36,000 278 376 0
2022-01-14 18:25:58 GMT 51.597702 11.285557 36,000 278 376 0
2022-01-14 18:25:55 GMT 51.597015 11.293945 36,000 278 376 0
2022-01-14 18:25:52 GMT 51.596218 11.304016 36,000 278 375 0
2022-01-14 18:25:49 GMT 51.595367 11.314582 36,000 278 376 0
2022-01-14 18:25:46 GMT 51.594910 11.320223 36,000 278 376 0
2022-01-14 18:25:43 GMT 51.594360 11.327127 36,000 278 376 0
2022-01-14 18:25:40 GMT 51.593704 11.334915 36,000 278 376 0
2022-01-14 18:25:37 GMT 51.592960 11.344223 36,000 278 376 0
2022-01-14 18:25:34 GMT 51.592255 11.352960 36,000 278 376 0
2022-01-14 18:25:31 GMT 51.591705 11.359789 36,000 278 376 0
2022-01-14 18:25:28 GMT 51.591019 11.368177 36,000 278 376 0
2022-01-14 18:25:25 GMT 51.590149 11.378867 36,000 278 375 0
2022-01-14 18:25:22 GMT 51.589462 11.387478 36,000 278 376 0
2022-01-14 18:25:19 GMT 51.588959 11.393268 36,000 278 374 0
2022-01-14 18:25:16 GMT 51.588352 11.400909 36,000 278 376 0
2022-01-14 18:25:13 GMT 51.587585 11.410564 36,000 278 376 0
2022-01-14 18:25:10 GMT 51.586815 11.419907 36,000 278 376 0
2022-01-14 18:25:07 GMT 51.586258 11.426697 36,000 278 375 0
2022-01-14 18:25:04 GMT 51.585464 11.436005 36,000 278 375 0
2022-01-14 18:25:01 GMT 51.584721 11.445389 36,000 278 375 0
2022-01-14 18:24:57 GMT 51.583694 11.457701 36,000 278 375 0
2022-01-14 18:24:53 GMT 51.582870 11.467945 36,000 278 375 0
2022-01-14 18:24:50 GMT 51.582485 11.472549 36,000 278 375 0
2022-01-14 18:24:47 GMT 51.581726 11.481975 36,000 278 375 0
2022-01-14 18:24:44 GMT 51.580902 11.491699 36,000 278 375 0
2022-01-14 18:24:40 GMT 51.580158 11.501007 36,000 278 375 0
2022-01-14 18:24:37 GMT 51.579437 11.509515 36,000 278 375 0
2022-01-14 18:24:34 GMT 51.578110 11.525697 36,000 278 375 0
2022-01-14 18:24:31 GMT 51.578110 11.525697 36,000 278 375 0
2022-01-14 18:24:28 GMT 51.577469 11.533789 36,000 278 375 64
2022-01-14 18:24:25 GMT 51.576645 11.543736 36,000 278 375 64
2022-01-14 18:24:22 GMT 51.575775 11.553831 36,000 278 375 64
2022-01-14 18:24:19 GMT 51.575409 11.558360 35,975 278 374 0
2022-01-14 18:24:16 GMT 51.574860 11.565263 36,000 278 374 0
2022-01-14 18:24:13 GMT 51.573944 11.576175 35,975 278 374 0
2022-01-14 18:24:10 GMT 51.573486 11.581743 36,000 278 374 0
2022-01-14 18:24:07 GMT 51.572525 11.593094 35,975 278 374 0
2022-01-14 18:24:04 GMT 51.571289 11.607724 36,000 278 374 0
2022-01-14 18:24:01 GMT 51.571289 11.607724 35,975 278 374 0
2022-01-14 18:23:58 GMT 51.569641 11.627544 36,000 278 373 0
2022-01-14 18:23:55 GMT 51.569641 11.627544 36,000 278 374 0
2022-01-14 18:23:52 GMT 51.569046 11.635041 36,000 278 374 0
2022-01-14 18:23:49 GMT 51.568588 11.640460 36,000 278 372 -64
2022-01-14 18:23:46 GMT 51.567730 11.650238 36,000 278 373 0
2022-01-14 18:23:43 GMT 51.566936 11.659698 35,975 278 373 0
2022-01-14 18:23:40 GMT 51.566566 11.664429 35,975 278 373 0
2022-01-14 18:23:37 GMT 51.565750 11.674310 35,975 278 373 0
2022-01-14 18:23:34 GMT 51.564972 11.683515 36,000 278 373 0
2022-01-14 18:23:31 GMT 51.564423 11.689911 35,975 278 373 0
2022-01-14 18:23:28 GMT 51.563400 11.701813 35,975 278 373 0
2022-01-14 18:23:25 GMT 51.562912 11.707566 35,975 278 373 0
2022-01-14 18:23:22 GMT 51.562191 11.716080 36,000 278 373 0
2022-01-14 18:23:19 GMT 51.561584 11.723451 35,975 278 373 0
2022-01-14 18:23:16 GMT 51.560898 11.731617 35,975 278 373 0
2022-01-14 18:23:13 GMT 51.560120 11.740525 35,975 278 373 0
2022-01-14 18:23:10 GMT 51.559479 11.748096 36,000 278 373 0
2022-01-14 18:23:07 GMT 51.558697 11.757736 36,000 278 372 -64
2022-01-14 18:23:04 GMT 51.557861 11.767349 36,000 278 372 -64
2022-01-14 18:23:01 GMT 51.557465 11.772148 36,000 278 372 0
2022-01-14 18:22:58 GMT 51.556641 11.781723 36,000 278 372 -64
2022-01-14 18:22:55 GMT 51.555950 11.790009 36,000 278 372 -64
2022-01-14 18:22:52 GMT 51.555222 11.798203 36,000 278 372 -64
2022-01-14 18:22:49 GMT 51.554581 11.805923 36,000 278 372 -64
2022-01-14 18:22:46 GMT 51.553810 11.814728 36,000 278 372 -64
2022-01-14 18:22:43 GMT 51.553116 11.822625 36,000 278 372 -64
2022-01-14 18:22:40 GMT 51.552414 11.831207 36,000 278 372 -64
2022-01-14 18:22:37 GMT 51.551620 11.840439 36,000 278 372 -64
2022-01-14 18:22:34 GMT 51.551056 11.846676 36,025 278 372 -64
2022-01-14 18:22:31 GMT 51.550365 11.854935 36,025 278 372 -64
2022-01-14 18:22:28 GMT 51.549622 11.863480 36,025 278 372 -64
2022-01-14 18:22:25 GMT 51.548923 11.872025 36,025 278 372 0
2022-01-14 18:22:22 GMT 51.548355 11.878819 36,025 278 372 0
2022-01-14 18:22:19 GMT 51.547665 11.886902 36,025 278 372 0
2022-01-14 18:22:16 GMT 51.546082 11.904984 36,025 278 372 0
2022-01-14 18:22:13 GMT 51.546082 11.904984 36,025 278 372 0
2022-01-14 18:22:10 GMT 51.545525 11.911850 36,025 278 372 0
2022-01-14 18:22:07 GMT 51.544827 11.920013 36,025 278 372 0
2022-01-14 18:22:04 GMT 51.544006 11.929742 36,025 278 372 0
2022-01-14 18:22:01 GMT 51.543243 11.938248 36,025 278 372 0
2022-01-14 18:21:58 GMT 51.542778 11.943970 36,025 278 372 0
2022-01-14 18:21:53 GMT 51.541519 11.958389 36,025 278 373 0
2022-01-14 18:21:50 GMT 51.540730 11.967163 36,025 279 372 0
2022-01-14 18:21:47 GMT 51.539799 11.977844 36,025 278 373 0
2022-01-14 18:21:43 GMT 51.538971 11.987494 36,025 278 373 64
2022-01-14 18:21:40 GMT 51.537750 12.001724 36,025 278 373 0
2022-01-14 18:21:37 GMT 51.537750 12.001724 36,025 278 373 64
2022-01-14 18:21:34 GMT 51.537006 12.010040 36,025 278 373 64
2022-01-14 18:21:31 GMT 51.536308 12.018204 36,000 278 373 0
2022-01-14 18:21:28 GMT 51.535446 12.028099 36,000 278 373 0
2022-01-14 18:21:25 GMT 51.534725 12.036438 36,000 278 373 0
2022-01-14 18:21:22 GMT 51.533249 12.053561 36,000 278 373 0
2022-01-14 18:21:19 GMT 51.533249 12.053561 36,000 278 373 0
2022-01-14 18:21:15 GMT 51.531605 12.072449 36,000 278 373 0
2022-01-14 18:21:12 GMT 51.531605 12.072449 36,000 278 373 0
2022-01-14 18:21:09 GMT 51.530952 12.079697 36,000 278 373 0
2022-01-14 18:21:06 GMT 51.530067 12.089615 36,000 278 373 0
2022-01-14 18:21:03 GMT 51.529633 12.094685 36,000 278 373 0
2022-01-14 18:21:00 GMT 51.528721 12.105560 36,000 279 372 0
2022-01-14 18:20:57 GMT 51.528168 12.111388 36,000 278 373 0
2022-01-14 18:20:54 GMT 51.527462 12.119904 36,025 278 373 -64
2022-01-14 18:20:51 GMT 51.525925 12.137451 36,025 278 373 0
2022-01-14 18:20:48 GMT 51.525925 12.137451 36,025 278 373 0
2022-01-14 18:20:45 GMT 51.525272 12.144547 36,025 278 373 0
2022-01-14 18:20:42 GMT 51.524506 12.153180 36,025 278 373 0
2022-01-14 18:20:39 GMT 51.523876 12.160416 36,025 278 373 0
2022-01-14 18:20:36 GMT 51.523224 12.168121 36,025 278 373 0
2022-01-14 18:20:33 GMT 51.522293 12.178345 36,025 278 373 0
2022-01-14 18:20:30 GMT 51.521690 12.185287 36,025 278 373 64
2022-01-14 18:20:27 GMT 51.520844 12.195121 36,025 278 373 0
2022-01-14 18:20:24 GMT 51.520294 12.201462 36,025 278 373 0
2022-01-14 18:20:21 GMT 51.519455 12.210999 36,025 278 373 64
2022-01-14 18:20:18 GMT 51.518803 12.218094 36,025 278 373 64
2022-01-14 18:20:15 GMT 51.517136 12.237211 36,025 278 373 64
2022-01-14 18:20:12 GMT 51.516769 12.241442 36,000 279 373 64
2022-01-14 18:20:09 GMT 51.516769 12.241442 36,000 279 373 64
2022-01-14 18:20:06 GMT 51.515823 12.251740 36,000 279 373 64
2022-01-14 18:20:03 GMT 51.515213 12.258961 36,000 279 373 64
2022-01-14 18:20:00 GMT 51.514526 12.266607 36,000 279 373 64
2022-01-14 18:19:57 GMT 51.512844 12.285004 35,975 279 372 0
2022-01-14 18:19:54 GMT 51.512844 12.285004 36,000 279 373 64
2022-01-14 18:19:50 GMT 51.511913 12.295761 36,000 279 373 64
2022-01-14 18:19:47 GMT 51.511215 12.303696 36,000 279 373 64
2022-01-14 18:19:44 GMT 51.510452 12.311814 36,000 279 373 64
2022-01-14 18:19:41 GMT 51.509724 12.320023 35,975 279 372 64
2022-01-14 18:19:39 GMT 51.509262 12.325472 35,975 279 372 64
2022-01-14 18:19:36 GMT 51.508327 12.335663 35,975 279 372 64
2022-01-14 18:19:33 GMT 51.507816 12.341156 35,975 279 372 0
2022-01-14 18:19:30 GMT 51.506187 12.359390 35,975 279 372 64
2022-01-14 18:19:27 GMT 51.506187 12.359390 35,975 279 372 0
2022-01-14 18:19:23 GMT 51.505325 12.368824 35,975 279 372 0
2022-01-14 18:19:20 GMT 51.504513 12.378006 35,975 279 371 0
2022-01-14 18:19:17 GMT 51.504044 12.383448 35,975 279 371 0
2022-01-14 18:19:14 GMT 51.503265 12.391984 35,975 279 371 0
2022-01-14 18:19:11 GMT 51.502487 12.400372 35,950 279 371 0
2022-01-14 18:19:09 GMT 51.501801 12.408167 35,950 279 369 0
2022-01-14 18:19:06 GMT 51.501205 12.414848 35,950 279 369 0
2022-01-14 18:19:03 GMT 51.500336 12.424275 35,950 279 370 64
2022-01-14 18:19:00 GMT 51.499786 12.430214 35,950 279 370 0
2022-01-14 18:18:58 GMT 51.498878 12.440033 35,950 279 369 64
2022-01-14 18:18:55 GMT 51.498276 12.446767 35,950 279 369 0
2022-01-14 18:18:51 GMT 51.496784 12.463226 35,950 279 369 0
2022-01-14 18:18:49 GMT 51.496784 12.463226 35,950 279 369 0
2022-01-14 18:18:46 GMT 51.495201 12.480240 35,950 279 369 0
2022-01-14 18:18:43 GMT 51.495201 12.480240 35,950 279 369 0
2022-01-14 18:18:40 GMT 51.493698 12.496577 36,000 279 367 -64
2022-01-14 18:18:37 GMT 51.493698 12.496577 35,950 279 368 0
2022-01-14 18:18:34 GMT 51.493107 12.502975 35,950 279 368 0
2022-01-14 18:18:31 GMT 51.492455 12.509842 35,950 279 368 0
2022-01-14 18:18:29 GMT 51.491821 12.516991 35,950 279 368 0
2022-01-14 18:18:26 GMT 51.491150 12.524109 35,950 279 368 0
2022-01-14 18:18:23 GMT 51.490494 12.531169 35,950 279 367 0
2022-01-14 18:18:20 GMT 51.489616 12.540817 35,950 279 367 0
2022-01-14 18:18:17 GMT 51.488125 12.556915 35,950 279 367 0
2022-01-14 18:18:14 GMT 51.488125 12.556915 35,950 279 367 -64
2022-01-14 18:18:10 GMT 51.487289 12.565984 36,025 279 371 0
2022-01-14 18:18:07 GMT 51.486355 12.575684 35,950 279 367 -64
2022-01-14 18:18:04 GMT 51.485733 12.582835 35,975 279 367 -64
2022-01-14 18:18:01 GMT 51.485046 12.590109 35,975 279 367 -64
2022-01-14 18:17:59 GMT 51.484352 12.597580 35,975 279 367 -64
2022-01-14 18:17:56 GMT 51.483749 12.604141 35,975 279 367 -64
2022-01-14 18:17:53 GMT 51.483006 12.612305 35,975 279 367 -64
2022-01-14 18:17:50 GMT 51.482121 12.621841 35,975 279 367 -64
2022-01-14 18:17:47 GMT 51.481514 12.628174 35,975 279 367 -128
2022-01-14 18:17:44 GMT 51.480492 12.639694 36,000 279 367 -64
2022-01-14 18:17:41 GMT 51.479828 12.646748 36,000 279 367 -64
2022-01-14 18:17:37 GMT 51.478909 12.656784 36,000 279 367 -64
2022-01-14 18:17:34 GMT 51.478348 12.662659 36,000 279 367 -64
2022-01-14 18:17:31 GMT 51.477448 12.672358 36,000 279 367 -64
2022-01-14 18:17:28 GMT 51.476860 12.678757 36,000 279 367 -64
2022-01-14 18:17:25 GMT 51.476067 12.687149 36,000 279 367 -64
2022-01-14 18:17:22 GMT 51.475323 12.695236 36,000 279 367 -64
2022-01-14 18:17:19 GMT 51.474300 12.706223 36,025 279 367 -64
2022-01-14 18:17:16 GMT 51.473831 12.711256 36,025 279 367 -64
2022-01-14 18:17:13 GMT 51.472996 12.720261 36,025 279 367 -64
2022-01-14 18:17:10 GMT 51.472157 12.729340 36,025 279 368 -64
2022-01-14 18:17:07 GMT 51.471413 12.736969 36,025 279 368 -64
2022-01-14 18:17:04 GMT 51.470806 12.743835 36,025 279 368 -64
2022-01-14 18:17:01 GMT 51.469940 12.752974 36,025 279 368 -64
2022-01-14 18:16:59 GMT 51.469208 12.760694 36,025 279 368 -64
2022-01-14 18:16:56 GMT 51.468575 12.767563 36,025 279 370 -64
2022-01-14 18:16:53 GMT 51.467876 12.775192 36,050 279 370 -64
2022-01-14 18:16:50 GMT 51.467129 12.783356 36,025 279 370 0
2022-01-14 18:16:47 GMT 51.466461 12.790313 36,025 279 370 0
2022-01-14 18:16:44 GMT 51.465733 12.798309 36,025 279 371 0
2022-01-14 18:16:40 GMT 51.464802 12.808075 36,025 279 370 0
2022-01-14 18:16:37 GMT 51.463779 12.818985 36,025 279 371 0
2022-01-14 18:16:33 GMT 51.462799 12.829507 36,025 279 371 0
2022-01-14 18:16:30 GMT 51.462242 12.835464 36,025 279 371 0
2022-01-14 18:16:27 GMT 51.461197 12.846284 36,025 279 372 0
2022-01-14 18:16:24 GMT 51.460693 12.851628 36,025 279 372 0
2022-01-14 18:16:22 GMT 51.459263 12.866745 36,025 279 372 0
2022-01-14 18:16:19 GMT 51.459263 12.866745 36,025 279 372 0
2022-01-14 18:16:16 GMT 51.458565 12.874069 36,000 279 373 0
2022-01-14 18:16:13 GMT 51.457764 12.882509 36,025 279 372 0
2022-01-14 18:16:10 GMT 51.456097 12.900009 36,025 279 372 0
2022-01-14 18:16:07 GMT 51.456097 12.900009 36,000 279 373 0
2022-01-14 18:16:04 GMT 51.455612 12.905372 36,025 279 373 0
2022-01-14 18:16:01 GMT 51.454559 12.916136 36,025 279 373 64
2022-01-14 18:15:58 GMT 51.453918 12.922965 36,025 279 373 64
2022-01-14 18:15:55 GMT 51.453026 12.932129 36,025 279 374 0
2022-01-14 18:15:52 GMT 51.452271 12.940187 36,025 279 373 64
2022-01-14 18:15:49 GMT 51.451630 12.946645 36,000 279 374 64
2022-01-14 18:15:46 GMT 51.450603 12.957535 36,000 279 374 64
2022-01-14 18:15:43 GMT 51.449753 12.966391 36,000 279 374 0
2022-01-14 18:15:40 GMT 51.448929 12.974779 36,000 279 374 0
2022-01-14 18:15:37 GMT 51.448368 12.980652 36,000 279 375 0
2022-01-14 18:15:33 GMT 51.447533 12.989731 36,000 279 375 0
2022-01-14 18:15:30 GMT 51.446507 13.000565 36,000 279 375 0
2022-01-14 18:15:27 GMT 51.445621 13.009796 36,000 279 375 0
2022-01-14 18:15:23 GMT 51.443985 13.027261 36,000 279 375 0
2022-01-14 18:15:20 GMT 51.443108 13.036346 36,000 279 375 0
2022-01-14 18:15:17 GMT 51.443108 13.036346 36,000 279 374 0
2022-01-14 18:15:14 GMT 51.442291 13.045003 36,000 279 374 0
2022-01-14 18:15:10 GMT 51.441246 13.055725 36,000 279 374 0
2022-01-14 18:15:07 GMT 51.440502 13.063431 36,000 279 374 0
2022-01-14 18:15:04 GMT 51.439636 13.072023 36,000 280 374 0
2022-01-14 18:15:01 GMT 51.438812 13.080189 36,000 280 374 0
2022-01-14 18:14:58 GMT 51.438221 13.086166 36,000 280 374 0
2022-01-14 18:14:55 GMT 51.437439 13.094218 36,000 280 374 0
2022-01-14 18:14:52 GMT 51.436684 13.101501 36,000 280 373 0
2022-01-14 18:14:50 GMT 51.435928 13.109065 36,000 280 373 0
2022-01-14 18:14:48 GMT 51.435570 13.112946 36,000 280 373 0
2022-01-14 18:14:45 GMT 51.434326 13.125322 36,000 280 373 0
2022-01-14 18:14:42 GMT 51.433502 13.133116 36,000 280 373 0
2022-01-14 18:14:39 GMT 51.432678 13.141282 36,000 280 373 0
2022-01-14 18:14:36 GMT 51.431751 13.150482 36,000 280 373 0
2022-01-14 18:14:33 GMT 51.431305 13.155089 36,000 280 373 0
2022-01-14 18:14:29 GMT 51.430023 13.167782 36,000 279 373 0
2022-01-14 18:14:26 GMT 51.429096 13.177032 36,000 279 373 0
2022-01-14 18:14:23 GMT 51.428585 13.182602 36,000 279 373 0
2022-01-14 18:14:19 GMT 51.427608 13.192673 36,000 279 373 0
2022-01-14 18:14:16 GMT 51.426769 13.200989 36,000 279 373 0
2022-01-14 18:14:13 GMT 51.426041 13.208981 36,000 278 373 0
2022-01-14 18:14:11 GMT 51.425327 13.216705 36,000 279 372 0
2022-01-14 18:14:08 GMT 51.424675 13.223724 36,000 278 373 0
2022-01-14 18:14:05 GMT 51.424023 13.230820 36,000 278 373 0
2022-01-14 18:14:02 GMT 51.423386 13.238451 36,000 278 373 0
2022-01-14 18:13:59 GMT 51.422516 13.248472 36,000 278 373 0
2022-01-14 18:13:57 GMT 51.422150 13.252481 36,000 278 373 0
2022-01-14 18:13:54 GMT 51.420731 13.269480 36,000 278 373 0
2022-01-14 18:13:51 GMT 51.419815 13.280318 36,000 278 373 0
2022-01-14 18:13:48 GMT 51.419815 13.280318 36,000 278 373 0
2022-01-14 18:13:45 GMT 51.419182 13.287506 36,000 278 373 0
2022-01-14 18:13:42 GMT 51.418579 13.294719 36,000 278 373 0
2022-01-14 18:13:39 GMT 51.417690 13.305359 36,000 278 373 0
2022-01-14 18:13:36 GMT 51.416977 13.313797 36,000 278 373 0
2022-01-14 18:13:33 GMT 51.416382 13.320552 36,000 278 373 0
2022-01-14 18:13:31 GMT 51.416294 13.321991 36,000 278 373 0
2022-01-14 18:13:28 GMT 51.415100 13.335769 36,000 278 373 0
2022-01-14 18:13:25 GMT 51.414780 13.339704 36,025 278 373 0
2022-01-14 18:13:22 GMT 51.413830 13.350906 36,000 278 373 0
2022-01-14 18:13:19 GMT 51.413269 13.357544 36,025 278 373 0
2022-01-14 18:13:16 GMT 51.412479 13.367004 36,000 278 373 64
2022-01-14 18:13:13 GMT 51.411686 13.376465 36,000 278 373 64
2022-01-14 18:13:10 GMT 51.411255 13.381496 36,000 278 373 64
2022-01-14 18:13:08 GMT 51.410755 13.387299 36,000 278 373 64
2022-01-14 18:13:05 GMT 51.409916 13.396606 36,000 278 373 64
2022-01-14 18:13:02 GMT 51.409470 13.402281 36,000 278 373 0
2022-01-14 18:12:59 GMT 51.408600 13.412228 36,000 278 373 0
2022-01-14 18:12:56 GMT 51.408009 13.418961 36,000 278 373 0
2022-01-14 18:12:53 GMT 51.407043 13.430267 36,000 278 373 64
2022-01-14 18:12:50 GMT 51.406448 13.436873 36,000 278 373 64
2022-01-14 18:12:48 GMT 51.406036 13.441995 36,000 278 373 0
2022-01-14 18:12:45 GMT 51.405170 13.451996 36,000 278 373 0
2022-01-14 18:12:42 GMT 51.404564 13.459015 36,000 278 373 0
2022-01-14 18:12:39 GMT 51.403866 13.466797 36,000 278 373 0
2022-01-14 18:12:36 GMT 51.403244 13.473915 36,000 278 373 0
2022-01-14 18:12:33 GMT 51.402466 13.483194 36,000 278 373 0
2022-01-14 18:12:30 GMT 51.401779 13.491137 36,000 278 373 0
2022-01-14 18:12:26 GMT 51.400558 13.505173 36,000 278 373 0
2022-01-14 18:12:23 GMT 51.399948 13.512070 35,975 279 370 0
2022-01-14 18:12:20 GMT 51.399349 13.519058 36,000 279 371 0
2022-01-14 18:12:18 GMT 51.398838 13.524933 36,000 279 372 0
2022-01-14 18:12:15 GMT 51.398140 13.532562 36,000 279 372 0
2022-01-14 18:12:12 GMT 51.397339 13.541837 36,000 279 371 0
2022-01-14 18:12:09 GMT 51.396046 13.556671 35,975 279 370 0
2022-01-14 18:12:07 GMT 51.396046 13.556671 36,000 279 371 0
2022-01-14 18:12:04 GMT 51.395439 13.563385 35,975 279 371 0
2022-01-14 18:12:01 GMT 51.394928 13.568878 35,975 279 371 0
2022-01-14 18:11:58 GMT 51.394321 13.575821 36,000 279 371 0
2022-01-14 18:11:55 GMT 51.393402 13.586005 35,975 279 370 0
2022-01-14 18:11:52 GMT 51.392693 13.593979 35,975 279 370 0
2022-01-14 18:11:49 GMT 51.392120 13.600555 35,975 279 370 0
2022-01-14 18:11:46 GMT 51.391342 13.608932 35,975 279 370 0
2022-01-14 18:11:43 GMT 51.390335 13.620078 35,975 279 370 0
2022-01-14 18:11:40 GMT 51.389622 13.628464 35,975 279 370 0
2022-01-14 18:11:37 GMT 51.389061 13.634644 35,975 279 370 0
2022-01-14 18:11:34 GMT 51.388226 13.643875 35,975 279 370 -64
2022-01-14 18:11:31 GMT 51.387665 13.650513 35,975 279 370 0
2022-01-14 18:11:29 GMT 51.387177 13.655932 35,975 279 370 -64
2022-01-14 18:11:25 GMT 51.386082 13.668060 35,975 279 370 -64
2022-01-14 18:11:22 GMT 51.385345 13.676048 35,975 279 370 0
2022-01-14 18:11:19 GMT 51.384613 13.684214 36,000 279 370 0
2022-01-14 18:11:16 GMT 51.383987 13.691177 36,000 279 370 0
2022-01-14 18:11:13 GMT 51.383057 13.701859 36,000 279 370 0
2022-01-14 18:11:10 GMT 51.382416 13.708785 36,000 279 370 0
2022-01-14 18:11:07 GMT 51.381683 13.717025 36,000 279 370 0
2022-01-14 18:11:04 GMT 51.380123 13.734360 36,000 279 370 -64
2022-01-14 18:11:01 GMT 51.380123 13.734360 36,000 279 370 -64
2022-01-14 18:10:57 GMT 51.379238 13.744431 36,000 279 370 -64
2022-01-14 18:10:54 GMT 51.378307 13.754807 36,000 279 370 -64
2022-01-14 18:10:50 GMT 51.377609 13.762454 36,000 279 370 0
2022-01-14 18:10:47 GMT 51.376911 13.770370 36,000 279 370 0
2022-01-14 18:10:44 GMT 51.375961 13.781161 36,000 279 370 0
2022-01-14 18:10:41 GMT 51.375458 13.786803 36,000 279 370 0
2022-01-14 18:10:38 GMT 51.374863 13.793488 36,000 279 370 0
2022-01-14 18:10:35 GMT 51.373077 13.813303 36,000 279 370 0
2022-01-14 18:10:32 GMT 51.373077 13.813303 36,000 279 370 0
2022-01-14 18:10:29 GMT 51.372574 13.818945 36,000 279 370 0
2022-01-14 18:10:26 GMT 51.371704 13.828447 36,000 279 370 0
2022-01-14 18:10:23 GMT 51.370998 13.836365 36,000 279 370 0
2022-01-14 18:10:20 GMT 51.370350 13.843384 36,000 279 370 0
2022-01-14 18:10:17 GMT 51.369461 13.853463 36,000 279 370 0
2022-01-14 18:10:13 GMT 51.368347 13.865662 36,000 279 370 0
2022-01-14 18:10:10 GMT 51.367859 13.871056 36,000 279 371 0
2022-01-14 18:10:06 GMT 51.366943 13.880854 36,000 279 371 -64
2022-01-14 18:10:03 GMT 51.366299 13.888245 36,000 279 371 -64
2022-01-14 18:10:00 GMT 51.365318 13.898621 36,025 279 371 -64
2022-01-14 18:09:57 GMT 51.364716 13.905258 36,025 279 370 -64
2022-01-14 18:09:54 GMT 51.363922 13.914108 36,025 279 370 0
2022-01-14 18:09:51 GMT 51.363052 13.923241 36,025 279 370 0
2022-01-14 18:09:48 GMT 51.362320 13.931555 36,025 279 370 0
2022-01-14 18:09:45 GMT 51.361450 13.940908 36,025 279 370 0
2022-01-14 18:09:42 GMT 51.360012 13.956451 36,025 279 370 0
2022-01-14 18:09:39 GMT 51.360012 13.956451 36,025 279 370 0
2022-01-14 18:09:36 GMT 51.358704 13.970749 36,025 279 370 0
2022-01-14 18:09:33 GMT 51.358704 13.970749 36,025 279 370 0
2022-01-14 18:09:30 GMT 51.357742 13.980993 36,025 279 370 0
2022-01-14 18:09:27 GMT 51.356987 13.989182 36,025 279 371 0
2022-01-14 18:09:23 GMT 51.356010 14.000168 36,025 279 371 0
2022-01-14 18:09:20 GMT 51.354630 14.015214 36,025 279 371 -64
2022-01-14 18:09:17 GMT 51.354630 14.015214 36,025 279 371 0
2022-01-14 18:09:13 GMT 51.353542 14.027023 36,025 279 371 0
2022-01-14 18:09:10 GMT 51.353027 14.032510 36,025 279 371 0
2022-01-14 18:09:08 GMT 51.352425 14.039230 36,025 279 371 0
2022-01-14 18:09:05 GMT 51.351746 14.046540 36,025 279 371 0
2022-01-14 18:09:02 GMT 51.350967 14.055077 36,025 279 371 0
2022-01-14 18:08:59 GMT 51.350235 14.063020 36,025 279 371 0
2022-01-14 18:08:56 GMT 51.349632 14.069901 36,025 279 371 0
2022-01-14 18:08:53 GMT 51.348656 14.080505 36,025 279 371 0
2022-01-14 18:08:50 GMT 51.348003 14.087753 36,025 279 371 0
2022-01-14 18:08:47 GMT 51.347260 14.095830 36,025 279 370 0
2022-01-14 18:08:44 GMT 51.346390 14.105406 36,025 279 370 0
2022-01-14 18:08:41 GMT 51.345631 14.113541 36,025 279 370 64
2022-01-14 18:08:38 GMT 51.345154 14.118768 36,000 279 371 64
2022-01-14 18:08:35 GMT 51.344372 14.127426 36,000 279 371 0
2022-01-14 18:08:32 GMT 51.343277 14.139404 36,000 279 371 64
2022-01-14 18:08:29 GMT 51.342041 14.152766 36,000 279 371 64
2022-01-14 18:08:26 GMT 51.342041 14.152766 36,000 279 371 0
2022-01-14 18:08:22 GMT 51.340927 14.164658 36,000 279 372 0
2022-01-14 18:08:19 GMT 51.340134 14.173279 36,000 279 372 0
2022-01-14 18:08:16 GMT 51.339390 14.181213 36,000 279 371 0
2022-01-14 18:08:13 GMT 51.338505 14.190521 36,000 279 371 0
2022-01-14 18:08:10 GMT 51.337761 14.198532 36,000 279 371 0
2022-01-14 18:08:07 GMT 51.337189 14.205100 36,000 279 371 0
2022-01-14 18:08:04 GMT 51.336319 14.214172 36,000 279 371 0
2022-01-14 18:08:01 GMT 51.335480 14.223099 36,000 279 371 0
2022-01-14 18:07:58 GMT 51.335060 14.227982 36,000 279 371 0
2022-01-14 18:07:55 GMT 51.334316 14.235916 36,025 280 370 0
2022-01-14 18:07:52 GMT 51.333527 14.244517 36,000 279 371 0
2022-01-14 18:07:49 GMT 51.332546 14.255066 36,025 279 370 0
2022-01-14 18:07:46 GMT 51.331833 14.262629 36,000 279 370 0
2022-01-14 18:07:42 GMT 51.331059 14.271011 36,000 279 371 0
2022-01-14 18:07:39 GMT 51.330173 14.280396 36,000 279 371 0
2022-01-14 18:07:36 GMT 51.329407 14.288759 36,025 279 370 0
2022-01-14 18:07:33 GMT 51.328720 14.295959 36,025 279 370 0
2022-01-14 18:07:30 GMT 51.327942 14.304570 36,025 279 370 0
2022-01-14 18:07:27 GMT 51.327209 14.312439 36,025 279 370 0
2022-01-14 18:07:24 GMT 51.326523 14.319639 36,025 279 370 64
2022-01-14 18:07:21 GMT 51.325653 14.329512 36,000 279 370 64
2022-01-14 18:07:18 GMT 51.324509 14.341909 36,000 283 366 0
2022-01-14 18:07:15 GMT 51.324234 14.344581 36,025 279 371 0
2022-01-14 18:07:12 GMT 51.323502 14.352376 36,000 280 370 0
2022-01-14 18:07:09 GMT 51.322960 14.358292 36,025 281 368 0
2022-01-14 18:07:07 GMT 51.321327 14.373779 36,000 281 369 0
2022-01-14 18:07:04 GMT 51.321327 14.373779 36,000 283 366 0
2022-01-14 18:07:01 GMT 51.319794 14.385038 36,025 288 361 0
2022-01-14 18:06:58 GMT 51.318649 14.392609 36,025 286 363 0
2022-01-14 18:06:55 GMT 51.318069 14.395905 36,000 287 361 0
2022-01-14 18:06:52 GMT 51.316208 14.406204 36,000 288 361 0
2022-01-14 18:06:49 GMT 51.314999 14.412537 36,000 288 361 0
2022-01-14 18:06:46 GMT 51.311829 14.428612 36,000 288 361 0
2022-01-14 18:06:43 GMT 51.311829 14.428612 36,000 288 361 0
2022-01-14 18:06:40 GMT 51.310295 14.436340 36,000 288 361 0
2022-01-14 18:06:37 GMT 51.307114 14.452589 36,000 288 361 0
2022-01-14 18:06:34 GMT 51.307114 14.452589 36,000 288 361 0
2022-01-14 18:06:31 GMT 51.305500 14.460907 36,000 288 361 0
2022-01-14 18:06:28 GMT 51.304478 14.466095 36,000 288 361 0
2022-01-14 18:06:26 GMT 51.303406 14.471518 36,000 288 361 0
2022-01-14 18:06:23 GMT 51.302078 14.478347 36,000 288 361 0
2022-01-14 18:06:20 GMT 51.300018 14.488888 36,000 288 360 0
2022-01-14 18:06:17 GMT 51.297592 14.501285 36,000 288 360 0
2022-01-14 18:06:14 GMT 51.297592 14.501285 36,000 288 360 0
2022-01-14 18:06:11 GMT 51.296051 14.509125 36,025 288 360 0
2022-01-14 18:06:08 GMT 51.294281 14.518127 36,025 288 360 0
2022-01-14 18:06:04 GMT 51.292419 14.527512 36,000 288 360 0
2022-01-14 18:06:01 GMT 51.290932 14.535141 36,000 288 360 0
2022-01-14 18:05:58 GMT 51.289673 14.541593 36,000 288 360 0
2022-01-14 18:05:56 GMT 51.288136 14.549484 36,000 288 360 0
2022-01-14 18:05:53 GMT 51.286789 14.556217 36,000 288 359 0
2022-01-14 18:05:49 GMT 51.284969 14.565430 36,000 288 359 0
2022-01-14 18:05:46 GMT 51.283447 14.573216 36,000 288 359 0
2022-01-14 18:05:43 GMT 51.281387 14.583831 36,000 288 358 0
2022-01-14 18:05:40 GMT 51.278500 14.598389 36,000 288 359 0
2022-01-14 18:05:37 GMT 51.278500 14.598389 36,000 288 359 0
2022-01-14 18:05:34 GMT 51.277058 14.605637 36,000 288 359 64
2022-01-14 18:05:31 GMT 51.275848 14.611816 36,000 288 359 64
2022-01-14 18:05:28 GMT 51.274731 14.617462 36,000 288 359 0
2022-01-14 18:05:25 GMT 51.273239 14.625092 36,000 288 359 64
2022-01-14 18:05:22 GMT 51.271271 14.635125 36,000 288 359 0
2022-01-14 18:05:19 GMT 51.270035 14.641286 35,975 288 359 0
2022-01-14 18:05:15 GMT 51.267792 14.652786 36,000 288 359 0
2022-01-14 18:05:12 GMT 51.266582 14.658890 36,000 288 358 0
2022-01-14 18:05:09 GMT 51.264812 14.667892 36,000 288 358 0
2022-01-14 18:05:06 GMT 51.262020 14.681931 36,000 288 358 0
2022-01-14 18:05:03 GMT 51.262020 14.681931 36,000 288 358 0
2022-01-14 18:05:00 GMT 51.260811 14.688110 36,000 288 358 0
2022-01-14 18:04:57 GMT 51.258995 14.697342 36,000 288 358 0
2022-01-14 18:04:54 GMT 51.257271 14.705963 36,000 288 357 0
2022-01-14 18:04:51 GMT 51.256203 14.711227 36,000 288 358 0
2022-01-14 18:04:48 GMT 51.254665 14.719009 36,000 288 358 0
2022-01-14 18:04:45 GMT 51.252941 14.727859 36,000 288 357 0
2022-01-14 18:04:42 GMT 51.249847 14.743504 36,000 288 357 0
2022-01-14 18:04:39 GMT 51.249847 14.743504 36,000 288 357 0
2022-01-14 18:04:36 GMT 51.248520 14.750259 36,000 288 357 0
2022-01-14 18:04:33 GMT 51.246735 14.759241 36,000 288 357 0
2022-01-14 18:04:30 GMT 51.245728 14.764363 36,000 288 357 0
2022-01-14 18:04:27 GMT 51.243851 14.773865 36,000 288 357 0
2022-01-14 18:04:23 GMT 51.242329 14.781647 35,975 288 357 0
2022-01-14 18:04:20 GMT 51.240875 14.788934 36,000 288 356 0
2022-01-14 18:04:17 GMT 51.239273 14.797174 35,975 288 356 0
2022-01-14 18:04:14 GMT 51.237907 14.804153 36,000 288 356 0
2022-01-14 18:04:11 GMT 51.236526 14.811352 35,975 288 356 0
2022-01-14 18:04:08 GMT 51.234833 14.819889 36,000 288 356 -64
2022-01-14 18:04:06 GMT 51.233810 14.825211 36,000 288 356 -64
2022-01-14 18:04:03 GMT 51.232552 14.831543 36,000 288 355 -64
2022-01-14 18:04:00 GMT 51.230850 14.840228 36,000 288 355 -64
2022-01-14 18:03:57 GMT 51.229946 14.844971 36,000 288 355 0
2022-01-14 18:03:54 GMT 51.227692 14.856485 36,000 288 355 0
2022-01-14 18:03:51 GMT 51.226776 14.861384 36,000 288 355 0
2022-01-14 18:03:48 GMT 51.225292 14.869003 36,000 288 355 0
2022-01-14 18:03:45 GMT 51.223614 14.877625 36,000 288 355 0
2022-01-14 18:03:42 GMT 51.222382 14.883951 36,000 288 355 0
2022-01-14 18:03:39 GMT 51.220871 14.891745 36,000 288 355 -64
2022-01-14 18:03:35 GMT 51.219193 14.900436 36,000 288 355 -64
2022-01-14 18:03:32 GMT 51.217144 14.910889 36,000 288 356 -64
2022-01-14 18:03:28 GMT 51.215656 14.918594 36,000 288 356 -64
2022-01-14 18:03:25 GMT 51.213978 14.927139 36,000 288 356 -64
2022-01-14 18:03:22 GMT 51.211716 14.938734 36,000 288 356 -64
2022-01-14 18:03:19 GMT 51.210953 14.942627 36,000 288 356 0
2022-01-14 18:03:16 GMT 51.209743 14.948883 36,000 288 356 0
2022-01-14 18:03:13 GMT 51.208206 14.956665 36,025 288 356 0
2022-01-14 18:03:10 GMT 51.206818 14.963602 36,025 288 356 0
2022-01-14 18:03:07 GMT 51.205353 14.971099 36,025 288 356 0
2022-01-14 18:03:05 GMT 51.204300 14.976369 36,025 288 356 0
2022-01-14 18:03:02 GMT 51.201363 14.991379 36,025 288 357 0
2022-01-14 18:02:59 GMT 51.201363 14.991379 36,025 288 357 0
2022-01-14 18:02:56 GMT 51.199825 14.999084 36,025 288 357 0
2022-01-14 18:02:53 GMT 51.197845 15.009180 36,025 288 357 0
2022-01-14 18:02:50 GMT 51.196838 15.014450 36,025 288 357 0
2022-01-14 18:02:47 GMT 51.195557 15.020909 36,025 288 357 0
2022-01-14 18:02:45 GMT 51.194569 15.025864 36,025 288 357 0
2022-01-14 18:02:42 GMT 51.192627 15.035829 36,025 288 357 0
2022-01-14 18:02:39 GMT 51.191261 15.042725 36,025 288 357 0
2022-01-14 18:02:36 GMT 51.189926 15.049414 36,025 288 357 0
2022-01-14 18:02:33 GMT 51.187912 15.059658 36,000 288 357 0
2022-01-14 18:02:30 GMT 51.186932 15.064850 36,025 288 357 0
2022-01-14 18:02:27 GMT 51.185532 15.071832 36,025 288 357 0
2022-01-14 18:02:24 GMT 51.184280 15.078354 36,000 288 357 0
2022-01-14 18:02:21 GMT 51.181297 15.093460 36,000 288 357 0
2022-01-14 18:02:18 GMT 51.181297 15.093460 36,000 288 357 0
2022-01-14 18:02:15 GMT 51.179253 15.104065 36,000 288 357 0
2022-01-14 18:02:12 GMT 51.178226 15.109406 36,000 288 357 0
2022-01-14 18:02:09 GMT 51.176502 15.118103 36,000 288 357 0
2022-01-14 18:02:06 GMT 51.175186 15.124833 36,000 288 357 64
2022-01-14 18:02:02 GMT 51.171570 15.143661 36,000 288 357 64
2022-01-14 18:01:59 GMT 51.171570 15.143661 36,000 288 355 64
2022-01-14 18:01:56 GMT 51.170639 15.148315 36,000 288 356 64
2022-01-14 18:01:54 GMT 51.169010 15.156708 36,000 288 357 64
2022-01-14 18:01:51 GMT 51.167706 15.163422 36,000 288 357 64
2022-01-14 18:01:47 GMT 51.165985 15.172272 36,000 288 357 64
2022-01-14 18:01:44 GMT 51.164383 15.180507 36,000 288 357 0
2022-01-14 18:01:41 GMT 51.162781 15.188599 36,000 288 357 0
2022-01-14 18:01:38 GMT 51.161469 15.195389 36,000 288 357 0
2022-01-14 18:01:35 GMT 51.159851 15.203519 36,000 288 357 0
2022-01-14 18:01:32 GMT 51.158615 15.209755 36,000 288 357 0
2022-01-14 18:01:29 GMT 51.157139 15.217285 36,000 288 357 0
2022-01-14 18:01:26 GMT 51.155231 15.227127 35,975 288 357 0
2022-01-14 18:01:23 GMT 51.154160 15.232391 35,975 288 357 0
2022-01-14 18:01:20 GMT 51.152901 15.239029 35,975 288 356 0
2022-01-14 18:01:17 GMT 51.150925 15.248949 35,975 288 356 0
2022-01-14 18:01:14 GMT 51.149460 15.256348 36,000 288 356 0
2022-01-14 18:01:11 GMT 51.147968 15.263824 35,975 288 356 0
2022-01-14 18:01:08 GMT 51.146896 15.269215 36,000 288 356 0
2022-01-14 18:01:05 GMT 51.145596 15.275803 35,975 288 356 0
2022-01-14 18:01:02 GMT 51.143372 15.286807 36,000 288 356 0
2022-01-14 18:00:59 GMT 51.142612 15.290680 36,000 288 355 0
2022-01-14 18:00:56 GMT 51.140854 15.299724 36,000 288 356 0
2022-01-14 18:00:53 GMT 51.139023 15.308854 36,000 288 356 0
2022-01-14 18:00:49 GMT 51.137169 15.318298 36,000 288 356 0
2022-01-14 18:00:46 GMT 51.135910 15.324888 36,000 288 355 0
2022-01-14 18:00:43 GMT 51.132751 15.341071 36,000 288 356 0
2022-01-14 18:00:40 GMT 51.132751 15.341071 36,000 288 356 0
2022-01-14 18:00:36 GMT 51.131115 15.349350 36,000 288 355 0
2022-01-14 18:00:33 GMT 51.129395 15.358200 36,000 288 355 0
2022-01-14 18:00:29 GMT 51.127811 15.366364 36,000 288 356 0
2022-01-14 18:00:26 GMT 51.125996 15.375671 36,000 288 356 0
2022-01-14 18:00:23 GMT 51.124741 15.381973 36,000 288 356 0
2022-01-14 18:00:20 GMT 51.123573 15.387802 36,000 288 356 0
2022-01-14 18:00:17 GMT 51.121433 15.398865 36,000 288 355 0
2022-01-14 18:00:14 GMT 51.120209 15.404836 36,000 288 355 0
2022-01-14 18:00:11 GMT 51.118500 15.413361 36,000 288 355 0
2022-01-14 18:00:08 GMT 51.117523 15.418243 36,000 288 355 0
2022-01-14 18:00:05 GMT 51.114441 15.433787 36,000 288 355 0
2022-01-14 18:00:02 GMT 51.114441 15.433787 36,000 288 355 0
2022-01-14 17:59:59 GMT 51.112865 15.441666 36,000 288 355 0
2022-01-14 17:59:56 GMT 51.111378 15.448914 36,000 288 355 0
2022-01-14 17:59:53 GMT 51.109653 15.457535 36,000 288 355 0
2022-01-14 17:59:50 GMT 51.108398 15.463943 36,000 288 355 0
2022-01-14 17:59:47 GMT 51.105560 15.477905 36,000 288 355 0
2022-01-14 17:59:44 GMT 51.104534 15.483246 36,000 288 355 0
2022-01-14 17:59:42 GMT 51.104534 15.483246 36,000 288 356 0
2022-01-14 17:59:39 GMT 51.102676 15.492356 36,000 288 356 0
2022-01-14 17:59:36 GMT 51.101257 15.499408 36,000 288 356 0
2022-01-14 17:59:33 GMT 51.099609 15.507573 36,000 288 356 0
2022-01-14 17:59:30 GMT 51.098145 15.514774 36,000 288 356 0
2022-01-14 17:59:26 GMT 51.095875 15.526047 36,000 288 356 0
2022-01-14 17:59:23 GMT 51.092991 15.540237 36,000 288 356 0
2022-01-14 17:59:20 GMT 51.092991 15.540237 36,000 288 356 0
2022-01-14 17:59:17 GMT 51.092010 15.545060 36,000 288 356 -64
2022-01-14 17:59:14 GMT 51.090317 15.553597 36,000 288 356 -64
2022-01-14 17:59:12 GMT 51.089401 15.558051 36,000 288 356 -64
2022-01-14 17:59:09 GMT 51.087543 15.567093 36,000 288 356 -64
2022-01-14 17:59:06 GMT 51.086426 15.572586 36,000 288 356 -64
2022-01-14 17:59:03 GMT 51.084610 15.581512 36,000 288 356 -64
2022-01-14 17:59:00 GMT 51.083027 15.589218 36,000 288 356 0
2022-01-14 17:58:57 GMT 51.081711 15.595687 36,000 288 356 0
2022-01-14 17:58:54 GMT 51.080235 15.602875 36,000 288 356 0
2022-01-14 17:58:51 GMT 51.078644 15.610459 36,000 289 356 0
2022-01-14 17:58:47 GMT 51.076035 15.623301 36,000 289 356 0
2022-01-14 17:58:44 GMT 51.074615 15.630130 36,000 289 356 0
2022-01-14 17:58:40 GMT 51.073059 15.637702 36,000 289 356 0
2022-01-14 17:58:37 GMT 51.071548 15.644977 36,000 289 356 0
2022-01-14 17:58:34 GMT 51.067989 15.662231 36,000 289 356 0
2022-01-14 17:58:30 GMT 51.067989 15.662231 36,025 289 356 0
2022-01-14 17:58:27 GMT 51.065990 15.671997 36,025 289 357 -64
2022-01-14 17:58:24 GMT 51.064777 15.677872 36,025 289 357 0
2022-01-14 17:58:21 GMT 51.063354 15.684765 36,025 289 357 -64
2022-01-14 17:58:18 GMT 51.060169 15.699921 36,025 289 358 0
2022-01-14 17:58:15 GMT 51.060169 15.699921 36,025 289 358 0
2022-01-14 17:58:12 GMT 51.058640 15.707406 36,025 289 357 0
2022-01-14 17:58:09 GMT 51.056538 15.717468 36,025 289 357 0
2022-01-14 17:58:06 GMT 51.054977 15.724999 35,975 289 358 0
2022-01-14 17:58:03 GMT 51.053978 15.729599 36,025 289 358 0
2022-01-14 17:58:00 GMT 51.050766 15.745010 36,025 289 358 0
2022-01-14 17:57:57 GMT 51.050766 15.745010 36,025 289 358 0
2022-01-14 17:57:54 GMT 51.047089 15.762634 36,025 289 358 0
2022-01-14 17:57:51 GMT 51.046051 15.767608 36,025 289 358 0
2022-01-14 17:57:48 GMT 51.046051 15.767608 36,025 289 359 0
2022-01-14 17:57:44 GMT 51.043037 15.782166 36,025 289 359 0
2022-01-14 17:57:41 GMT 51.042297 15.785572 36,025 289 359 0
2022-01-14 17:57:38 GMT 51.041061 15.791585 36,025 289 359 0
2022-01-14 17:57:35 GMT 51.039001 15.801458 36,025 289 359 64
2022-01-14 17:57:32 GMT 51.037407 15.809097 36,025 289 359 64
2022-01-14 17:57:29 GMT 51.036568 15.813065 36,000 289 359 64
2022-01-14 17:57:26 GMT 51.034798 15.821457 35,975 289 359 64
2022-01-14 17:57:23 GMT 51.032730 15.831299 36,000 289 359 64
2022-01-14 17:57:20 GMT 51.031677 15.836421 36,000 289 360 64
2022-01-14 17:57:17 GMT 51.027954 15.854340 36,000 289 360 64
2022-01-14 17:57:14 GMT 51.027954 15.854340 36,000 289 359 64
2022-01-14 17:57:11 GMT 51.026840 15.859680 36,000 289 359 64
2022-01-14 17:57:08 GMT 51.025589 15.865668 36,000 289 359 64
2022-01-14 17:57:05 GMT 51.023163 15.877545 36,000 289 359 64
2022-01-14 17:57:02 GMT 51.022137 15.882416 35,975 289 359 64
2022-01-14 17:56:59 GMT 51.020782 15.888977 35,975 289 359 64
2022-01-14 17:56:56 GMT 51.019112 15.896988 35,975 289 359 64
2022-01-14 17:56:53 GMT 51.017853 15.903081 35,975 289 359 64
2022-01-14 17:56:50 GMT 51.015518 15.914364 35,975 289 359 0
2022-01-14 17:56:47 GMT 51.012360 15.929718 35,975 289 360 0
2022-01-14 17:56:43 GMT 51.012360 15.929718 35,975 289 359 0
2022-01-14 17:56:40 GMT 51.011059 15.935974 35,975 289 359 0
2022-01-14 17:56:37 GMT 51.009018 15.945616 35,975 289 359 0
2022-01-14 17:56:34 GMT 51.007706 15.951996 35,975 289 359 0
2022-01-14 17:56:31 GMT 51.006638 15.956974 35,975 289 359 0
2022-01-14 17:56:29 GMT 51.005173 15.963877 35,975 289 359 0
2022-01-14 17:56:26 GMT 51.003067 15.973898 35,975 289 358 0
2022-01-14 17:56:23 GMT 51.001514 15.981369 35,975 289 358 0
2022-01-14 17:56:20 GMT 51.000137 15.987928 35,975 289 358 0
2022-01-14 17:56:17 GMT 50.998581 15.995129 35,975 289 358 0
2022-01-14 17:56:14 GMT 50.997513 16.000366 35,975 289 358 0
2022-01-14 17:56:11 GMT 50.995323 16.010666 35,975 289 358 -64
2022-01-14 17:56:09 GMT 50.992344 16.024628 35,975 289 357 -64
2022-01-14 17:56:06 GMT 50.992344 16.024628 35,975 289 357 -64
2022-01-14 17:56:03 GMT 50.989597 16.037369 35,975 289 357 -64
2022-01-14 17:56:00 GMT 50.989597 16.037369 35,975 289 357 -64
2022-01-14 17:55:56 GMT 50.987362 16.047821 36,000 289 357 -64
2022-01-14 17:55:53 GMT 50.985764 16.055330 36,000 289 357 0
2022-01-14 17:55:50 GMT 50.982708 16.069717 36,000 289 358 0
2022-01-14 17:55:47 GMT 50.982708 16.069717 36,000 289 358 0
2022-01-14 17:55:44 GMT 50.981312 16.076279 36,000 289 358 0
2022-01-14 17:55:40 GMT 50.978985 16.087189 36,000 289 358 0
2022-01-14 17:55:37 GMT 50.977867 16.092453 36,000 289 358 0
2022-01-14 17:55:34 GMT 50.975922 16.101652 36,000 289 358 0
2022-01-14 17:55:31 GMT 50.974606 16.107864 36,000 289 359 0
2022-01-14 17:55:29 GMT 50.971863 16.120987 36,000 289 359 0
2022-01-14 17:55:26 GMT 50.971863 16.120987 36,000 289 359 0
2022-01-14 17:55:23 GMT 50.970062 16.129339 36,000 289 359 0
2022-01-14 17:55:20 GMT 50.968975 16.134567 36,000 289 358 0
2022-01-14 17:55:18 GMT 50.967529 16.141205 36,000 289 359 0
2022-01-14 17:55:15 GMT 50.965900 16.148834 36,000 289 359 0
2022-01-14 17:55:12 GMT 50.963974 16.157919 36,000 289 360 0
2022-01-14 17:55:09 GMT 50.961105 16.171188 36,000 289 360 0
2022-01-14 17:55:06 GMT 50.961105 16.171188 36,000 289 360 0
2022-01-14 17:55:03 GMT 50.959854 16.177071 36,000 289 360 0
2022-01-14 17:55:00 GMT 50.957428 16.188280 36,000 289 360 0
2022-01-14 17:54:57 GMT 50.956547 16.192474 36,000 289 361 0
2022-01-14 17:54:54 GMT 50.954590 16.201494 36,000 289 360 0
2022-01-14 17:54:51 GMT 50.952026 16.213297 36,000 289 361 0
2022-01-14 17:54:46 GMT 50.950027 16.222610 36,000 289 361 0
2022-01-14 17:54:43 GMT 50.948818 16.228104 36,000 289 361 0
2022-01-14 17:54:40 GMT 50.947266 16.235418 36,000 289 361 0
2022-01-14 17:54:38 GMT 50.945698 16.242599 36,000 289 361 0
2022-01-14 17:54:35 GMT 50.943970 16.250710 36,000 289 361 0
2022-01-14 17:54:32 GMT 50.943100 16.254568 36,000 289 360 0
2022-01-14 17:54:29 GMT 50.940720 16.265703 36,000 289 360 0
2022-01-14 17:54:26 GMT 50.939392 16.271866 36,000 289 360 0
2022-01-14 17:54:23 GMT 50.937504 16.280518 36,000 289 360 0
2022-01-14 17:54:20 GMT 50.936600 16.284634 36,000 289 357 0
2022-01-14 17:54:18 GMT 50.935226 16.290943 36,000 289 359 0
2022-01-14 17:54:15 GMT 50.933670 16.298143 36,000 289 359 0
2022-01-14 17:54:12 GMT 50.931595 16.307831 36,000 289 359 0
2022-01-14 17:54:09 GMT 50.930290 16.313858 36,000 290 358 0
2022-01-14 17:54:06 GMT 50.928894 16.320267 36,000 289 358 0
2022-01-14 17:54:03 GMT 50.927124 16.328281 36,000 289 357 0
2022-01-14 17:54:00 GMT 50.925659 16.335112 36,000 289 357 0
2022-01-14 17:53:58 GMT 50.924103 16.342163 36,000 289 357 0
2022-01-14 17:53:55 GMT 50.922913 16.347731 36,000 289 356 0
2022-01-14 17:53:52 GMT 50.921310 16.355228 36,000 289 356 0
2022-01-14 17:53:49 GMT 50.919434 16.363689 36,000 289 356 0
2022-01-14 17:53:46 GMT 50.917465 16.372969 36,000 289 356 0
2022-01-14 17:53:42 GMT 50.915909 16.380020 36,000 289 356 0
2022-01-14 17:53:39 GMT 50.913986 16.388929 36,000 289 356 0
2022-01-14 17:53:36 GMT 50.912693 16.394882 36,000 289 356 0
2022-01-14 17:53:33 GMT 50.910919 16.403032 34,825 290 361 448
2022-01-14 17:53:30 GMT 50.909527 16.409531 36,000 289 356 0
2022-01-14 17:53:28 GMT 50.906616 16.422928 36,000 289 356 0
2022-01-14 17:53:25 GMT 50.906616 16.422928 36,000 289 356 0
2022-01-14 17:53:22 GMT 50.905106 16.429901 36,000 289 357 64
2022-01-14 17:53:19 GMT 50.903847 16.435776 36,000 289 357 64
2022-01-14 17:53:17 GMT 50.900803 16.449724 36,000 289 357 64
2022-01-14 17:53:14 GMT 50.900803 16.449724 36,000 289 357 64
2022-01-14 17:53:11 GMT 50.899426 16.456146 35,975 289 358 64
2022-01-14 17:53:08 GMT 50.897377 16.465607 35,975 289 358 128
2022-01-14 17:53:05 GMT 50.895996 16.472069 35,975 289 358 128
2022-01-14 17:53:02 GMT 50.894024 16.481094 35,975 289 359 192
2022-01-14 17:52:59 GMT 50.893204 16.484837 35,975 289 359 256
2022-01-14 17:52:57 GMT 50.891838 16.491241 35,925 289 359 576
2022-01-14 17:52:54 GMT 50.889835 16.500397 35,900 289 359 576
2022-01-14 17:52:51 GMT 50.888718 16.505400 35,875 289 359 576
2022-01-14 17:52:48 GMT 50.886658 16.514975 35,850 289 359 512
2022-01-14 17:52:45 GMT 50.885551 16.520004 35,825 289 359 512
2022-01-14 17:52:42 GMT 50.883499 16.529449 35,800 289 360 448
2022-01-14 17:52:39 GMT 50.881641 16.537933 35,775 290 360 448
2022-01-14 17:52:35 GMT 50.879379 16.548380 35,725 290 360 448
2022-01-14 17:52:32 GMT 50.878475 16.552429 35,725 290 362 448
2022-01-14 17:52:29 GMT 50.876862 16.559885 35,575 290 362 448
2022-01-14 17:52:26 GMT 50.874847 16.569138 35,700 290 362 448
2022-01-14 17:52:23 GMT 50.873356 16.575775 35,650 290 363 448
2022-01-14 17:52:20 GMT 50.871914 16.582413 35,625 290 363 448
2022-01-14 17:52:17 GMT 50.869354 16.594086 35,600 290 363 512
2022-01-14 17:52:14 GMT 50.867954 16.600418 35,575 290 363 512
2022-01-14 17:52:11 GMT 50.866882 16.605242 35,575 290 363 576
2022-01-14 17:52:08 GMT 50.863720 16.619568 35,200 290 361 512
2022-01-14 17:52:05 GMT 50.862030 16.627361 35,500 290 362 576
2022-01-14 17:52:02 GMT 50.860462 16.634521 35,475 290 362 576
2022-01-14 17:51:59 GMT 50.858231 16.644585 35,450 290 362 576
2022-01-14 17:51:56 GMT 50.858231 16.644585 35,425 290 362 512
2022-01-14 17:51:53 GMT 50.856552 16.652298 35,400 290 362 512
2022-01-14 17:51:50 GMT 50.855026 16.659283 35,375 290 362 448
2022-01-14 17:51:47 GMT 50.853378 16.666704 35,350 290 362 384
2022-01-14 17:51:44 GMT 50.852234 16.671976 35,325 290 362 384
2022-01-14 17:51:41 GMT 50.850128 16.681477 35,325 290 362 384
2022-01-14 17:51:38 GMT 50.848389 16.689272 35,300 290 361 384
2022-01-14 17:51:35 GMT 50.847198 16.694765 35,275 290 361 448
2022-01-14 17:51:32 GMT 50.845596 16.701965 35,250 290 361 512
2022-01-14 17:51:29 GMT 50.843655 16.710739 35,250 290 361 512
2022-01-14 17:51:27 GMT 50.842300 16.716812 35,200 290 360 576
2022-01-14 17:51:24 GMT 50.841156 16.721933 35,175 290 359 768
2022-01-14 17:51:21 GMT 50.839554 16.729208 35,175 290 359 768
2022-01-14 17:51:18 GMT 50.836716 16.741976 35,100 290 359 768
2022-01-14 17:51:15 GMT 50.836113 16.744690 35,050 290 358 832
2022-01-14 17:51:11 GMT 50.834061 16.753853 35,025 290 358 832
2022-01-14 17:51:08 GMT 50.832718 16.759949 34,925 290 358 768
2022-01-14 17:51:06 GMT 50.830715 16.769028 34,900 290 359 640
2022-01-14 17:51:03 GMT 50.829025 16.776791 34,900 290 358 704
2022-01-14 17:51:00 GMT 50.827686 16.782761 34,900 290 358 704
2022-01-14 17:50:57 GMT 50.825733 16.791763 34,825 290 359 640
2022-01-14 17:50:54 GMT 50.824615 16.796799 34,800 290 361 640
2022-01-14 17:50:51 GMT 50.822708 16.805420 34,775 290 362 704
2022-01-14 17:50:48 GMT 50.821358 16.811447 34,700 290 362 768
2022-01-14 17:50:43 GMT 50.818844 16.822815 34,650 290 363 1024
2022-01-14 17:50:40 GMT 50.816483 16.833578 34,625 290 363 1088
2022-01-14 17:50:37 GMT 50.814747 16.841431 34,525 290 364 1152
2022-01-14 17:50:34 GMT 50.812092 16.853638 34,500 290 363 960
2022-01-14 17:50:31 GMT 50.812092 16.853638 34,450 290 363 896
2022-01-14 17:50:28 GMT 50.810371 16.861267 34,375 290 363 960
2022-01-14 17:50:25 GMT 50.808277 16.870804 34,375 290 363 960
2022-01-14 17:50:22 GMT 50.806732 16.877747 34,325 290 363 960
2022-01-14 17:50:19 GMT 50.805359 16.884130 34,275 290 363 896
2022-01-14 17:50:16 GMT 50.803391 16.892891 34,225 290 363 832
2022-01-14 17:50:13 GMT 50.801743 16.900312 34,175 290 362 832
2022-01-14 17:50:10 GMT 50.800362 16.906662 34,150 290 362 832
2022-01-14 17:50:07 GMT 50.798733 16.914139 34,100 290 362 832
2022-01-14 17:50:04 GMT 50.796684 16.923294 34,075 290 362 832
2022-01-14 17:50:01 GMT 50.795609 16.928076 34,000 290 361 832
2022-01-14 17:49:58 GMT 50.792267 16.943146 33,975 290 361 832
2022-01-14 17:49:55 GMT 50.792267 16.943146 33,925 290 361 832
2022-01-14 17:49:52 GMT 50.790585 16.950760 33,925 290 361 832
2022-01-14 17:49:49 GMT 50.788631 16.959534 33,875 290 360 832
2022-01-14 17:49:46 GMT 50.787094 16.966454 33,800 290 360 832
2022-01-14 17:49:43 GMT 50.785034 16.975658 33,775 290 359 768
2022-01-14 17:49:40 GMT 50.783558 16.982346 33,750 290 359 768
2022-01-14 17:49:37 GMT 50.781742 16.990356 33,700 290 359 768
2022-01-14 17:49:33 GMT 50.779785 16.999054 33,650 290 358 768
2022-01-14 17:49:30 GMT 50.778202 17.006226 33,600 290 358 768
2022-01-14 17:49:27 GMT 50.776527 17.013702 33,600 290 357 704
2022-01-14 17:49:25 GMT 50.775146 17.019827 33,550 290 357 704
2022-01-14 17:49:22 GMT 50.774139 17.024281 33,450 290 355 832
2022-01-14 17:49:19 GMT 50.772243 17.033005 33,450 290 356 768
2022-01-14 17:49:15 GMT 50.769791 17.043879 33,450 290 356 832
2022-01-14 17:49:12 GMT 50.768101 17.051468 33,400 290 356 832
2022-01-14 17:49:08 GMT 50.766632 17.058130 33,325 290 355 832
2022-01-14 17:49:05 GMT 50.764160 17.069340 33,275 290 354 768
2022-01-14 17:49:02 GMT 50.763016 17.074312 33,225 290 354 768
2022-01-14 17:48:59 GMT 50.761322 17.082033 33,225 290 352 768
2022-01-14 17:48:56 GMT 50.759907 17.088242 33,150 290 352 704
2022-01-14 17:48:53 GMT 50.757889 17.097250 33,150 290 352 768
2022-01-14 17:48:50 GMT 50.756287 17.104378 33,100 290 351 832
2022-01-14 17:48:47 GMT 50.754730 17.111429 33,050 290 351 832
2022-01-14 17:48:43 GMT 50.752693 17.120438 33,025 290 351 832
2022-01-14 17:48:40 GMT 50.750969 17.127991 32,950 290 350 768
2022-01-14 17:48:37 GMT 50.749527 17.134476 32,750 290 349 768
2022-01-14 17:48:34 GMT 50.746269 17.148819 32,900 290 349 768
2022-01-14 17:48:31 GMT 50.744873 17.155075 32,825 290 347 768
2022-01-14 17:48:28 GMT 50.743195 17.162323 32,825 290 348 704
2022-01-14 17:48:25 GMT 50.740585 17.174006 32,775 290 347 832
2022-01-14 17:48:21 GMT 50.740585 17.174006 32,625 290 346 960
2022-01-14 17:48:18 GMT 50.738819 17.181702 31,975 290 346 1152
2022-01-14 17:48:15 GMT 50.737701 17.186737 32,600 290 346 1152
2022-01-14 17:48:12 GMT 50.734489 17.201004 32,500 290 346 1344
2022-01-14 17:48:09 GMT 50.734489 17.201004 32,475 290 346 1344
2022-01-14 17:48:06 GMT 50.732620 17.209267 32,425 290 346 1408
2022-01-14 17:48:03 GMT 50.730812 17.217102 32,325 290 347 1344
2022-01-14 17:48:00 GMT 50.729736 17.221960 32,275 290 347 1280
2022-01-14 17:47:57 GMT 50.727787 17.230530 32,125 290 347 1216
2022-01-14 17:47:54 GMT 50.726807 17.234951 32,175 290 347 1088
2022-01-14 17:47:51 GMT 50.724609 17.244528 32,100 290 346 896
2022-01-14 17:47:48 GMT 50.722641 17.253138 31,900 290 346 960
2022-01-14 17:47:45 GMT 50.720989 17.260437 32,050 290 346 960
2022-01-14 17:47:41 GMT 50.719254 17.268059 31,900 290 345 1152
2022-01-14 17:47:38 GMT 50.717926 17.273922 31,900 290 345 1152
2022-01-14 17:47:35 GMT 50.714081 17.290997 31,850 290 345 1152
2022-01-14 17:47:32 GMT 50.714081 17.290997 31,800 290 345 1216
2022-01-14 17:47:28 GMT 50.711960 17.300339 31,700 290 345 1280
2022-01-14 17:47:25 GMT 50.710518 17.306671 31,650 290 343 1280
2022-01-14 17:47:22 GMT 50.708725 17.314528 31,525 290 343 1344
2022-01-14 17:47:19 GMT 50.707718 17.318981 31,425 290 343 1344
2022-01-14 17:47:16 GMT 50.705750 17.327665 31,400 290 343 1344
2022-01-14 17:47:13 GMT 50.704464 17.333374 31,350 290 340 1024
2022-01-14 17:47:10 GMT 50.702229 17.343292 31,325 290 343 1280
2022-01-14 17:47:07 GMT 50.701393 17.347031 31,275 290 343 1280
2022-01-14 17:47:04 GMT 50.699753 17.354317 31,075 290 342 1152
2022-01-14 17:47:01 GMT 50.697994 17.361984 31,125 290 342 1216
2022-01-14 17:46:58 GMT 50.696045 17.370571 31,075 290 342 1216
2022-01-14 17:46:54 GMT 50.694260 17.378441 30,975 290 341 1088
2022-01-14 17:46:51 GMT 50.690964 17.392916 30,900 290 341 1024
2022-01-14 17:46:48 GMT 50.690964 17.392916 30,875 290 340 1024
2022-01-14 17:46:45 GMT 50.689407 17.399820 30,850 290 340 1024
2022-01-14 17:46:42 GMT 50.687798 17.406769 30,750 290 340 1024
2022-01-14 17:46:39 GMT 50.686031 17.414551 30,725 290 339 1152
2022-01-14 17:46:36 GMT 50.684464 17.421570 30,625 290 338 1216
2022-01-14 17:46:33 GMT 50.682999 17.427879 30,600 290 339 1408
2022-01-14 17:46:30 GMT 50.681122 17.436119 30,525 290 339 1408
2022-01-14 17:46:27 GMT 50.679886 17.441612 30,500 290 339 1408
2022-01-14 17:46:23 GMT 50.677231 17.453156 30,350 290 338 1408
2022-01-14 17:46:20 GMT 50.676163 17.457962 30,300 290 338 1408
2022-01-14 17:46:17 GMT 50.674484 17.465210 30,225 290 338 1408
2022-01-14 17:46:14 GMT 50.673088 17.471237 30,025 290 337 1408
2022-01-14 17:46:11 GMT 50.670994 17.480511 30,000 290 337 1344
2022-01-14 17:46:08 GMT 50.669922 17.485039 30,000 290 337 1344
2022-01-14 17:46:05 GMT 50.668579 17.491102 30,000 290 337 1344
2022-01-14 17:46:02 GMT 50.666756 17.498995 29,875 290 337 1344
2022-01-14 17:45:58 GMT 50.664616 17.508421 29,775 290 336 1280
2022-01-14 17:45:56 GMT 50.661713 17.520952 29,750 290 336 1280
2022-01-14 17:45:53 GMT 50.661713 17.520952 29,700 290 335 1280
2022-01-14 17:45:49 GMT 50.659679 17.529947 29,250 290 333 1408
2022-01-14 17:45:46 GMT 50.658005 17.537224 29,550 290 334 1344
2022-01-14 17:45:43 GMT 50.656284 17.544794 29,475 290 334 1344
2022-01-14 17:45:37 GMT 50.653702 17.556007 29,325 290 333 1408
2022-01-14 17:45:34 GMT 50.651859 17.564020 29,300 290 333 1408
2022-01-14 17:45:29 GMT 50.649033 17.576389 29,175 290 332 1472
2022-01-14 17:45:26 GMT 50.647751 17.582027 29,075 290 332 1536
2022-01-14 17:45:23 GMT 50.646469 17.587593 29,000 290 332 1472
2022-01-14 17:45:20 GMT 50.644272 17.597061 28,950 290 332 1472
2022-01-14 17:45:17 GMT 50.643173 17.601906 28,875 290 332 1472
2022-01-14 17:45:14 GMT 50.641388 17.609638 28,800 290 331 1472
2022-01-14 17:45:11 GMT 50.640316 17.614349 28,700 290 331 1408
2022-01-14 17:45:08 GMT 50.638367 17.622866 28,625 290 331 1408
2022-01-14 17:45:05 GMT 50.634777 17.638624 28,475 290 330 1408
2022-01-14 17:45:02 GMT 50.634777 17.638624 28,475 290 330 1472
2022-01-14 17:44:59 GMT 50.633698 17.643248 28,400 290 330 1472
2022-01-14 17:44:56 GMT 50.632122 17.650057 28,375 290 330 1472
2022-01-14 17:44:52 GMT 50.629795 17.660076 28,250 290 329 1472
2022-01-14 17:44:49 GMT 50.628571 17.665510 28,200 290 329 1472
2022-01-14 17:44:46 GMT 50.626442 17.674627 28,125 290 329 1472
2022-01-14 17:44:43 GMT 50.624954 17.681086 27,550 290 328 1472
2022-01-14 17:44:40 GMT 50.623325 17.688211 27,950 290 328 1408
2022-01-14 17:44:37 GMT 50.622486 17.691849 27,875 290 328 1408
2022-01-14 17:44:33 GMT 50.619873 17.703167 27,775 290 327 1408
2022-01-14 17:44:30 GMT 50.618855 17.707512 27,725 290 327 1408
2022-01-14 17:44:27 GMT 50.615784 17.720873 27,625 290 327 1472
2022-01-14 17:44:24 GMT 50.615784 17.720873 27,525 291 326 1472
2022-01-14 17:44:21 GMT 50.613548 17.730597 27,500 291 326 1472
2022-01-14 17:44:17 GMT 50.611862 17.737932 27,275 290 325 1536
2022-01-14 17:44:13 GMT 50.609730 17.746927 27,325 290 325 1472
2022-01-14 17:44:10 GMT 50.608566 17.752028 27,250 290 325 1536
2022-01-14 17:44:07 GMT 50.607010 17.758749 27,125 290 324 1536
2022-01-14 17:44:04 GMT 50.605362 17.765833 26,775 291 322 1280
2022-01-14 17:44:01 GMT 50.603897 17.772120 27,000 290 324 1472
2022-01-14 17:43:58 GMT 50.602112 17.779926 26,875 291 323 1408
2022-01-14 17:43:55 GMT 50.600876 17.785204 26,875 291 322 1344
2022-01-14 17:43:52 GMT 50.598770 17.794310 26,800 291 322 1280
2022-01-14 17:43:49 GMT 50.597168 17.801104 26,700 291 321 1280
2022-01-14 17:43:45 GMT 50.595066 17.810175 26,650 291 320 1216
2022-01-14 17:43:42 GMT 50.593624 17.816261 26,575 291 320 1216
2022-01-14 17:43:39 GMT 50.592182 17.822645 26,525 290 319 1280
2022-01-14 17:43:36 GMT 50.589661 17.833412 26,425 291 318 1344
2022-01-14 17:43:33 GMT 50.589661 17.833412 26,425 291 318 1344
2022-01-14 17:43:29 GMT 50.586090 17.848881 26,300 290 316 1344
2022-01-14 17:43:26 GMT 50.586090 17.848881 26,200 290 316 1344
2022-01-14 17:43:23 GMT 50.584442 17.855820 26,175 291 315 1344
2022-01-14 17:43:20 GMT 50.581329 17.869408 26,100 291 314 1408
2022-01-14 17:43:17 GMT 50.581329 17.869408 26,050 291 314 1472
2022-01-14 17:43:14 GMT 50.579636 17.876562 25,950 291 313 1536
2022-01-14 17:43:11 GMT 50.576477 17.890079 25,825 291 312 1536
2022-01-14 17:43:08 GMT 50.575516 17.894272 25,800 291 312 1536
2022-01-14 17:43:05 GMT 50.573887 17.901182 25,700 291 312 1536
2022-01-14 17:43:02 GMT 50.573887 17.901182 25,650 291 311 1472
2022-01-14 17:42:59 GMT 50.572083 17.908943 25,575 291 310 1472
2022-01-14 17:42:56 GMT 50.571095 17.913208 25,500 291 310 1472
2022-01-14 17:42:53 GMT 50.568905 17.922562 25,425 291 310 1472
2022-01-14 17:42:49 GMT 50.567139 17.930120 25,325 291 308 1472
2022-01-14 17:42:46 GMT 50.566086 17.934530 25,200 291 308 1472
2022-01-14 17:42:43 GMT 50.564529 17.941252 25,200 291 308 1472
2022-01-14 17:42:40 GMT 50.563133 17.947206 24,975 291 307 1536
2022-01-14 17:42:37 GMT 50.561417 17.954624 25,000 290 307 1536
2022-01-14 17:42:34 GMT 50.560432 17.958860 24,950 290 307 1600
2022-01-14 17:42:31 GMT 50.558899 17.965393 24,850 291 306 1664
2022-01-14 17:42:28 GMT 50.556942 17.973930 24,775 291 306 1728
2022-01-14 17:42:24 GMT 50.555126 17.981649 24,600 291 306 1792
2022-01-14 17:42:21 GMT 50.554054 17.986401 24,475 291 305 1792
2022-01-14 17:42:18 GMT 50.552471 17.993231 24,500 291 305 1856
2022-01-14 17:42:14 GMT 50.550701 18.000652 23,900 291 305 1920
2022-01-14 17:42:10 GMT 50.548691 18.009266 24,275 291 305 1920
2022-01-14 17:42:07 GMT 50.547318 18.015265 24,125 291 305 1920
2022-01-14 17:42:04 GMT 50.545395 18.023369 24,050 291 305 1920
2022-01-14 17:42:00 GMT 50.543518 18.031528 23,575 291 302 1536
2022-01-14 17:41:57 GMT 50.542282 18.036732 23,775 291 305 1856
2022-01-14 17:41:54 GMT 50.540833 18.042965 23,675 291 304 1792
2022-01-14 17:41:51 GMT 50.539398 18.048946 23,625 291 304 1728
2022-01-14 17:41:48 GMT 50.537575 18.056623 23,550 291 302 1664
2022-01-14 17:41:45 GMT 50.536644 18.060633 23,500 291 302 1600
2022-01-14 17:41:42 GMT 50.535061 18.067389 23,425 291 302 1536
2022-01-14 17:41:39 GMT 50.533630 18.073448 23,000 291 300 1472
2022-01-14 17:41:36 GMT 50.531616 18.081863 23,250 291 299 1536
2022-01-14 17:41:33 GMT 50.530426 18.086966 23,125 291 298 1600
2022-01-14 17:41:30 GMT 50.528732 18.094193 23,050 291 298 1728
2022-01-14 17:41:27 GMT 50.526588 18.103315 22,875 291 297 1984
2022-01-14 17:41:20 GMT 50.524540 18.111927 22,800 291 297 2048
2022-01-14 17:41:16 GMT 50.522587 18.120092 22,600 291 297 2176
2022-01-14 17:41:13 GMT 50.520813 18.127659 22,525 291 297 2176
2022-01-14 17:41:10 GMT 50.519745 18.132193 22,375 291 297 2176
2022-01-14 17:41:07 GMT 50.517929 18.139946 22,300 291 297 2112
2022-01-14 17:41:04 GMT 50.516785 18.144789 22,100 291 297 2112
2022-01-14 17:41:01 GMT 50.515732 18.149197 22,150 291 297 2112
2022-01-14 17:40:58 GMT 50.513992 18.156643 21,925 291 296 1920
2022-01-14 17:40:55 GMT 50.512249 18.164038 21,900 291 296 1856
2022-01-14 17:40:51 GMT 50.510880 18.169868 21,825 291 296 1792
2022-01-14 17:40:48 GMT 50.509277 18.176662 21,700 291 295 1792
2022-01-14 17:40:45 GMT 50.507504 18.184080 21,600 291 294 1792
2022-01-14 17:40:42 GMT 50.506058 18.190243 21,525 291 293 1856
2022-01-14 17:40:38 GMT 50.504242 18.197887 21,400 291 293 1920
2022-01-14 17:40:34 GMT 50.502686 18.204491 21,200 291 292 2048
2022-01-14 17:40:31 GMT 50.501266 18.210489 21,125 291 291 2176
2022-01-14 17:40:28 GMT 50.499729 18.217039 21,025 291 291 2240
2022-01-14 17:40:25 GMT 50.496563 18.230328 20,925 291 291 2240
2022-01-14 17:40:22 GMT 50.496563 18.230328 20,800 291 291 2240
2022-01-14 17:40:19 GMT 50.495544 18.234558 20,675 291 290 2176
2022-01-14 17:40:16 GMT 50.494217 18.240196 20,575 291 290 2176
2022-01-14 17:40:13 GMT 50.492844 18.246050 20,525 291 290 2112
2022-01-14 17:40:09 GMT 50.489487 18.260019 20,150 291 286 1920
2022-01-14 17:40:06 GMT 50.489487 18.260019 20,200 291 288 1920
2022-01-14 17:40:03 GMT 50.488358 18.264771 20,125 291 287 1920
2022-01-14 17:40:00 GMT 50.486973 18.270636 20,050 291 286 1920
2022-01-14 17:39:57 GMT 50.483620 18.284739 19,975 291 286 1984
2022-01-14 17:39:54 GMT 50.483620 18.284739 19,775 291 284 2112
2022-01-14 17:39:49 GMT 50.481384 18.294315 19,700 291 284 2240
2022-01-14 17:39:46 GMT 50.480164 18.299320 19,550 291 284 2368
2022-01-14 17:39:43 GMT 50.479019 18.304235 19,500 291 284 2432
2022-01-14 17:39:39 GMT 50.476776 18.313688 19,275 291 283 2432
2022-01-14 17:39:36 GMT 50.475754 18.318069 19,125 291 281 2112
2022-01-14 17:39:33 GMT 50.474403 18.323711 18,925 291 283 2368
2022-01-14 17:39:28 GMT 50.471878 18.334230 18,825 291 282 2176
2022-01-14 17:39:25 GMT 50.470448 18.340263 17,850 291 277 2176
2022-01-14 17:39:22 GMT 50.467392 18.353239 18,575 291 280 2048
2022-01-14 17:39:18 GMT 50.467392 18.353239 18,500 291 279 2048
2022-01-14 17:39:15 GMT 50.466072 18.358747 18,425 291 278 2048
2022-01-14 17:39:11 GMT 50.464115 18.367062 18,225 291 277 2240
2022-01-14 17:39:08 GMT 50.462765 18.372629 18,175 291 277 2304
2022-01-14 17:39:04 GMT 50.460949 18.380499 17,875 291 275 2432
2022-01-14 17:39:01 GMT 50.459885 18.384897 17,825 291 274 2368
2022-01-14 17:38:58 GMT 50.458435 18.391188 17,750 291 274 2368
2022-01-14 17:38:55 GMT 50.456993 18.397276 17,625 291 274 2368
2022-01-14 17:38:52 GMT 50.455971 18.401653 17,550 291 273 2368
2022-01-14 17:38:48 GMT 50.454247 18.408779 17,350 291 272 2496
2022-01-14 17:38:45 GMT 50.452927 18.414604 17,150 291 272 2688
2022-01-14 17:38:41 GMT 50.449497 18.429047 17,000 291 272 2560
2022-01-14 17:38:38 GMT 50.448395 18.433758 16,925 291 272 2560
2022-01-14 17:38:35 GMT 50.448395 18.433758 16,775 291 272 2432
2022-01-14 17:38:32 GMT 50.447342 18.438093 16,675 291 271 2368
2022-01-14 17:38:29 GMT 50.445923 18.444166 16,575 291 270 2304
2022-01-14 17:38:25 GMT 50.443771 18.453024 16,375 291 268 2304
2022-01-14 17:38:22 GMT 50.442886 18.456882 15,925 291 266 2432
2022-01-14 17:38:19 GMT 50.441490 18.462599 16,125 291 266 2432
2022-01-14 17:38:16 GMT 50.440247 18.467800 16,025 291 266 2496
2022-01-14 17:38:13 GMT 50.439163 18.472322 15,875 291 265 2496
2022-01-14 17:38:10 GMT 50.437626 18.478483 15,775 292 264 2560
2022-01-14 17:38:07 GMT 50.436043 18.484941 15,625 292 264 2624
2022-01-14 17:38:04 GMT 50.434929 18.489323 15,450 292 263 2688
2022-01-14 17:38:01 GMT 50.431763 18.501942 15,275 292 262 2944
2022-01-14 17:37:57 GMT 50.431763 18.501942 14,900 288 265 3008
2022-01-14 17:37:54 GMT 50.430412 18.507286 15,000 291 263 3136
2022-01-14 17:37:51 GMT 50.429077 18.512758 14,900 289 264 3072
2022-01-14 17:37:48 GMT 50.427013 18.523617 14,675 284 268 2880
2022-01-14 17:37:45 GMT 50.427013 18.523617 14,550 277 274 2560
2022-01-14 17:37:42 GMT 50.426407 18.530819 14,475 273 277 2368
2022-01-14 17:37:39 GMT 50.426239 18.535959 14,375 272 279 2176
2022-01-14 17:37:33 GMT 50.426743 18.547091 14,150 261 284 2304
2022-01-14 17:37:30 GMT 50.427338 18.553087 13,900 261 285 2560
2022-01-14 17:37:23 GMT 50.428940 18.567184 13,675 260 283 3136
2022-01-14 17:37:20 GMT 50.429714 18.574169 13,475 260 283 3328
2022-01-14 17:37:16 GMT 50.430737 18.583225 13,300 260 283 3392
2022-01-14 17:37:13 GMT 50.431915 18.593132 13,150 260 284 3520
2022-01-14 17:37:10 GMT 50.431915 18.593132 13,025 260 284 3584
2022-01-14 17:37:07 GMT 50.432739 18.600225 12,800 260 285 3904
2022-01-14 17:37:03 GMT 50.433670 18.608242 12,500 260 287 4160
2022-01-14 17:37:00 GMT 50.434479 18.615177 12,300 260 288 4160
2022-01-14 17:36:56 GMT 50.435253 18.621901 12,100 260 289 4032
2022-01-14 17:36:53 GMT 50.436127 18.628908 11,875 260 292 4032
2022-01-14 17:36:49 GMT 50.436996 18.636499 11,425 260 296 4544
2022-01-14 17:36:46 GMT 50.437820 18.643076 11,275 260 296 4608
2022-01-14 17:36:43 GMT 50.439377 18.656231 11,050 260 298 4736
2022-01-14 17:36:40 GMT 50.439377 18.656231 10,650 260 301 4864
2022-01-14 17:36:37 GMT 50.440418 18.665178 10,550 260 303 4928
2022-01-14 17:36:32 GMT 50.441399 18.673416 10,225 260 307 4864
2022-01-14 17:36:28 GMT 50.442719 18.684420 9,825 260 310 4480
2022-01-14 17:36:25 GMT 50.443497 18.691286 9,575 260 311 4352
2022-01-14 17:36:22 GMT 50.444004 18.695686 9,450 260 312 4160
2022-01-14 17:36:19 GMT 50.444889 18.703259 8,800 260 314 3136
2022-01-14 17:36:15 GMT 50.445648 18.709934 9,050 260 314 3456
2022-01-14 17:36:12 GMT 50.446659 18.718847 8,825 260 314 3200
2022-01-14 17:36:08 GMT 50.447617 18.726919 8,575 260 313 2944
2022-01-14 17:36:05 GMT 50.448624 18.735737 8,475 260 312 2752
2022-01-14 17:36:01 GMT 50.449360 18.742229 8,325 260 310 2752
2022-01-14 17:35:58 GMT 50.450058 18.747946 8,175 260 309 2880
2022-01-14 17:35:55 GMT 50.450802 18.754255 8,075 260 308 3008
2022-01-14 17:35:51 GMT 50.452011 18.764576 7,725 260 308 3840
2022-01-14 17:35:48 GMT 50.452942 18.772369 7,625 260 307 3584
2022-01-14 17:35:44 GMT 50.453873 18.780386 7,400 260 307 3840
2022-01-14 17:35:40 GMT 50.454666 18.786839 6,725 260 308 3840
2022-01-14 17:35:37 GMT 50.455597 18.794563 6,850 260 308 3840
2022-01-14 17:35:32 GMT 50.456909 18.805557 6,400 260 309 3392
2022-01-14 17:35:29 GMT 50.457870 18.814014 6,425 260 308 3200
2022-01-14 17:35:26 GMT 50.458389 18.818466 6,325 260 308 2944
2022-01-14 17:35:20 GMT 50.459976 18.832085 6,000 260 303 1920
2022-01-14 17:35:16 GMT 50.460857 18.839846 5,975 261 301 1344
2022-01-14 17:35:10 GMT 50.462357 18.853262 5,375 261 257 1280
2022-01-14 17:35:07 GMT 50.463184 18.860853 5,775 261 285 1216
2022-01-14 17:35:02 GMT 50.464233 18.870104 5,675 261 279 1280
2022-01-14 17:34:59 GMT 50.465141 18.878149 5,600 261 273 1216
2022-01-14 17:34:56 GMT 50.465469 18.881233 5,575 261 269 1216
2022-01-14 17:34:53 GMT 50.466022 18.886240 5,400 261 257 1280
2022-01-14 17:34:50 GMT 50.466888 18.894243 5,425 261 259 1280
2022-01-14 17:34:46 GMT 50.467651 18.901012 5,350 261 253 1536
2022-01-14 17:34:43 GMT 50.468170 18.905807 5,275 261 250 1664
2022-01-14 17:34:40 GMT 50.468765 18.911085 5,125 261 228 1856
2022-01-14 17:34:37 GMT 50.469421 18.916899 5,050 261 238 1792
2022-01-14 17:34:34 GMT 50.470093 18.922794 5,000 260 235 1856
2022-01-14 17:34:30 GMT 50.470734 18.928576 4,825 261 228 1856
2022-01-14 17:34:26 GMT 50.471516 18.935530 4,750 261 224 1920
2022-01-14 17:34:23 GMT 50.471924 18.939562 4,675 261 221 1856
2022-01-14 17:34:20 GMT 50.472382 18.943754 4,575 261 215 1728
2022-01-14 17:34:17 GMT 50.472961 18.949116 4,500 261 210 1600
2022-01-14 17:34:13 GMT 50.473564 18.955202 4,350 261 201 1216
2022-01-14 17:34:10 GMT 50.474030 18.959581 4,325 261 195 704
2022-01-14 17:34:07 GMT 50.474449 18.964035 4,300 261 190 576
2022-01-14 17:34:02 GMT 50.475010 18.969454 4,250 261 185 1088
2022-01-14 17:33:59 GMT 50.475861 18.977509 4,150 262 179 1344
2022-01-14 17:33:56 GMT 50.475861 18.977509 4,125 262 177 1280
2022-01-14 17:33:52 GMT 50.476318 18.982279 4,000 263 168 1600
2022-01-14 17:33:49 GMT 50.476730 18.986973 3,875 266 163 2176
2022-01-14 17:33:45 GMT 50.476963 18.990908 3,825 268 162 2496
2022-01-14 17:33:41 GMT 50.477104 18.996698 3,600 270 161 2880
2022-01-14 17:33:38 GMT 50.477097 18.998976 3,200 272 164 3136
2022-01-14 17:33:35 GMT 50.477104 19.003008 3,200 272 164 3136
2022-01-14 17:33:32 GMT 50.477051 19.007143 3,125 272 164 3136
2022-01-14 17:33:28 GMT 50.477005 19.010830 2,975 273 165 2816
2022-01-14 17:33:22 GMT 50.476826 19.018225 2,725 273 164 1856
2022-01-14 17:33:19 GMT 50.476685 19.023045 2,625 273 161 1408

Making use of Plane Finder data

You are free to use the raw flight data, aircraft information and images provided in this report for your own purposes provided the data is correctly attributed to Plane Finder. We ask that you please credit Plane Finder and link to planefinder.net in close proximity to the content.

Optionally one of the following logos (no smaller then 150x24px) can be used and must link to planefinder.net

Embedding the Plane Finder map

You are welcome to embed the Plane Finder playback map on your website to offer visitors a more interactive experience. We suggest using the following HTML code:

<iframe src="//planefinder.net/data/report/W61005-HA-LPM-7700-squawk-2022-01-14/map" width="800" height="600" seamless="seamless"></iframe>

Where our data comes from

Plane Finder has a global network of data feeds and antenna radars that receive data broadcast directly from aircraft. The primary technologies used are ADS-B and MLAT. We also show feeds from the FAA and a FLARM glider feed.

Click here to find out more about the Plane Finder network.

How we collect our data